<?xml version="1.0" encoding="UTF-8" standalone="no" ?>
<gpx xmlns="http://www.topografix.com/GPX/1/1" xmlns:xsi="http://www.w3.org/2001/XMLSchema-instance" xsi:schemaLocation="http://www.topografix.com/GPX/1/1 http://www.topografix.com/GPX/1/1/gpx.xsd" version="1.1" creator="VisuGPX - https://www.visugpx.com">
  <metadata>
    <name>Hautacam ou soum de Dabant-Aygue 1746m</name>
    <desc><![CDATA[Randonnée à ski au Hautacam avec le CAF des Huskies de Juillan.
]]></desc>
  </metadata>
  <trk>
    <name><![CDATA[TracA- actuel- 09 FEV 2013 07-15-MNT]]></name>
    <trkseg>
      <trkpt lat="42.98971" lon="-0.04356">
        <ele>974.775574</ele>
        <time>2013-02-09T08:28:11Z</time>
      </trkpt>
      <trkpt lat="42.9897" lon="-0.04355">
        <ele>974.682434</ele>
        <time>2013-02-09T08:28:12Z</time>
      </trkpt>
      <trkpt lat="42.98965" lon="-0.04353">
        <ele>974.536865</ele>
        <time>2013-02-09T08:28:28Z</time>
      </trkpt>
      <trkpt lat="42.98964" lon="-0.04353">
        <ele>974.437256</ele>
        <time>2013-02-09T08:28:50Z</time>
      </trkpt>
      <trkpt lat="42.98968" lon="-0.04342">
        <ele>977.144165</ele>
        <time>2013-02-09T08:29:11Z</time>
      </trkpt>
      <trkpt lat="42.98972" lon="-0.04338">
        <ele>978.456238</ele>
        <time>2013-02-09T08:29:35Z</time>
      </trkpt>
      <trkpt lat="42.9897" lon="-0.04337">
        <ele>978.325562</ele>
        <time>2013-02-09T08:29:51Z</time>
      </trkpt>
      <trkpt lat="42.98966" lon="-0.04337">
        <ele>977.957825</ele>
        <time>2013-02-09T08:30:08Z</time>
      </trkpt>
      <trkpt lat="42.98968" lon="-0.04336">
        <ele>978.425659</ele>
        <time>2013-02-09T08:30:25Z</time>
      </trkpt>
      <trkpt lat="42.98968" lon="-0.04335">
        <ele>978.653442</ele>
        <time>2013-02-09T08:30:40Z</time>
      </trkpt>
      <trkpt lat="42.98971" lon="-0.04339">
        <ele>978.153809</ele>
        <time>2013-02-09T08:31:04Z</time>
      </trkpt>
      <trkpt lat="42.9897" lon="-0.04339">
        <ele>978.08136</ele>
        <time>2013-02-09T08:31:29Z</time>
      </trkpt>
      <trkpt lat="42.98972" lon="-0.04336">
        <ele>978.982727</ele>
        <time>2013-02-09T08:31:55Z</time>
      </trkpt>
      <trkpt lat="42.98971" lon="-0.04337">
        <ele>978.632446</ele>
        <time>2013-02-09T08:32:21Z</time>
      </trkpt>
      <trkpt lat="42.98967" lon="-0.04338">
        <ele>977.85437</ele>
        <time>2013-02-09T08:32:34Z</time>
      </trkpt>
      <trkpt lat="42.98967" lon="-0.04338">
        <ele>977.835327</ele>
        <time>2013-02-09T08:32:35Z</time>
      </trkpt>
      <trkpt lat="42.98966" lon="-0.04338">
        <ele>977.812683</ele>
        <time>2013-02-09T08:32:36Z</time>
      </trkpt>
      <trkpt lat="42.98966" lon="-0.04338">
        <ele>977.789917</ele>
        <time>2013-02-09T08:32:37Z</time>
      </trkpt>
      <trkpt lat="42.98967" lon="-0.04338">
        <ele>977.9328</ele>
        <time>2013-02-09T08:32:39Z</time>
      </trkpt>
      <trkpt lat="42.98969" lon="-0.04337">
        <ele>978.395386</ele>
        <time>2013-02-09T08:32:59Z</time>
      </trkpt>
      <trkpt lat="42.98971" lon="-0.04343">
        <ele>977.303467</ele>
        <time>2013-02-09T08:33:27Z</time>
      </trkpt>
      <trkpt lat="42.9897" lon="-0.04339">
        <ele>978.159485</ele>
        <time>2013-02-09T08:33:47Z</time>
      </trkpt>
      <trkpt lat="42.98971" lon="-0.04341">
        <ele>977.622375</ele>
        <time>2013-02-09T08:34:12Z</time>
      </trkpt>
      <trkpt lat="42.98967" lon="-0.04339">
        <ele>977.74469</ele>
        <time>2013-02-09T08:34:27Z</time>
      </trkpt>
      <trkpt lat="42.98969" lon="-0.04337">
        <ele>978.338867</ele>
        <time>2013-02-09T08:34:47Z</time>
      </trkpt>
      <trkpt lat="42.98971" lon="-0.04341">
        <ele>977.785034</ele>
        <time>2013-02-09T08:35:07Z</time>
      </trkpt>
      <trkpt lat="42.9897" lon="-0.04342">
        <ele>977.381226</ele>
        <time>2013-02-09T08:35:25Z</time>
      </trkpt>
      <trkpt lat="42.98973" lon="-0.04357">
        <ele>974.914307</ele>
        <time>2013-02-09T08:35:42Z</time>
      </trkpt>
      <trkpt lat="42.98982" lon="-0.04359">
        <ele>975.624817</ele>
        <time>2013-02-09T08:36:01Z</time>
      </trkpt>
      <trkpt lat="42.98993" lon="-0.04351">
        <ele>978.545349</ele>
        <time>2013-02-09T08:36:17Z</time>
      </trkpt>
      <trkpt lat="42.98997" lon="-0.04334">
        <ele>982.148987</ele>
        <time>2013-02-09T08:36:38Z</time>
      </trkpt>
      <trkpt lat="42.98993" lon="-0.04306">
        <ele>986.423645</ele>
        <time>2013-02-09T08:37:01Z</time>
      </trkpt>
      <trkpt lat="42.98982" lon="-0.04281">
        <ele>989.501404</ele>
        <time>2013-02-09T08:37:23Z</time>
      </trkpt>
      <trkpt lat="42.9897" lon="-0.0426">
        <ele>991.672302</ele>
        <time>2013-02-09T08:37:44Z</time>
      </trkpt>
      <trkpt lat="42.98958" lon="-0.04243">
        <ele>993.499451</ele>
        <time>2013-02-09T08:38:05Z</time>
      </trkpt>
      <trkpt lat="42.98946" lon="-0.04222">
        <ele>995.978821</ele>
        <time>2013-02-09T08:38:25Z</time>
      </trkpt>
      <trkpt lat="42.98935" lon="-0.04202">
        <ele>998.545898</ele>
        <time>2013-02-09T08:38:44Z</time>
      </trkpt>
      <trkpt lat="42.98925" lon="-0.04183">
        <ele>1003.15509</ele>
        <time>2013-02-09T08:39:03Z</time>
      </trkpt>
      <trkpt lat="42.98924" lon="-0.04182">
        <ele>1003.455505</ele>
        <time>2013-02-09T08:39:04Z</time>
      </trkpt>
      <trkpt lat="42.98908" lon="-0.04168">
        <ele>1006.41803</ele>
        <time>2013-02-09T08:39:23Z</time>
      </trkpt>
      <trkpt lat="42.98893" lon="-0.04156">
        <ele>1008.763062</ele>
        <time>2013-02-09T08:39:42Z</time>
      </trkpt>
      <trkpt lat="42.98887" lon="-0.04153">
        <ele>1009.262573</ele>
        <time>2013-02-09T08:40:06Z</time>
      </trkpt>
      <trkpt lat="42.98877" lon="-0.04148">
        <ele>1009.979126</ele>
        <time>2013-02-09T08:40:24Z</time>
      </trkpt>
      <trkpt lat="42.98877" lon="-0.04148">
        <ele>1009.859009</ele>
        <time>2013-02-09T08:40:26Z</time>
      </trkpt>
      <trkpt lat="42.98877" lon="-0.04148">
        <ele>1009.829163</ele>
        <time>2013-02-09T08:40:27Z</time>
      </trkpt>
      <trkpt lat="42.98876" lon="-0.04148">
        <ele>1009.854736</ele>
        <time>2013-02-09T08:40:28Z</time>
      </trkpt>
      <trkpt lat="42.98876" lon="-0.04149">
        <ele>1009.576172</ele>
        <time>2013-02-09T08:40:30Z</time>
      </trkpt>
      <trkpt lat="42.98872" lon="-0.04151">
        <ele>1008.355225</ele>
        <time>2013-02-09T08:40:45Z</time>
      </trkpt>
      <trkpt lat="42.98872" lon="-0.04151">
        <ele>1008.354431</ele>
        <time>2013-02-09T08:40:46Z</time>
      </trkpt>
      <trkpt lat="42.98872" lon="-0.04152">
        <ele>1008.253662</ele>
        <time>2013-02-09T08:40:47Z</time>
      </trkpt>
      <trkpt lat="42.98872" lon="-0.04152">
        <ele>1008.10083</ele>
        <time>2013-02-09T08:40:48Z</time>
      </trkpt>
      <trkpt lat="42.98872" lon="-0.04153">
        <ele>1007.861145</ele>
        <time>2013-02-09T08:40:50Z</time>
      </trkpt>
      <trkpt lat="42.98872" lon="-0.04153">
        <ele>1007.771973</ele>
        <time>2013-02-09T08:40:51Z</time>
      </trkpt>
      <trkpt lat="42.98872" lon="-0.04153">
        <ele>1007.77002</ele>
        <time>2013-02-09T08:40:52Z</time>
      </trkpt>
      <trkpt lat="42.98871" lon="-0.04153">
        <ele>1007.770142</ele>
        <time>2013-02-09T08:40:53Z</time>
      </trkpt>
      <trkpt lat="42.98859" lon="-0.04141">
        <ele>1010.631104</ele>
        <time>2013-02-09T08:41:09Z</time>
      </trkpt>
      <trkpt lat="42.98844" lon="-0.04135">
        <ele>1011.271423</ele>
        <time>2013-02-09T08:41:25Z</time>
      </trkpt>
      <trkpt lat="42.9883" lon="-0.04127">
        <ele>1012.807434</ele>
        <time>2013-02-09T08:41:42Z</time>
      </trkpt>
      <trkpt lat="42.98816" lon="-0.04121">
        <ele>1013.447144</ele>
        <time>2013-02-09T08:41:56Z</time>
      </trkpt>
      <trkpt lat="42.98798" lon="-0.04118">
        <ele>1012.509949</ele>
        <time>2013-02-09T08:42:12Z</time>
      </trkpt>
      <trkpt lat="42.98784" lon="-0.041">
        <ele>1016.85675</ele>
        <time>2013-02-09T08:42:32Z</time>
      </trkpt>
      <trkpt lat="42.98768" lon="-0.04084">
        <ele>1019.538147</ele>
        <time>2013-02-09T08:42:53Z</time>
      </trkpt>
      <trkpt lat="42.98759" lon="-0.04067">
        <ele>1022.861206</ele>
        <time>2013-02-09T08:43:10Z</time>
      </trkpt>
      <trkpt lat="42.98756" lon="-0.04065">
        <ele>1022.863831</ele>
        <time>2013-02-09T08:43:14Z</time>
      </trkpt>
      <trkpt lat="42.98755" lon="-0.04064">
        <ele>1022.837524</ele>
        <time>2013-02-09T08:43:15Z</time>
      </trkpt>
      <trkpt lat="42.98754" lon="-0.04063">
        <ele>1022.846069</ele>
        <time>2013-02-09T08:43:17Z</time>
      </trkpt>
      <trkpt lat="42.98749" lon="-0.04053">
        <ele>1024.145508</ele>
        <time>2013-02-09T08:43:36Z</time>
      </trkpt>
      <trkpt lat="42.9875" lon="-0.04052">
        <ele>1024.591187</ele>
        <time>2013-02-09T08:44:03Z</time>
      </trkpt>
      <trkpt lat="42.98747" lon="-0.04058">
        <ele>1022.594788</ele>
        <time>2013-02-09T08:44:28Z</time>
      </trkpt>
      <trkpt lat="42.98746" lon="-0.04057">
        <ele>1022.634888</ele>
        <time>2013-02-09T08:44:34Z</time>
      </trkpt>
      <trkpt lat="42.98744" lon="-0.04057">
        <ele>1022.312683</ele>
        <time>2013-02-09T08:44:48Z</time>
      </trkpt>
      <trkpt lat="42.98742" lon="-0.04056">
        <ele>1022.358521</ele>
        <time>2013-02-09T08:45:06Z</time>
      </trkpt>
      <trkpt lat="42.9874" lon="-0.04051">
        <ele>1023.241821</ele>
        <time>2013-02-09T08:45:36Z</time>
      </trkpt>
      <trkpt lat="42.98742" lon="-0.0405">
        <ele>1023.630249</ele>
        <time>2013-02-09T08:45:55Z</time>
      </trkpt>
      <trkpt lat="42.98735" lon="-0.04055">
        <ele>1021.746033</ele>
        <time>2013-02-09T08:46:13Z</time>
      </trkpt>
      <trkpt lat="42.98737" lon="-0.04051">
        <ele>1022.681763</ele>
        <time>2013-02-09T08:46:35Z</time>
      </trkpt>
      <trkpt lat="42.98738" lon="-0.04049">
        <ele>1023.446411</ele>
        <time>2013-02-09T08:46:58Z</time>
      </trkpt>
      <trkpt lat="42.98735" lon="-0.04049">
        <ele>1023.162781</ele>
        <time>2013-02-09T08:47:21Z</time>
      </trkpt>
      <trkpt lat="42.98731" lon="-0.04036">
        <ele>1025.385132</ele>
        <time>2013-02-09T08:47:35Z</time>
      </trkpt>
      <trkpt lat="42.98732" lon="-0.04029">
        <ele>1027.056885</ele>
        <time>2013-02-09T08:47:49Z</time>
      </trkpt>
      <trkpt lat="42.98741" lon="-0.04025">
        <ele>1029.299438</ele>
        <time>2013-02-09T08:48:08Z</time>
      </trkpt>
      <trkpt lat="42.98752" lon="-0.04022">
        <ele>1032.002075</ele>
        <time>2013-02-09T08:48:25Z</time>
      </trkpt>
      <trkpt lat="42.98762" lon="-0.04024">
        <ele>1034.42688</ele>
        <time>2013-02-09T08:48:43Z</time>
      </trkpt>
      <trkpt lat="42.98772" lon="-0.04026">
        <ele>1036.523315</ele>
        <time>2013-02-09T08:49:04Z</time>
      </trkpt>
      <trkpt lat="42.98782" lon="-0.04028">
        <ele>1038.650635</ele>
        <time>2013-02-09T08:49:22Z</time>
      </trkpt>
      <trkpt lat="42.98791" lon="-0.04029">
        <ele>1040.695801</ele>
        <time>2013-02-09T08:49:39Z</time>
      </trkpt>
      <trkpt lat="42.988" lon="-0.04035">
        <ele>1040.205566</ele>
        <time>2013-02-09T08:50:00Z</time>
      </trkpt>
      <trkpt lat="42.988" lon="-0.04035">
        <ele>1040.314331</ele>
        <time>2013-02-09T08:50:01Z</time>
      </trkpt>
      <trkpt lat="42.98803" lon="-0.04035">
        <ele>1040.532959</ele>
        <time>2013-02-09T08:50:05Z</time>
      </trkpt>
      <trkpt lat="42.98812" lon="-0.04037">
        <ele>1041.396973</ele>
        <time>2013-02-09T08:50:25Z</time>
      </trkpt>
      <trkpt lat="42.98814" lon="-0.04036">
        <ele>1042.038086</ele>
        <time>2013-02-09T08:50:29Z</time>
      </trkpt>
      <trkpt lat="42.98816" lon="-0.04039">
        <ele>1041.597168</ele>
        <time>2013-02-09T08:50:37Z</time>
      </trkpt>
      <trkpt lat="42.98817" lon="-0.04038">
        <ele>1041.758301</ele>
        <time>2013-02-09T08:50:38Z</time>
      </trkpt>
      <trkpt lat="42.98817" lon="-0.04038">
        <ele>1041.936157</ele>
        <time>2013-02-09T08:50:39Z</time>
      </trkpt>
      <trkpt lat="42.98824" lon="-0.04037">
        <ele>1043.33728</ele>
        <time>2013-02-09T08:50:56Z</time>
      </trkpt>
      <trkpt lat="42.98818" lon="-0.04031">
        <ele>1044.05188</ele>
        <time>2013-02-09T08:51:15Z</time>
      </trkpt>
      <trkpt lat="42.98812" lon="-0.04017">
        <ele>1047.45166</ele>
        <time>2013-02-09T08:51:35Z</time>
      </trkpt>
      <trkpt lat="42.98808" lon="-0.04006">
        <ele>1049.90271</ele>
        <time>2013-02-09T08:51:51Z</time>
      </trkpt>
      <trkpt lat="42.98807" lon="-0.03996">
        <ele>1052.017334</ele>
        <time>2013-02-09T08:52:08Z</time>
      </trkpt>
      <trkpt lat="42.98801" lon="-0.03988">
        <ele>1053.050171</ele>
        <time>2013-02-09T08:52:25Z</time>
      </trkpt>
      <trkpt lat="42.98793" lon="-0.03984">
        <ele>1053.126343</ele>
        <time>2013-02-09T08:52:42Z</time>
      </trkpt>
      <trkpt lat="42.98808" lon="-0.03982">
        <ele>1055.186646</ele>
        <time>2013-02-09T08:53:01Z</time>
      </trkpt>
      <trkpt lat="42.98819" lon="-0.03981">
        <ele>1056.845703</ele>
        <time>2013-02-09T08:53:18Z</time>
      </trkpt>
      <trkpt lat="42.98823" lon="-0.03977">
        <ele>1058.202881</ele>
        <time>2013-02-09T08:53:37Z</time>
      </trkpt>
      <trkpt lat="42.98814" lon="-0.03971">
        <ele>1058.406128</ele>
        <time>2013-02-09T08:53:53Z</time>
      </trkpt>
      <trkpt lat="42.98806" lon="-0.03964">
        <ele>1059.215088</ele>
        <time>2013-02-09T08:54:08Z</time>
      </trkpt>
      <trkpt lat="42.98798" lon="-0.03956">
        <ele>1060.430908</ele>
        <time>2013-02-09T08:54:25Z</time>
      </trkpt>
      <trkpt lat="42.98793" lon="-0.03945">
        <ele>1062.851074</ele>
        <time>2013-02-09T08:54:41Z</time>
      </trkpt>
      <trkpt lat="42.98795" lon="-0.03937">
        <ele>1065.435669</ele>
        <time>2013-02-09T08:54:55Z</time>
      </trkpt>
      <trkpt lat="42.98807" lon="-0.03938">
        <ele>1065.992188</ele>
        <time>2013-02-09T08:55:13Z</time>
      </trkpt>
      <trkpt lat="42.98816" lon="-0.03929">
        <ele>1068.718018</ele>
        <time>2013-02-09T08:55:30Z</time>
      </trkpt>
      <trkpt lat="42.98824" lon="-0.03919">
        <ele>1071.510376</ele>
        <time>2013-02-09T08:55:47Z</time>
      </trkpt>
      <trkpt lat="42.98823" lon="-0.03917">
        <ele>1071.886108</ele>
        <time>2013-02-09T08:56:11Z</time>
      </trkpt>
      <trkpt lat="42.98824" lon="-0.03922">
        <ele>1070.732422</ele>
        <time>2013-02-09T08:56:47Z</time>
      </trkpt>
      <trkpt lat="42.9883" lon="-0.03917">
        <ele>1071.892822</ele>
        <time>2013-02-09T08:57:12Z</time>
      </trkpt>
      <trkpt lat="42.98842" lon="-0.03907">
        <ele>1073.877686</ele>
        <time>2013-02-09T08:57:30Z</time>
      </trkpt>
      <trkpt lat="42.98853" lon="-0.03895">
        <ele>1075.813721</ele>
        <time>2013-02-09T08:57:47Z</time>
      </trkpt>
      <trkpt lat="42.98866" lon="-0.03883">
        <ele>1077.264282</ele>
        <time>2013-02-09T08:58:04Z</time>
      </trkpt>
      <trkpt lat="42.98878" lon="-0.03872">
        <ele>1078.328125</ele>
        <time>2013-02-09T08:58:22Z</time>
      </trkpt>
      <trkpt lat="42.98886" lon="-0.03866">
        <ele>1078.894897</ele>
        <time>2013-02-09T08:58:38Z</time>
      </trkpt>
      <trkpt lat="42.98899" lon="-0.03849">
        <ele>1081.284302</ele>
        <time>2013-02-09T08:59:00Z</time>
      </trkpt>
      <trkpt lat="42.98911" lon="-0.03836">
        <ele>1083.261108</ele>
        <time>2013-02-09T08:59:17Z</time>
      </trkpt>
      <trkpt lat="42.98927" lon="-0.03825">
        <ele>1085.902344</ele>
        <time>2013-02-09T08:59:37Z</time>
      </trkpt>
      <trkpt lat="42.98941" lon="-0.03822">
        <ele>1087.567017</ele>
        <time>2013-02-09T08:59:57Z</time>
      </trkpt>
      <trkpt lat="42.98938" lon="-0.03819">
        <ele>1088.46228</ele>
        <time>2013-02-09T09:00:14Z</time>
      </trkpt>
      <trkpt lat="42.98931" lon="-0.03807">
        <ele>1092.304443</ele>
        <time>2013-02-09T09:00:31Z</time>
      </trkpt>
      <trkpt lat="42.98927" lon="-0.03803">
        <ele>1093.537842</ele>
        <time>2013-02-09T09:00:44Z</time>
      </trkpt>
      <trkpt lat="42.98941" lon="-0.03799">
        <ele>1095.564453</ele>
        <time>2013-02-09T09:01:01Z</time>
      </trkpt>
      <trkpt lat="42.98948" lon="-0.03798">
        <ele>1096.332642</ele>
        <time>2013-02-09T09:01:20Z</time>
      </trkpt>
      <trkpt lat="42.98947" lon="-0.03799">
        <ele>1095.987427</ele>
        <time>2013-02-09T09:01:36Z</time>
      </trkpt>
      <trkpt lat="42.98941" lon="-0.03794">
        <ele>1097.013916</ele>
        <time>2013-02-09T09:01:55Z</time>
      </trkpt>
      <trkpt lat="42.98941" lon="-0.03788">
        <ele>1099.208496</ele>
        <time>2013-02-09T09:02:15Z</time>
      </trkpt>
      <trkpt lat="42.98946" lon="-0.03792">
        <ele>1098.298584</ele>
        <time>2013-02-09T09:02:35Z</time>
      </trkpt>
      <trkpt lat="42.98941" lon="-0.0379">
        <ele>1098.615234</ele>
        <time>2013-02-09T09:02:56Z</time>
      </trkpt>
      <trkpt lat="42.98934" lon="-0.03781">
        <ele>1101.10791</ele>
        <time>2013-02-09T09:03:13Z</time>
      </trkpt>
      <trkpt lat="42.98939" lon="-0.03783">
        <ele>1100.827271</ele>
        <time>2013-02-09T09:03:29Z</time>
      </trkpt>
      <trkpt lat="42.98941" lon="-0.03785">
        <ele>1100.253906</ele>
        <time>2013-02-09T09:03:49Z</time>
      </trkpt>
      <trkpt lat="42.98947" lon="-0.03787">
        <ele>1099.908325</ele>
        <time>2013-02-09T09:04:09Z</time>
      </trkpt>
      <trkpt lat="42.9896" lon="-0.03783">
        <ele>1102.052368</ele>
        <time>2013-02-09T09:04:26Z</time>
      </trkpt>
      <trkpt lat="42.98976" lon="-0.03777">
        <ele>1105.072021</ele>
        <time>2013-02-09T09:04:42Z</time>
      </trkpt>
      <trkpt lat="42.98989" lon="-0.03773">
        <ele>1106.872681</ele>
        <time>2013-02-09T09:04:58Z</time>
      </trkpt>
      <trkpt lat="42.98999" lon="-0.03772">
        <ele>1107.444336</ele>
        <time>2013-02-09T09:05:15Z</time>
      </trkpt>
      <trkpt lat="42.99013" lon="-0.03772">
        <ele>1108.289307</ele>
        <time>2013-02-09T09:05:32Z</time>
      </trkpt>
      <trkpt lat="42.99027" lon="-0.03777">
        <ele>1107.671143</ele>
        <time>2013-02-09T09:05:48Z</time>
      </trkpt>
      <trkpt lat="42.99037" lon="-0.03785">
        <ele>1106.397949</ele>
        <time>2013-02-09T09:06:04Z</time>
      </trkpt>
      <trkpt lat="42.99048" lon="-0.03797">
        <ele>1104.073853</ele>
        <time>2013-02-09T09:06:20Z</time>
      </trkpt>
      <trkpt lat="42.99057" lon="-0.03802">
        <ele>1103.706177</ele>
        <time>2013-02-09T09:06:36Z</time>
      </trkpt>
      <trkpt lat="42.99065" lon="-0.03799">
        <ele>1105.233765</ele>
        <time>2013-02-09T09:06:50Z</time>
      </trkpt>
      <trkpt lat="42.99076" lon="-0.03794">
        <ele>1107.098267</ele>
        <time>2013-02-09T09:07:09Z</time>
      </trkpt>
      <trkpt lat="42.99071" lon="-0.0379">
        <ele>1108.144165</ele>
        <time>2013-02-09T09:07:28Z</time>
      </trkpt>
      <trkpt lat="42.99076" lon="-0.03783">
        <ele>1110.11377</ele>
        <time>2013-02-09T09:07:43Z</time>
      </trkpt>
      <trkpt lat="42.99085" lon="-0.03777">
        <ele>1112.35791</ele>
        <time>2013-02-09T09:08:10Z</time>
      </trkpt>
      <trkpt lat="42.99092" lon="-0.03769">
        <ele>1115.872314</ele>
        <time>2013-02-09T09:08:26Z</time>
      </trkpt>
      <trkpt lat="42.99096" lon="-0.03763">
        <ele>1118.651611</ele>
        <time>2013-02-09T09:08:41Z</time>
      </trkpt>
      <trkpt lat="42.99103" lon="-0.03755">
        <ele>1122.199707</ele>
        <time>2013-02-09T09:08:58Z</time>
      </trkpt>
      <trkpt lat="42.99109" lon="-0.03745">
        <ele>1126.926758</ele>
        <time>2013-02-09T09:09:16Z</time>
      </trkpt>
      <trkpt lat="42.99114" lon="-0.03742">
        <ele>1128.299561</ele>
        <time>2013-02-09T09:09:33Z</time>
      </trkpt>
      <trkpt lat="42.9912" lon="-0.03736">
        <ele>1130.398804</ele>
        <time>2013-02-09T09:09:47Z</time>
      </trkpt>
      <trkpt lat="42.99128" lon="-0.03729">
        <ele>1133.460449</ele>
        <time>2013-02-09T09:10:05Z</time>
      </trkpt>
      <trkpt lat="42.99121" lon="-0.03727">
        <ele>1134.469604</ele>
        <time>2013-02-09T09:10:21Z</time>
      </trkpt>
      <trkpt lat="42.99115" lon="-0.03721">
        <ele>1136.975098</ele>
        <time>2013-02-09T09:10:36Z</time>
      </trkpt>
      <trkpt lat="42.99109" lon="-0.03713">
        <ele>1139.730713</ele>
        <time>2013-02-09T09:10:51Z</time>
      </trkpt>
      <trkpt lat="42.99105" lon="-0.03705">
        <ele>1142.409302</ele>
        <time>2013-02-09T09:11:05Z</time>
      </trkpt>
      <trkpt lat="42.991" lon="-0.03697">
        <ele>1145.201294</ele>
        <time>2013-02-09T09:11:20Z</time>
      </trkpt>
      <trkpt lat="42.99105" lon="-0.03693">
        <ele>1147.307251</ele>
        <time>2013-02-09T09:11:38Z</time>
      </trkpt>
      <trkpt lat="42.9911" lon="-0.03689">
        <ele>1148.752563</ele>
        <time>2013-02-09T09:11:57Z</time>
      </trkpt>
      <trkpt lat="42.99114" lon="-0.03685">
        <ele>1150.442139</ele>
        <time>2013-02-09T09:12:13Z</time>
      </trkpt>
      <trkpt lat="42.99119" lon="-0.03678">
        <ele>1152.914185</ele>
        <time>2013-02-09T09:12:29Z</time>
      </trkpt>
      <trkpt lat="42.99126" lon="-0.03669">
        <ele>1156.129028</ele>
        <time>2013-02-09T09:12:46Z</time>
      </trkpt>
      <trkpt lat="42.9913" lon="-0.03659">
        <ele>1159.802734</ele>
        <time>2013-02-09T09:13:00Z</time>
      </trkpt>
      <trkpt lat="42.99135" lon="-0.03653">
        <ele>1161.629028</ele>
        <time>2013-02-09T09:13:17Z</time>
      </trkpt>
      <trkpt lat="42.99142" lon="-0.03644">
        <ele>1163.179688</ele>
        <time>2013-02-09T09:13:32Z</time>
      </trkpt>
      <trkpt lat="42.99151" lon="-0.03636">
        <ele>1164.322998</ele>
        <time>2013-02-09T09:13:51Z</time>
      </trkpt>
      <trkpt lat="42.99149" lon="-0.03635">
        <ele>1164.643311</ele>
        <time>2013-02-09T09:14:13Z</time>
      </trkpt>
      <trkpt lat="42.99148" lon="-0.03634">
        <ele>1164.7771</ele>
        <time>2013-02-09T09:14:51Z</time>
      </trkpt>
      <trkpt lat="42.99152" lon="-0.03635">
        <ele>1164.543457</ele>
        <time>2013-02-09T09:15:27Z</time>
      </trkpt>
      <trkpt lat="42.9915" lon="-0.03636">
        <ele>1164.395874</ele>
        <time>2013-02-09T09:15:52Z</time>
      </trkpt>
      <trkpt lat="42.99155" lon="-0.03627">
        <ele>1166.006714</ele>
        <time>2013-02-09T09:16:11Z</time>
      </trkpt>
      <trkpt lat="42.9916" lon="-0.03624">
        <ele>1166.219727</ele>
        <time>2013-02-09T09:16:27Z</time>
      </trkpt>
      <trkpt lat="42.99166" lon="-0.03612">
        <ele>1168.088257</ele>
        <time>2013-02-09T09:16:42Z</time>
      </trkpt>
      <trkpt lat="42.99173" lon="-0.03601">
        <ele>1170.023193</ele>
        <time>2013-02-09T09:16:56Z</time>
      </trkpt>
      <trkpt lat="42.99179" lon="-0.0359">
        <ele>1171.580811</ele>
        <time>2013-02-09T09:17:12Z</time>
      </trkpt>
      <trkpt lat="42.99187" lon="-0.03577">
        <ele>1172.894287</ele>
        <time>2013-02-09T09:17:29Z</time>
      </trkpt>
      <trkpt lat="42.99195" lon="-0.03564">
        <ele>1174.419922</ele>
        <time>2013-02-09T09:17:46Z</time>
      </trkpt>
      <trkpt lat="42.99201" lon="-0.0355">
        <ele>1176.114136</ele>
        <time>2013-02-09T09:18:02Z</time>
      </trkpt>
      <trkpt lat="42.99201" lon="-0.03538">
        <ele>1177.831909</ele>
        <time>2013-02-09T09:18:18Z</time>
      </trkpt>
      <trkpt lat="42.99194" lon="-0.03526">
        <ele>1179.649536</ele>
        <time>2013-02-09T09:18:36Z</time>
      </trkpt>
      <trkpt lat="42.99192" lon="-0.03513">
        <ele>1181.174927</ele>
        <time>2013-02-09T09:18:52Z</time>
      </trkpt>
      <trkpt lat="42.99189" lon="-0.03498">
        <ele>1183.071655</ele>
        <time>2013-02-09T09:19:09Z</time>
      </trkpt>
      <trkpt lat="42.99186" lon="-0.03486">
        <ele>1184.526489</ele>
        <time>2013-02-09T09:19:25Z</time>
      </trkpt>
      <trkpt lat="42.99187" lon="-0.03484">
        <ele>1184.717407</ele>
        <time>2013-02-09T09:19:44Z</time>
      </trkpt>
      <trkpt lat="42.99185" lon="-0.03487">
        <ele>1184.466675</ele>
        <time>2013-02-09T09:20:08Z</time>
      </trkpt>
      <trkpt lat="42.99184" lon="-0.03487">
        <ele>1184.560181</ele>
        <time>2013-02-09T09:20:24Z</time>
      </trkpt>
      <trkpt lat="42.99185" lon="-0.03487">
        <ele>1184.483887</ele>
        <time>2013-02-09T09:20:46Z</time>
      </trkpt>
      <trkpt lat="42.99181" lon="-0.03486">
        <ele>1184.776733</ele>
        <time>2013-02-09T09:21:16Z</time>
      </trkpt>
      <trkpt lat="42.99181" lon="-0.0349">
        <ele>1184.274536</ele>
        <time>2013-02-09T09:21:41Z</time>
      </trkpt>
      <trkpt lat="42.99183" lon="-0.03487">
        <ele>1184.519531</ele>
        <time>2013-02-09T09:22:06Z</time>
      </trkpt>
      <trkpt lat="42.99184" lon="-0.0349">
        <ele>1184.230347</ele>
        <time>2013-02-09T09:22:31Z</time>
      </trkpt>
      <trkpt lat="42.99184" lon="-0.0349">
        <ele>1184.180786</ele>
        <time>2013-02-09T09:23:03Z</time>
      </trkpt>
      <trkpt lat="42.99179" lon="-0.03484">
        <ele>1185.091064</ele>
        <time>2013-02-09T09:23:28Z</time>
      </trkpt>
      <trkpt lat="42.99178" lon="-0.03483">
        <ele>1185.243164</ele>
        <time>2013-02-09T09:23:30Z</time>
      </trkpt>
      <trkpt lat="42.99169" lon="-0.03473">
        <ele>1186.738892</ele>
        <time>2013-02-09T09:23:35Z</time>
      </trkpt>
      <trkpt lat="42.99168" lon="-0.03459">
        <ele>1189.104736</ele>
        <time>2013-02-09T09:23:38Z</time>
      </trkpt>
      <trkpt lat="42.99165" lon="-0.0344">
        <ele>1192.270874</ele>
        <time>2013-02-09T09:23:50Z</time>
      </trkpt>
      <trkpt lat="42.99158" lon="-0.03427">
        <ele>1194.431763</ele>
        <time>2013-02-09T09:24:07Z</time>
      </trkpt>
      <trkpt lat="42.99154" lon="-0.03416">
        <ele>1196.074097</ele>
        <time>2013-02-09T09:24:23Z</time>
      </trkpt>
      <trkpt lat="42.99152" lon="-0.03406">
        <ele>1197.556641</ele>
        <time>2013-02-09T09:24:37Z</time>
      </trkpt>
      <trkpt lat="42.99152" lon="-0.03398">
        <ele>1198.694946</ele>
        <time>2013-02-09T09:24:52Z</time>
      </trkpt>
      <trkpt lat="42.99153" lon="-0.03387">
        <ele>1200.395874</ele>
        <time>2013-02-09T09:25:01Z</time>
      </trkpt>
      <trkpt lat="42.99155" lon="-0.03369">
        <ele>1203.259033</ele>
        <time>2013-02-09T09:25:17Z</time>
      </trkpt>
      <trkpt lat="42.99153" lon="-0.03353">
        <ele>1205.512329</ele>
        <time>2013-02-09T09:25:33Z</time>
      </trkpt>
      <trkpt lat="42.99148" lon="-0.0334">
        <ele>1207.069702</ele>
        <time>2013-02-09T09:25:45Z</time>
      </trkpt>
      <trkpt lat="42.99136" lon="-0.0333">
        <ele>1207.811157</ele>
        <time>2013-02-09T09:26:02Z</time>
      </trkpt>
      <trkpt lat="42.99136" lon="-0.03326">
        <ele>1208.470093</ele>
        <time>2013-02-09T09:26:15Z</time>
      </trkpt>
      <trkpt lat="42.99144" lon="-0.03318">
        <ele>1210.399414</ele>
        <time>2013-02-09T09:26:34Z</time>
      </trkpt>
      <trkpt lat="42.99147" lon="-0.03303">
        <ele>1213.1073</ele>
        <time>2013-02-09T09:26:53Z</time>
      </trkpt>
      <trkpt lat="42.99148" lon="-0.03288">
        <ele>1215.650879</ele>
        <time>2013-02-09T09:27:09Z</time>
      </trkpt>
      <trkpt lat="42.99136" lon="-0.03279">
        <ele>1217.265503</ele>
        <time>2013-02-09T09:27:28Z</time>
      </trkpt>
      <trkpt lat="42.99127" lon="-0.03272">
        <ele>1218.691406</ele>
        <time>2013-02-09T09:27:45Z</time>
      </trkpt>
      <trkpt lat="42.99122" lon="-0.0326">
        <ele>1221.237305</ele>
        <time>2013-02-09T09:28:01Z</time>
      </trkpt>
      <trkpt lat="42.99122" lon="-0.03246">
        <ele>1224.634033</ele>
        <time>2013-02-09T09:28:19Z</time>
      </trkpt>
      <trkpt lat="42.99126" lon="-0.03234">
        <ele>1227.15564</ele>
        <time>2013-02-09T09:28:35Z</time>
      </trkpt>
      <trkpt lat="42.9913" lon="-0.03224">
        <ele>1229.47998</ele>
        <time>2013-02-09T09:28:53Z</time>
      </trkpt>
      <trkpt lat="42.99135" lon="-0.03209">
        <ele>1233.101196</ele>
        <time>2013-02-09T09:29:10Z</time>
      </trkpt>
      <trkpt lat="42.99147" lon="-0.03211">
        <ele>1232.46228</ele>
        <time>2013-02-09T09:29:30Z</time>
      </trkpt>
      <trkpt lat="42.99154" lon="-0.03202">
        <ele>1234.280396</ele>
        <time>2013-02-09T09:29:46Z</time>
      </trkpt>
      <trkpt lat="42.9916" lon="-0.03189">
        <ele>1236.7771</ele>
        <time>2013-02-09T09:30:04Z</time>
      </trkpt>
      <trkpt lat="42.99161" lon="-0.03179">
        <ele>1239.021973</ele>
        <time>2013-02-09T09:30:20Z</time>
      </trkpt>
      <trkpt lat="42.99168" lon="-0.03168">
        <ele>1241.041382</ele>
        <time>2013-02-09T09:30:38Z</time>
      </trkpt>
      <trkpt lat="42.99172" lon="-0.03156">
        <ele>1243.709473</ele>
        <time>2013-02-09T09:30:53Z</time>
      </trkpt>
      <trkpt lat="42.99176" lon="-0.03141">
        <ele>1246.836792</ele>
        <time>2013-02-09T09:31:12Z</time>
      </trkpt>
      <trkpt lat="42.99183" lon="-0.0313">
        <ele>1248.596436</ele>
        <time>2013-02-09T09:31:28Z</time>
      </trkpt>
      <trkpt lat="42.99189" lon="-0.03113">
        <ele>1251.756714</ele>
        <time>2013-02-09T09:31:45Z</time>
      </trkpt>
      <trkpt lat="42.99189" lon="-0.03111">
        <ele>1252.274902</ele>
        <time>2013-02-09T09:31:47Z</time>
      </trkpt>
      <trkpt lat="42.99193" lon="-0.03099">
        <ele>1254.650391</ele>
        <time>2013-02-09T09:32:07Z</time>
      </trkpt>
      <trkpt lat="42.99189" lon="-0.03105">
        <ele>1253.723511</ele>
        <time>2013-02-09T09:32:40Z</time>
      </trkpt>
      <trkpt lat="42.9919" lon="-0.03104">
        <ele>1253.862427</ele>
        <time>2013-02-09T09:32:41Z</time>
      </trkpt>
      <trkpt lat="42.99189" lon="-0.03105">
        <ele>1253.987305</ele>
        <time>2013-02-09T09:33:11Z</time>
      </trkpt>
      <trkpt lat="42.99186" lon="-0.03102">
        <ele>1255.326782</ele>
        <time>2013-02-09T09:33:35Z</time>
      </trkpt>
      <trkpt lat="42.99178" lon="-0.031">
        <ele>1257.328979</ele>
        <time>2013-02-09T09:33:50Z</time>
      </trkpt>
      <trkpt lat="42.99172" lon="-0.031">
        <ele>1258.650391</ele>
        <time>2013-02-09T09:34:06Z</time>
      </trkpt>
      <trkpt lat="42.99163" lon="-0.03097">
        <ele>1260.557983</ele>
        <time>2013-02-09T09:34:22Z</time>
      </trkpt>
      <trkpt lat="42.99158" lon="-0.03095">
        <ele>1261.886963</ele>
        <time>2013-02-09T09:34:31Z</time>
      </trkpt>
      <trkpt lat="42.99151" lon="-0.03093">
        <ele>1263.354614</ele>
        <time>2013-02-09T09:34:44Z</time>
      </trkpt>
      <trkpt lat="42.99143" lon="-0.0309">
        <ele>1265.368408</ele>
        <time>2013-02-09T09:34:59Z</time>
      </trkpt>
      <trkpt lat="42.99135" lon="-0.03081">
        <ele>1268.885986</ele>
        <time>2013-02-09T09:35:15Z</time>
      </trkpt>
      <trkpt lat="42.99142" lon="-0.03075">
        <ele>1270.156006</ele>
        <time>2013-02-09T09:35:30Z</time>
      </trkpt>
      <trkpt lat="42.99145" lon="-0.03063">
        <ele>1273.36438</ele>
        <time>2013-02-09T09:35:49Z</time>
      </trkpt>
      <trkpt lat="42.99135" lon="-0.03059">
        <ele>1275.963623</ele>
        <time>2013-02-09T09:36:03Z</time>
      </trkpt>
      <trkpt lat="42.99125" lon="-0.03058">
        <ele>1277.744751</ele>
        <time>2013-02-09T09:36:20Z</time>
      </trkpt>
      <trkpt lat="42.99116" lon="-0.03059">
        <ele>1279.009277</ele>
        <time>2013-02-09T09:36:35Z</time>
      </trkpt>
      <trkpt lat="42.9911" lon="-0.03059">
        <ele>1280.079468</ele>
        <time>2013-02-09T09:36:48Z</time>
      </trkpt>
      <trkpt lat="42.99113" lon="-0.03052">
        <ele>1281.89502</ele>
        <time>2013-02-09T09:37:03Z</time>
      </trkpt>
      <trkpt lat="42.99111" lon="-0.03057">
        <ele>1280.482056</ele>
        <time>2013-02-09T09:37:35Z</time>
      </trkpt>
      <trkpt lat="42.99111" lon="-0.03056">
        <ele>1281.109131</ele>
        <time>2013-02-09T09:38:11Z</time>
      </trkpt>
      <trkpt lat="42.99115" lon="-0.03052">
        <ele>1281.573608</ele>
        <time>2013-02-09T09:38:30Z</time>
      </trkpt>
      <trkpt lat="42.99115" lon="-0.03046">
        <ele>1283.345947</ele>
        <time>2013-02-09T09:38:53Z</time>
      </trkpt>
      <trkpt lat="42.99122" lon="-0.03034">
        <ele>1286.184082</ele>
        <time>2013-02-09T09:39:11Z</time>
      </trkpt>
      <trkpt lat="42.99131" lon="-0.03025">
        <ele>1287.103882</ele>
        <time>2013-02-09T09:39:31Z</time>
      </trkpt>
      <trkpt lat="42.99143" lon="-0.03018">
        <ele>1287.392212</ele>
        <time>2013-02-09T09:39:50Z</time>
      </trkpt>
      <trkpt lat="42.99151" lon="-0.03007">
        <ele>1289.158691</ele>
        <time>2013-02-09T09:40:08Z</time>
      </trkpt>
      <trkpt lat="42.99153" lon="-0.02995">
        <ele>1292.324219</ele>
        <time>2013-02-09T09:40:27Z</time>
      </trkpt>
      <trkpt lat="42.99143" lon="-0.02998">
        <ele>1293.702026</ele>
        <time>2013-02-09T09:40:42Z</time>
      </trkpt>
      <trkpt lat="42.99136" lon="-0.02995">
        <ele>1296.256714</ele>
        <time>2013-02-09T09:40:54Z</time>
      </trkpt>
      <trkpt lat="42.99128" lon="-0.02989">
        <ele>1299.613525</ele>
        <time>2013-02-09T09:41:08Z</time>
      </trkpt>
      <trkpt lat="42.99119" lon="-0.02986">
        <ele>1303.039307</ele>
        <time>2013-02-09T09:41:22Z</time>
      </trkpt>
      <trkpt lat="42.9911" lon="-0.0298">
        <ele>1307.282593</ele>
        <time>2013-02-09T09:41:37Z</time>
      </trkpt>
      <trkpt lat="42.99107" lon="-0.02976">
        <ele>1309.28479</ele>
        <time>2013-02-09T09:41:51Z</time>
      </trkpt>
      <trkpt lat="42.99109" lon="-0.02974">
        <ele>1309.481201</ele>
        <time>2013-02-09T09:41:55Z</time>
      </trkpt>
      <trkpt lat="42.99116" lon="-0.02965">
        <ele>1310.68689</ele>
        <time>2013-02-09T09:42:10Z</time>
      </trkpt>
      <trkpt lat="42.99122" lon="-0.02952">
        <ele>1313.358887</ele>
        <time>2013-02-09T09:42:29Z</time>
      </trkpt>
      <trkpt lat="42.99129" lon="-0.02942">
        <ele>1314.442017</ele>
        <time>2013-02-09T09:42:47Z</time>
      </trkpt>
      <trkpt lat="42.99128" lon="-0.02932">
        <ele>1317.875</ele>
        <time>2013-02-09T09:43:04Z</time>
      </trkpt>
      <trkpt lat="42.99119" lon="-0.02935">
        <ele>1319.848999</ele>
        <time>2013-02-09T09:43:19Z</time>
      </trkpt>
      <trkpt lat="42.99111" lon="-0.02937">
        <ele>1321.294067</ele>
        <time>2013-02-09T09:43:34Z</time>
      </trkpt>
      <trkpt lat="42.99106" lon="-0.02939">
        <ele>1322.011475</ele>
        <time>2013-02-09T09:43:48Z</time>
      </trkpt>
      <trkpt lat="42.99111" lon="-0.02931">
        <ele>1323.186157</ele>
        <time>2013-02-09T09:44:03Z</time>
      </trkpt>
      <trkpt lat="42.99117" lon="-0.02921">
        <ele>1324.56189</ele>
        <time>2013-02-09T09:44:21Z</time>
      </trkpt>
      <trkpt lat="42.99114" lon="-0.02919">
        <ele>1326.405884</ele>
        <time>2013-02-09T09:44:40Z</time>
      </trkpt>
      <trkpt lat="42.99105" lon="-0.02924">
        <ele>1327.419434</ele>
        <time>2013-02-09T09:44:56Z</time>
      </trkpt>
      <trkpt lat="42.99096" lon="-0.0293">
        <ele>1328.062378</ele>
        <time>2013-02-09T09:45:10Z</time>
      </trkpt>
      <trkpt lat="42.99093" lon="-0.0293">
        <ele>1328.550903</ele>
        <time>2013-02-09T09:45:28Z</time>
      </trkpt>
      <trkpt lat="42.99093" lon="-0.02928">
        <ele>1329.682495</ele>
        <time>2013-02-09T09:45:54Z</time>
      </trkpt>
      <trkpt lat="42.99095" lon="-0.02929">
        <ele>1328.583862</ele>
        <time>2013-02-09T09:46:21Z</time>
      </trkpt>
      <trkpt lat="42.99095" lon="-0.02931">
        <ele>1327.938721</ele>
        <time>2013-02-09T09:46:51Z</time>
      </trkpt>
      <trkpt lat="42.99094" lon="-0.02932">
        <ele>1327.843384</ele>
        <time>2013-02-09T09:47:17Z</time>
      </trkpt>
      <trkpt lat="42.99093" lon="-0.02935">
        <ele>1327.009644</ele>
        <time>2013-02-09T09:47:54Z</time>
      </trkpt>
      <trkpt lat="42.99091" lon="-0.02937">
        <ele>1326.794434</ele>
        <time>2013-02-09T09:48:14Z</time>
      </trkpt>
      <trkpt lat="42.99084" lon="-0.02938">
        <ele>1328.408936</ele>
        <time>2013-02-09T09:48:30Z</time>
      </trkpt>
      <trkpt lat="42.99074" lon="-0.02939">
        <ele>1330.875244</ele>
        <time>2013-02-09T09:48:45Z</time>
      </trkpt>
      <trkpt lat="42.99066" lon="-0.02942">
        <ele>1331.661865</ele>
        <time>2013-02-09T09:48:59Z</time>
      </trkpt>
      <trkpt lat="42.9907" lon="-0.02933">
        <ele>1333.629395</ele>
        <time>2013-02-09T09:49:17Z</time>
      </trkpt>
      <trkpt lat="42.99075" lon="-0.02923">
        <ele>1335.790894</ele>
        <time>2013-02-09T09:49:40Z</time>
      </trkpt>
      <trkpt lat="42.9908" lon="-0.02922">
        <ele>1335.030762</ele>
        <time>2013-02-09T09:49:57Z</time>
      </trkpt>
      <trkpt lat="42.99077" lon="-0.02922">
        <ele>1335.582397</ele>
        <time>2013-02-09T09:50:31Z</time>
      </trkpt>
      <trkpt lat="42.99075" lon="-0.02921">
        <ele>1336.741455</ele>
        <time>2013-02-09T09:51:08Z</time>
      </trkpt>
      <trkpt lat="42.99069" lon="-0.02923">
        <ele>1337.223145</ele>
        <time>2013-02-09T09:51:22Z</time>
      </trkpt>
      <trkpt lat="42.99061" lon="-0.02923">
        <ele>1339.289673</ele>
        <time>2013-02-09T09:51:36Z</time>
      </trkpt>
      <trkpt lat="42.99054" lon="-0.02925">
        <ele>1340.242798</ele>
        <time>2013-02-09T09:51:51Z</time>
      </trkpt>
      <trkpt lat="42.99054" lon="-0.0292">
        <ele>1341.922729</ele>
        <time>2013-02-09T09:52:07Z</time>
      </trkpt>
      <trkpt lat="42.9906" lon="-0.0291">
        <ele>1343.503906</ele>
        <time>2013-02-09T09:52:26Z</time>
      </trkpt>
      <trkpt lat="42.99055" lon="-0.02909">
        <ele>1345.099365</ele>
        <time>2013-02-09T09:52:40Z</time>
      </trkpt>
      <trkpt lat="42.99046" lon="-0.02911">
        <ele>1346.683594</ele>
        <time>2013-02-09T09:52:55Z</time>
      </trkpt>
      <trkpt lat="42.99038" lon="-0.02912">
        <ele>1347.905273</ele>
        <time>2013-02-09T09:53:09Z</time>
      </trkpt>
      <trkpt lat="42.99028" lon="-0.02914">
        <ele>1348.464111</ele>
        <time>2013-02-09T09:53:25Z</time>
      </trkpt>
      <trkpt lat="42.99019" lon="-0.02911">
        <ele>1350.243408</ele>
        <time>2013-02-09T09:53:39Z</time>
      </trkpt>
      <trkpt lat="42.9901" lon="-0.02903">
        <ele>1353.494141</ele>
        <time>2013-02-09T09:53:55Z</time>
      </trkpt>
      <trkpt lat="42.99" lon="-0.02898">
        <ele>1356.037354</ele>
        <time>2013-02-09T09:54:11Z</time>
      </trkpt>
      <trkpt lat="42.9899" lon="-0.02901">
        <ele>1355.884521</ele>
        <time>2013-02-09T09:54:25Z</time>
      </trkpt>
      <trkpt lat="42.98979" lon="-0.02897">
        <ele>1357.450439</ele>
        <time>2013-02-09T09:54:40Z</time>
      </trkpt>
      <trkpt lat="42.98971" lon="-0.02892">
        <ele>1359.227295</ele>
        <time>2013-02-09T09:54:55Z</time>
      </trkpt>
      <trkpt lat="42.98972" lon="-0.0288">
        <ele>1362.233521</ele>
        <time>2013-02-09T09:55:11Z</time>
      </trkpt>
      <trkpt lat="42.98975" lon="-0.02866">
        <ele>1365.740234</ele>
        <time>2013-02-09T09:55:29Z</time>
      </trkpt>
      <trkpt lat="42.98979" lon="-0.02854">
        <ele>1368.537476</ele>
        <time>2013-02-09T09:55:45Z</time>
      </trkpt>
      <trkpt lat="42.9898" lon="-0.02841">
        <ele>1371.574829</ele>
        <time>2013-02-09T09:56:02Z</time>
      </trkpt>
      <trkpt lat="42.98981" lon="-0.02828">
        <ele>1374.689453</ele>
        <time>2013-02-09T09:56:18Z</time>
      </trkpt>
      <trkpt lat="42.98979" lon="-0.02817">
        <ele>1377.545166</ele>
        <time>2013-02-09T09:56:34Z</time>
      </trkpt>
      <trkpt lat="42.98978" lon="-0.02816">
        <ele>1377.83374</ele>
        <time>2013-02-09T09:56:57Z</time>
      </trkpt>
      <trkpt lat="42.98979" lon="-0.02817">
        <ele>1377.536743</ele>
        <time>2013-02-09T09:57:10Z</time>
      </trkpt>
      <trkpt lat="42.98979" lon="-0.02814">
        <ele>1378.267822</ele>
        <time>2013-02-09T09:57:41Z</time>
      </trkpt>
      <trkpt lat="42.98978" lon="-0.02814">
        <ele>1378.28186</ele>
        <time>2013-02-09T09:57:59Z</time>
      </trkpt>
      <trkpt lat="42.98978" lon="-0.02812">
        <ele>1378.782104</ele>
        <time>2013-02-09T09:58:25Z</time>
      </trkpt>
      <trkpt lat="42.98978" lon="-0.02813">
        <ele>1378.37146</ele>
        <time>2013-02-09T09:58:55Z</time>
      </trkpt>
      <trkpt lat="42.98979" lon="-0.02812">
        <ele>1378.624634</ele>
        <time>2013-02-09T09:59:15Z</time>
      </trkpt>
      <trkpt lat="42.98977" lon="-0.02811">
        <ele>1378.88501</ele>
        <time>2013-02-09T09:59:37Z</time>
      </trkpt>
      <trkpt lat="42.98977" lon="-0.02813">
        <ele>1378.34314</ele>
        <time>2013-02-09T10:00:00Z</time>
      </trkpt>
      <trkpt lat="42.98976" lon="-0.02815">
        <ele>1377.954956</ele>
        <time>2013-02-09T10:00:36Z</time>
      </trkpt>
      <trkpt lat="42.98977" lon="-0.02816">
        <ele>1377.829834</ele>
        <time>2013-02-09T10:01:14Z</time>
      </trkpt>
      <trkpt lat="42.98981" lon="-0.02806">
        <ele>1380.044678</ele>
        <time>2013-02-09T10:01:36Z</time>
      </trkpt>
      <trkpt lat="42.98983" lon="-0.02795">
        <ele>1382.556396</ele>
        <time>2013-02-09T10:01:54Z</time>
      </trkpt>
      <trkpt lat="42.98984" lon="-0.02789">
        <ele>1383.930786</ele>
        <time>2013-02-09T10:02:11Z</time>
      </trkpt>
      <trkpt lat="42.98994" lon="-0.02783">
        <ele>1385.159668</ele>
        <time>2013-02-09T10:02:29Z</time>
      </trkpt>
      <trkpt lat="42.98998" lon="-0.02774">
        <ele>1386.888672</ele>
        <time>2013-02-09T10:02:43Z</time>
      </trkpt>
      <trkpt lat="42.99005" lon="-0.02769">
        <ele>1387.9021</ele>
        <time>2013-02-09T10:03:02Z</time>
      </trkpt>
      <trkpt lat="42.99016" lon="-0.02763">
        <ele>1389.332642</ele>
        <time>2013-02-09T10:03:21Z</time>
      </trkpt>
      <trkpt lat="42.99008" lon="-0.02754">
        <ele>1391.359619</ele>
        <time>2013-02-09T10:03:37Z</time>
      </trkpt>
      <trkpt lat="42.99008" lon="-0.02747">
        <ele>1392.761841</ele>
        <time>2013-02-09T10:03:51Z</time>
      </trkpt>
      <trkpt lat="42.99019" lon="-0.0274">
        <ele>1394.707886</ele>
        <time>2013-02-09T10:04:09Z</time>
      </trkpt>
      <trkpt lat="42.99013" lon="-0.0273">
        <ele>1396.791016</ele>
        <time>2013-02-09T10:04:25Z</time>
      </trkpt>
      <trkpt lat="42.99013" lon="-0.02725">
        <ele>1398.053345</ele>
        <time>2013-02-09T10:04:39Z</time>
      </trkpt>
      <trkpt lat="42.99026" lon="-0.02721">
        <ele>1399.419678</ele>
        <time>2013-02-09T10:04:59Z</time>
      </trkpt>
      <trkpt lat="42.99026" lon="-0.02713">
        <ele>1401.174194</ele>
        <time>2013-02-09T10:05:16Z</time>
      </trkpt>
      <trkpt lat="42.99025" lon="-0.02712">
        <ele>1401.510986</ele>
        <time>2013-02-09T10:05:43Z</time>
      </trkpt>
      <trkpt lat="42.99021" lon="-0.02708">
        <ele>1402.319458</ele>
        <time>2013-02-09T10:06:14Z</time>
      </trkpt>
      <trkpt lat="42.99016" lon="-0.02698">
        <ele>1404.619995</ele>
        <time>2013-02-09T10:06:30Z</time>
      </trkpt>
      <trkpt lat="42.99008" lon="-0.0269">
        <ele>1406.2948</ele>
        <time>2013-02-09T10:06:45Z</time>
      </trkpt>
      <trkpt lat="42.99001" lon="-0.0268">
        <ele>1408.772583</ele>
        <time>2013-02-09T10:06:59Z</time>
      </trkpt>
      <trkpt lat="42.98998" lon="-0.02665">
        <ele>1411.935059</ele>
        <time>2013-02-09T10:07:15Z</time>
      </trkpt>
      <trkpt lat="42.98999" lon="-0.02653">
        <ele>1414.322876</ele>
        <time>2013-02-09T10:07:33Z</time>
      </trkpt>
      <trkpt lat="42.98998" lon="-0.02654">
        <ele>1414.039673</ele>
        <time>2013-02-09T10:08:05Z</time>
      </trkpt>
      <trkpt lat="42.99" lon="-0.02651">
        <ele>1414.692017</ele>
        <time>2013-02-09T10:08:41Z</time>
      </trkpt>
      <trkpt lat="42.99" lon="-0.02637">
        <ele>1417.337524</ele>
        <time>2013-02-09T10:08:58Z</time>
      </trkpt>
      <trkpt lat="42.98997" lon="-0.02624">
        <ele>1419.839844</ele>
        <time>2013-02-09T10:09:15Z</time>
      </trkpt>
      <trkpt lat="42.99004" lon="-0.02605">
        <ele>1423.786987</ele>
        <time>2013-02-09T10:09:35Z</time>
      </trkpt>
      <trkpt lat="42.9901" lon="-0.02591">
        <ele>1426.141479</ele>
        <time>2013-02-09T10:09:51Z</time>
      </trkpt>
      <trkpt lat="42.99016" lon="-0.02579">
        <ele>1428.235474</ele>
        <time>2013-02-09T10:10:06Z</time>
      </trkpt>
      <trkpt lat="42.99013" lon="-0.02556">
        <ele>1431.51355</ele>
        <time>2013-02-09T10:10:26Z</time>
      </trkpt>
      <trkpt lat="42.99011" lon="-0.02545">
        <ele>1433.071777</ele>
        <time>2013-02-09T10:10:43Z</time>
      </trkpt>
      <trkpt lat="42.99007" lon="-0.02535">
        <ele>1434.432861</ele>
        <time>2013-02-09T10:11:01Z</time>
      </trkpt>
      <trkpt lat="42.98999" lon="-0.02524">
        <ele>1435.281128</ele>
        <time>2013-02-09T10:11:17Z</time>
      </trkpt>
      <trkpt lat="42.98993" lon="-0.02513">
        <ele>1436.000488</ele>
        <time>2013-02-09T10:11:33Z</time>
      </trkpt>
      <trkpt lat="42.98986" lon="-0.025">
        <ele>1436.99646</ele>
        <time>2013-02-09T10:11:50Z</time>
      </trkpt>
      <trkpt lat="42.9898" lon="-0.02489">
        <ele>1437.693604</ele>
        <time>2013-02-09T10:12:05Z</time>
      </trkpt>
      <trkpt lat="42.98972" lon="-0.02474">
        <ele>1439.384033</ele>
        <time>2013-02-09T10:12:24Z</time>
      </trkpt>
      <trkpt lat="42.98969" lon="-0.02463">
        <ele>1441.210327</ele>
        <time>2013-02-09T10:12:38Z</time>
      </trkpt>
      <trkpt lat="42.98963" lon="-0.0245">
        <ele>1442.855835</ele>
        <time>2013-02-09T10:12:55Z</time>
      </trkpt>
      <trkpt lat="42.98958" lon="-0.02437">
        <ele>1444.682129</ele>
        <time>2013-02-09T10:13:11Z</time>
      </trkpt>
      <trkpt lat="42.98954" lon="-0.02427">
        <ele>1446.181885</ele>
        <time>2013-02-09T10:13:26Z</time>
      </trkpt>
      <trkpt lat="42.98951" lon="-0.02415">
        <ele>1448.606812</ele>
        <time>2013-02-09T10:13:41Z</time>
      </trkpt>
      <trkpt lat="42.98953" lon="-0.02419">
        <ele>1448.060425</ele>
        <time>2013-02-09T10:14:01Z</time>
      </trkpt>
      <trkpt lat="42.98961" lon="-0.02412">
        <ele>1451.206177</ele>
        <time>2013-02-09T10:14:20Z</time>
      </trkpt>
      <trkpt lat="42.98969" lon="-0.02411">
        <ele>1452.885376</ele>
        <time>2013-02-09T10:14:35Z</time>
      </trkpt>
      <trkpt lat="42.98983" lon="-0.02407">
        <ele>1456.178711</ele>
        <time>2013-02-09T10:14:58Z</time>
      </trkpt>
      <trkpt lat="42.98996" lon="-0.02408">
        <ele>1458.26416</ele>
        <time>2013-02-09T10:15:19Z</time>
      </trkpt>
      <trkpt lat="42.99008" lon="-0.0241">
        <ele>1459.51355</ele>
        <time>2013-02-09T10:15:37Z</time>
      </trkpt>
      <trkpt lat="42.9902" lon="-0.02414">
        <ele>1459.550537</ele>
        <time>2013-02-09T10:15:56Z</time>
      </trkpt>
      <trkpt lat="42.9903" lon="-0.02416">
        <ele>1460.173706</ele>
        <time>2013-02-09T10:16:15Z</time>
      </trkpt>
      <trkpt lat="42.99045" lon="-0.02414">
        <ele>1461.907593</ele>
        <time>2013-02-09T10:16:35Z</time>
      </trkpt>
      <trkpt lat="42.99044" lon="-0.02405">
        <ele>1464.209961</ele>
        <time>2013-02-09T10:16:51Z</time>
      </trkpt>
      <trkpt lat="42.99042" lon="-0.02402">
        <ele>1464.758667</ele>
        <time>2013-02-09T10:16:55Z</time>
      </trkpt>
      <trkpt lat="42.99035" lon="-0.02392">
        <ele>1466.948975</ele>
        <time>2013-02-09T10:17:11Z</time>
      </trkpt>
      <trkpt lat="42.99028" lon="-0.02382">
        <ele>1468.830933</ele>
        <time>2013-02-09T10:17:27Z</time>
      </trkpt>
      <trkpt lat="42.99021" lon="-0.02371">
        <ele>1471.292358</ele>
        <time>2013-02-09T10:17:42Z</time>
      </trkpt>
      <trkpt lat="42.99014" lon="-0.02363">
        <ele>1473.011719</ele>
        <time>2013-02-09T10:17:56Z</time>
      </trkpt>
      <trkpt lat="42.99006" lon="-0.02352">
        <ele>1475.309814</ele>
        <time>2013-02-09T10:18:13Z</time>
      </trkpt>
      <trkpt lat="42.98999" lon="-0.0234">
        <ele>1477.344116</ele>
        <time>2013-02-09T10:18:28Z</time>
      </trkpt>
      <trkpt lat="42.99001" lon="-0.02338">
        <ele>1478.231567</ele>
        <time>2013-02-09T10:18:32Z</time>
      </trkpt>
      <trkpt lat="42.99014" lon="-0.02337">
        <ele>1480.122314</ele>
        <time>2013-02-09T10:18:50Z</time>
      </trkpt>
      <trkpt lat="42.99026" lon="-0.02336">
        <ele>1481.373901</ele>
        <time>2013-02-09T10:19:09Z</time>
      </trkpt>
      <trkpt lat="42.99039" lon="-0.02334">
        <ele>1483.030518</ele>
        <time>2013-02-09T10:19:26Z</time>
      </trkpt>
      <trkpt lat="42.99039" lon="-0.02322">
        <ele>1486.182251</ele>
        <time>2013-02-09T10:19:42Z</time>
      </trkpt>
      <trkpt lat="42.99032" lon="-0.02312">
        <ele>1488.519531</ele>
        <time>2013-02-09T10:19:58Z</time>
      </trkpt>
      <trkpt lat="42.99025" lon="-0.02302">
        <ele>1490.655273</ele>
        <time>2013-02-09T10:20:13Z</time>
      </trkpt>
      <trkpt lat="42.99036" lon="-0.02294">
        <ele>1493.543213</ele>
        <time>2013-02-09T10:20:31Z</time>
      </trkpt>
      <trkpt lat="42.99039" lon="-0.02288">
        <ele>1495.411499</ele>
        <time>2013-02-09T10:20:48Z</time>
      </trkpt>
      <trkpt lat="42.99035" lon="-0.02282">
        <ele>1496.40332</ele>
        <time>2013-02-09T10:21:09Z</time>
      </trkpt>
      <trkpt lat="42.99033" lon="-0.0228">
        <ele>1496.907104</ele>
        <time>2013-02-09T10:21:28Z</time>
      </trkpt>
      <trkpt lat="42.99023" lon="-0.02271">
        <ele>1498.090942</ele>
        <time>2013-02-09T10:21:44Z</time>
      </trkpt>
      <trkpt lat="42.99019" lon="-0.02265">
        <ele>1498.953247</ele>
        <time>2013-02-09T10:21:52Z</time>
      </trkpt>
      <trkpt lat="42.99012" lon="-0.02253">
        <ele>1500.832031</ele>
        <time>2013-02-09T10:22:09Z</time>
      </trkpt>
      <trkpt lat="42.99006" lon="-0.02241">
        <ele>1502.476318</ele>
        <time>2013-02-09T10:22:28Z</time>
      </trkpt>
      <trkpt lat="42.99001" lon="-0.02225">
        <ele>1505.012329</ele>
        <time>2013-02-09T10:22:46Z</time>
      </trkpt>
      <trkpt lat="42.98996" lon="-0.02212">
        <ele>1506.913208</ele>
        <time>2013-02-09T10:23:04Z</time>
      </trkpt>
      <trkpt lat="42.99004" lon="-0.02211">
        <ele>1509.073975</ele>
        <time>2013-02-09T10:23:22Z</time>
      </trkpt>
      <trkpt lat="42.99016" lon="-0.02211">
        <ele>1511.532104</ele>
        <time>2013-02-09T10:23:40Z</time>
      </trkpt>
      <trkpt lat="42.99027" lon="-0.02209">
        <ele>1513.418091</ele>
        <time>2013-02-09T10:24:00Z</time>
      </trkpt>
      <trkpt lat="42.9904" lon="-0.02208">
        <ele>1515.702637</ele>
        <time>2013-02-09T10:24:19Z</time>
      </trkpt>
      <trkpt lat="42.99053" lon="-0.02207">
        <ele>1517.823364</ele>
        <time>2013-02-09T10:24:39Z</time>
      </trkpt>
      <trkpt lat="42.99068" lon="-0.02201">
        <ele>1519.830322</ele>
        <time>2013-02-09T10:25:02Z</time>
      </trkpt>
      <trkpt lat="42.99081" lon="-0.02191">
        <ele>1522.653442</ele>
        <time>2013-02-09T10:25:21Z</time>
      </trkpt>
      <trkpt lat="42.99092" lon="-0.02181">
        <ele>1525.680176</ele>
        <time>2013-02-09T10:25:38Z</time>
      </trkpt>
      <trkpt lat="42.99091" lon="-0.0217">
        <ele>1528.324097</ele>
        <time>2013-02-09T10:25:56Z</time>
      </trkpt>
      <trkpt lat="42.99082" lon="-0.02164">
        <ele>1529.541992</ele>
        <time>2013-02-09T10:26:11Z</time>
      </trkpt>
      <trkpt lat="42.99076" lon="-0.02156">
        <ele>1531.127075</ele>
        <time>2013-02-09T10:26:26Z</time>
      </trkpt>
      <trkpt lat="42.99068" lon="-0.02146">
        <ele>1533.071655</ele>
        <time>2013-02-09T10:26:41Z</time>
      </trkpt>
      <trkpt lat="42.99061" lon="-0.02138">
        <ele>1534.595581</ele>
        <time>2013-02-09T10:26:56Z</time>
      </trkpt>
      <trkpt lat="42.99057" lon="-0.02126">
        <ele>1536.995972</ele>
        <time>2013-02-09T10:27:13Z</time>
      </trkpt>
      <trkpt lat="42.99068" lon="-0.02118">
        <ele>1539.638306</ele>
        <time>2013-02-09T10:27:31Z</time>
      </trkpt>
      <trkpt lat="42.99078" lon="-0.02113">
        <ele>1541.937134</ele>
        <time>2013-02-09T10:27:49Z</time>
      </trkpt>
      <trkpt lat="42.99091" lon="-0.02106">
        <ele>1544.918579</ele>
        <time>2013-02-09T10:28:10Z</time>
      </trkpt>
      <trkpt lat="42.99106" lon="-0.02103">
        <ele>1546.865356</ele>
        <time>2013-02-09T10:28:30Z</time>
      </trkpt>
      <trkpt lat="42.99117" lon="-0.02098">
        <ele>1548.509033</ele>
        <time>2013-02-09T10:28:48Z</time>
      </trkpt>
      <trkpt lat="42.9912" lon="-0.02091">
        <ele>1550.626221</ele>
        <time>2013-02-09T10:29:04Z</time>
      </trkpt>
      <trkpt lat="42.99112" lon="-0.02084">
        <ele>1552.201172</ele>
        <time>2013-02-09T10:29:20Z</time>
      </trkpt>
      <trkpt lat="42.99104" lon="-0.02075">
        <ele>1554.487183</ele>
        <time>2013-02-09T10:29:35Z</time>
      </trkpt>
      <trkpt lat="42.99097" lon="-0.02068">
        <ele>1555.686401</ele>
        <time>2013-02-09T10:29:49Z</time>
      </trkpt>
      <trkpt lat="42.99088" lon="-0.02058">
        <ele>1557.128052</ele>
        <time>2013-02-09T10:30:06Z</time>
      </trkpt>
      <trkpt lat="42.99085" lon="-0.02048">
        <ele>1558.965698</ele>
        <time>2013-02-09T10:30:19Z</time>
      </trkpt>
      <trkpt lat="42.99095" lon="-0.02044">
        <ele>1561.190674</ele>
        <time>2013-02-09T10:30:35Z</time>
      </trkpt>
      <trkpt lat="42.99109" lon="-0.0204">
        <ele>1563.665161</ele>
        <time>2013-02-09T10:30:55Z</time>
      </trkpt>
      <trkpt lat="42.99121" lon="-0.02037">
        <ele>1565.310181</ele>
        <time>2013-02-09T10:31:12Z</time>
      </trkpt>
      <trkpt lat="42.99133" lon="-0.02034">
        <ele>1566.957031</ele>
        <time>2013-02-09T10:31:31Z</time>
      </trkpt>
      <trkpt lat="42.99144" lon="-0.02032">
        <ele>1568.237305</ele>
        <time>2013-02-09T10:31:50Z</time>
      </trkpt>
      <trkpt lat="42.99137" lon="-0.02019">
        <ele>1571.217041</ele>
        <time>2013-02-09T10:32:05Z</time>
      </trkpt>
      <trkpt lat="42.99135" lon="-0.02017">
        <ele>1571.595947</ele>
        <time>2013-02-09T10:32:20Z</time>
      </trkpt>
      <trkpt lat="42.99136" lon="-0.02018">
        <ele>1571.555908</ele>
        <time>2013-02-09T10:32:41Z</time>
      </trkpt>
      <trkpt lat="42.99136" lon="-0.02019">
        <ele>1571.326416</ele>
        <time>2013-02-09T10:32:49Z</time>
      </trkpt>
      <trkpt lat="42.99135" lon="-0.02016">
        <ele>1571.870117</ele>
        <time>2013-02-09T10:33:16Z</time>
      </trkpt>
      <trkpt lat="42.99135" lon="-0.02017">
        <ele>1571.849976</ele>
        <time>2013-02-09T10:33:41Z</time>
      </trkpt>
      <trkpt lat="42.99134" lon="-0.02014">
        <ele>1572.329224</ele>
        <time>2013-02-09T10:34:16Z</time>
      </trkpt>
      <trkpt lat="42.99136" lon="-0.02016">
        <ele>1571.900879</ele>
        <time>2013-02-09T10:34:47Z</time>
      </trkpt>
      <trkpt lat="42.99135" lon="-0.02016">
        <ele>1571.976685</ele>
        <time>2013-02-09T10:35:18Z</time>
      </trkpt>
      <trkpt lat="42.9913" lon="-0.02005">
        <ele>1574.560425</ele>
        <time>2013-02-09T10:35:36Z</time>
      </trkpt>
      <trkpt lat="42.99127" lon="-0.01993">
        <ele>1577.073608</ele>
        <time>2013-02-09T10:35:52Z</time>
      </trkpt>
      <trkpt lat="42.99136" lon="-0.01989">
        <ele>1578.981812</ele>
        <time>2013-02-09T10:36:10Z</time>
      </trkpt>
      <trkpt lat="42.99142" lon="-0.01984">
        <ele>1580.922852</ele>
        <time>2013-02-09T10:36:23Z</time>
      </trkpt>
      <trkpt lat="42.99152" lon="-0.01981">
        <ele>1582.840576</ele>
        <time>2013-02-09T10:36:41Z</time>
      </trkpt>
      <trkpt lat="42.99163" lon="-0.01979">
        <ele>1584.116455</ele>
        <time>2013-02-09T10:37:01Z</time>
      </trkpt>
      <trkpt lat="42.9917" lon="-0.01977">
        <ele>1584.910278</ele>
        <time>2013-02-09T10:37:11Z</time>
      </trkpt>
      <trkpt lat="42.99179" lon="-0.01969">
        <ele>1587.66687</ele>
        <time>2013-02-09T10:37:33Z</time>
      </trkpt>
      <trkpt lat="42.99174" lon="-0.01957">
        <ele>1590.670044</ele>
        <time>2013-02-09T10:37:49Z</time>
      </trkpt>
      <trkpt lat="42.99168" lon="-0.01947">
        <ele>1593.075195</ele>
        <time>2013-02-09T10:38:06Z</time>
      </trkpt>
      <trkpt lat="42.99162" lon="-0.01935">
        <ele>1595.400269</ele>
        <time>2013-02-09T10:38:22Z</time>
      </trkpt>
      <trkpt lat="42.99157" lon="-0.01925">
        <ele>1597.168823</ele>
        <time>2013-02-09T10:38:40Z</time>
      </trkpt>
      <trkpt lat="42.99152" lon="-0.01916">
        <ele>1598.840088</ele>
        <time>2013-02-09T10:38:54Z</time>
      </trkpt>
      <trkpt lat="42.99149" lon="-0.0191">
        <ele>1599.546875</ele>
        <time>2013-02-09T10:39:08Z</time>
      </trkpt>
      <trkpt lat="42.99153" lon="-0.01912">
        <ele>1599.921021</ele>
        <time>2013-02-09T10:39:17Z</time>
      </trkpt>
      <trkpt lat="42.99154" lon="-0.01912">
        <ele>1600.09021</ele>
        <time>2013-02-09T10:39:20Z</time>
      </trkpt>
      <trkpt lat="42.99154" lon="-0.01912">
        <ele>1600.11438</ele>
        <time>2013-02-09T10:39:21Z</time>
      </trkpt>
      <trkpt lat="42.99155" lon="-0.01912">
        <ele>1600.175049</ele>
        <time>2013-02-09T10:39:23Z</time>
      </trkpt>
      <trkpt lat="42.99167" lon="-0.01912">
        <ele>1600.860962</ele>
        <time>2013-02-09T10:39:44Z</time>
      </trkpt>
      <trkpt lat="42.99167" lon="-0.01902">
        <ele>1603.094727</ele>
        <time>2013-02-09T10:40:00Z</time>
      </trkpt>
      <trkpt lat="42.99163" lon="-0.01891">
        <ele>1605.31665</ele>
        <time>2013-02-09T10:40:14Z</time>
      </trkpt>
      <trkpt lat="42.99166" lon="-0.01888">
        <ele>1606.120117</ele>
        <time>2013-02-09T10:40:28Z</time>
      </trkpt>
      <trkpt lat="42.99173" lon="-0.01881">
        <ele>1607.984375</ele>
        <time>2013-02-09T10:40:46Z</time>
      </trkpt>
      <trkpt lat="42.99184" lon="-0.01876">
        <ele>1609.61853</ele>
        <time>2013-02-09T10:41:05Z</time>
      </trkpt>
      <trkpt lat="42.99196" lon="-0.01876">
        <ele>1610.310181</ele>
        <time>2013-02-09T10:41:23Z</time>
      </trkpt>
      <trkpt lat="42.99207" lon="-0.01873">
        <ele>1610.487915</ele>
        <time>2013-02-09T10:41:41Z</time>
      </trkpt>
      <trkpt lat="42.99207" lon="-0.01866">
        <ele>1611.777466</ele>
        <time>2013-02-09T10:41:50Z</time>
      </trkpt>
      <trkpt lat="42.99204" lon="-0.01851">
        <ele>1614.963257</ele>
        <time>2013-02-09T10:42:07Z</time>
      </trkpt>
      <trkpt lat="42.99205" lon="-0.01836">
        <ele>1617.8125</ele>
        <time>2013-02-09T10:42:23Z</time>
      </trkpt>
      <trkpt lat="42.99209" lon="-0.01833">
        <ele>1618.177368</ele>
        <time>2013-02-09T10:42:41Z</time>
      </trkpt>
      <trkpt lat="42.99209" lon="-0.01833">
        <ele>1618.135498</ele>
        <time>2013-02-09T10:43:04Z</time>
      </trkpt>
      <trkpt lat="42.99207" lon="-0.01832">
        <ele>1618.480225</ele>
        <time>2013-02-09T10:43:21Z</time>
      </trkpt>
      <trkpt lat="42.99208" lon="-0.01832">
        <ele>1618.340698</ele>
        <time>2013-02-09T10:43:49Z</time>
      </trkpt>
      <trkpt lat="42.99211" lon="-0.01832">
        <ele>1618.304565</ele>
        <time>2013-02-09T10:44:18Z</time>
      </trkpt>
      <trkpt lat="42.99209" lon="-0.01831">
        <ele>1618.576294</ele>
        <time>2013-02-09T10:44:44Z</time>
      </trkpt>
      <trkpt lat="42.99208" lon="-0.01832">
        <ele>1618.503784</ele>
        <time>2013-02-09T10:44:50Z</time>
      </trkpt>
      <trkpt lat="42.99208" lon="-0.01832">
        <ele>1618.40979</ele>
        <time>2013-02-09T10:45:03Z</time>
      </trkpt>
      <trkpt lat="42.99208" lon="-0.01831">
        <ele>1618.523071</ele>
        <time>2013-02-09T10:45:30Z</time>
      </trkpt>
      <trkpt lat="42.99209" lon="-0.01833">
        <ele>1618.229858</ele>
        <time>2013-02-09T10:45:44Z</time>
      </trkpt>
      <trkpt lat="42.99209" lon="-0.01833">
        <ele>1618.273682</ele>
        <time>2013-02-09T10:45:47Z</time>
      </trkpt>
      <trkpt lat="42.99208" lon="-0.01833">
        <ele>1618.269043</ele>
        <time>2013-02-09T10:46:15Z</time>
      </trkpt>
      <trkpt lat="42.99212" lon="-0.0183">
        <ele>1618.608032</ele>
        <time>2013-02-09T10:46:40Z</time>
      </trkpt>
      <trkpt lat="42.99216" lon="-0.01827">
        <ele>1618.99353</ele>
        <time>2013-02-09T10:46:45Z</time>
      </trkpt>
      <trkpt lat="42.99224" lon="-0.01815">
        <ele>1621.446289</ele>
        <time>2013-02-09T10:46:59Z</time>
      </trkpt>
      <trkpt lat="42.99232" lon="-0.01799">
        <ele>1624.99292</ele>
        <time>2013-02-09T10:47:14Z</time>
      </trkpt>
      <trkpt lat="42.99236" lon="-0.01789">
        <ele>1627.147461</ele>
        <time>2013-02-09T10:47:28Z</time>
      </trkpt>
      <trkpt lat="42.99244" lon="-0.01775">
        <ele>1629.25</ele>
        <time>2013-02-09T10:47:43Z</time>
      </trkpt>
      <trkpt lat="42.9925" lon="-0.01766">
        <ele>1630.009033</ele>
        <time>2013-02-09T10:47:55Z</time>
      </trkpt>
      <trkpt lat="42.99258" lon="-0.01748">
        <ele>1633.329712</ele>
        <time>2013-02-09T10:48:11Z</time>
      </trkpt>
      <trkpt lat="42.99264" lon="-0.01735">
        <ele>1635.74585</ele>
        <time>2013-02-09T10:48:27Z</time>
      </trkpt>
      <trkpt lat="42.99273" lon="-0.01719">
        <ele>1637.298584</ele>
        <time>2013-02-09T10:48:44Z</time>
      </trkpt>
      <trkpt lat="42.99283" lon="-0.01703">
        <ele>1637.661499</ele>
        <time>2013-02-09T10:49:02Z</time>
      </trkpt>
      <trkpt lat="42.99292" lon="-0.01687">
        <ele>1637.96228</ele>
        <time>2013-02-09T10:49:21Z</time>
      </trkpt>
      <trkpt lat="42.99301" lon="-0.01674">
        <ele>1639.387939</ele>
        <time>2013-02-09T10:49:38Z</time>
      </trkpt>
      <trkpt lat="42.99312" lon="-0.01664">
        <ele>1639.430054</ele>
        <time>2013-02-09T10:49:52Z</time>
      </trkpt>
      <trkpt lat="42.99324" lon="-0.01653">
        <ele>1639.333008</ele>
        <time>2013-02-09T10:50:07Z</time>
      </trkpt>
      <trkpt lat="42.99336" lon="-0.01639">
        <ele>1639.456665</ele>
        <time>2013-02-09T10:50:23Z</time>
      </trkpt>
      <trkpt lat="42.99348" lon="-0.01628">
        <ele>1639.75</ele>
        <time>2013-02-09T10:50:40Z</time>
      </trkpt>
      <trkpt lat="42.99358" lon="-0.01616">
        <ele>1640.511963</ele>
        <time>2013-02-09T10:50:56Z</time>
      </trkpt>
      <trkpt lat="42.99367" lon="-0.01605">
        <ele>1641.453003</ele>
        <time>2013-02-09T10:51:11Z</time>
      </trkpt>
      <trkpt lat="42.99375" lon="-0.01594">
        <ele>1642.529297</ele>
        <time>2013-02-09T10:51:25Z</time>
      </trkpt>
      <trkpt lat="42.99385" lon="-0.01579">
        <ele>1643.670654</ele>
        <time>2013-02-09T10:51:42Z</time>
      </trkpt>
      <trkpt lat="42.99396" lon="-0.01566">
        <ele>1643.667358</ele>
        <time>2013-02-09T10:51:59Z</time>
      </trkpt>
      <trkpt lat="42.99407" lon="-0.01556">
        <ele>1643.349487</ele>
        <time>2013-02-09T10:52:14Z</time>
      </trkpt>
      <trkpt lat="42.99417" lon="-0.01545">
        <ele>1643.199097</ele>
        <time>2013-02-09T10:52:29Z</time>
      </trkpt>
      <trkpt lat="42.99428" lon="-0.01535">
        <ele>1642.891113</ele>
        <time>2013-02-09T10:52:44Z</time>
      </trkpt>
      <trkpt lat="42.99437" lon="-0.01524">
        <ele>1642.792236</ele>
        <time>2013-02-09T10:52:59Z</time>
      </trkpt>
      <trkpt lat="42.99448" lon="-0.0151">
        <ele>1642.314209</ele>
        <time>2013-02-09T10:53:18Z</time>
      </trkpt>
      <trkpt lat="42.99455" lon="-0.01498">
        <ele>1642.345947</ele>
        <time>2013-02-09T10:53:32Z</time>
      </trkpt>
      <trkpt lat="42.9946" lon="-0.01482">
        <ele>1643.389526</ele>
        <time>2013-02-09T10:53:46Z</time>
      </trkpt>
      <trkpt lat="42.99463" lon="-0.01469">
        <ele>1644.263672</ele>
        <time>2013-02-09T10:53:57Z</time>
      </trkpt>
      <trkpt lat="42.99471" lon="-0.01451">
        <ele>1645.329224</ele>
        <time>2013-02-09T10:54:12Z</time>
      </trkpt>
      <trkpt lat="42.99482" lon="-0.01439">
        <ele>1646.341675</ele>
        <time>2013-02-09T10:54:27Z</time>
      </trkpt>
      <trkpt lat="42.99486" lon="-0.01428">
        <ele>1648.163452</ele>
        <time>2013-02-09T10:54:37Z</time>
      </trkpt>
      <trkpt lat="42.99481" lon="-0.01414">
        <ele>1650.604614</ele>
        <time>2013-02-09T10:54:52Z</time>
      </trkpt>
      <trkpt lat="42.99483" lon="-0.01402">
        <ele>1652.598633</ele>
        <time>2013-02-09T10:55:07Z</time>
      </trkpt>
      <trkpt lat="42.99489" lon="-0.01394">
        <ele>1654.205444</ele>
        <time>2013-02-09T10:55:20Z</time>
      </trkpt>
      <trkpt lat="42.99495" lon="-0.01384">
        <ele>1656.164429</ele>
        <time>2013-02-09T10:55:36Z</time>
      </trkpt>
      <trkpt lat="42.99505" lon="-0.01372">
        <ele>1658.803711</ele>
        <time>2013-02-09T10:55:54Z</time>
      </trkpt>
      <trkpt lat="42.99513" lon="-0.01361">
        <ele>1661.175659</ele>
        <time>2013-02-09T10:56:10Z</time>
      </trkpt>
      <trkpt lat="42.99519" lon="-0.01348">
        <ele>1664.057617</ele>
        <time>2013-02-09T10:56:29Z</time>
      </trkpt>
      <trkpt lat="42.99529" lon="-0.01339">
        <ele>1666.253784</ele>
        <time>2013-02-09T10:56:46Z</time>
      </trkpt>
      <trkpt lat="42.99529" lon="-0.01339">
        <ele>1666.409668</ele>
        <time>2013-02-09T10:56:47Z</time>
      </trkpt>
      <trkpt lat="42.99541" lon="-0.0134">
        <ele>1668.717529</ele>
        <time>2013-02-09T10:57:03Z</time>
      </trkpt>
      <trkpt lat="42.99549" lon="-0.01347">
        <ele>1669.885742</ele>
        <time>2013-02-09T10:57:19Z</time>
      </trkpt>
      <trkpt lat="42.99557" lon="-0.01356">
        <ele>1669.812744</ele>
        <time>2013-02-09T10:57:37Z</time>
      </trkpt>
      <trkpt lat="42.99564" lon="-0.01364">
        <ele>1669.727417</ele>
        <time>2013-02-09T10:57:55Z</time>
      </trkpt>
      <trkpt lat="42.9957" lon="-0.01371">
        <ele>1669.50293</ele>
        <time>2013-02-09T10:58:10Z</time>
      </trkpt>
      <trkpt lat="42.99578" lon="-0.01375">
        <ele>1670.298584</ele>
        <time>2013-02-09T10:58:26Z</time>
      </trkpt>
      <trkpt lat="42.9958" lon="-0.01363">
        <ele>1672.986206</ele>
        <time>2013-02-09T10:58:43Z</time>
      </trkpt>
      <trkpt lat="42.9958" lon="-0.01349">
        <ele>1675.752563</ele>
        <time>2013-02-09T10:59:00Z</time>
      </trkpt>
      <trkpt lat="42.99582" lon="-0.01336">
        <ele>1676.748535</ele>
        <time>2013-02-09T10:59:16Z</time>
      </trkpt>
      <trkpt lat="42.99584" lon="-0.01324">
        <ele>1677.442139</ele>
        <time>2013-02-09T10:59:32Z</time>
      </trkpt>
      <trkpt lat="42.99592" lon="-0.01327">
        <ele>1678.688965</ele>
        <time>2013-02-09T10:59:48Z</time>
      </trkpt>
      <trkpt lat="42.99603" lon="-0.01334">
        <ele>1680.273804</ele>
        <time>2013-02-09T11:00:05Z</time>
      </trkpt>
      <trkpt lat="42.99614" lon="-0.01334">
        <ele>1682.112671</ele>
        <time>2013-02-09T11:00:22Z</time>
      </trkpt>
      <trkpt lat="42.99625" lon="-0.01334">
        <ele>1682.959229</ele>
        <time>2013-02-09T11:00:39Z</time>
      </trkpt>
      <trkpt lat="42.99636" lon="-0.01335">
        <ele>1683.740601</ele>
        <time>2013-02-09T11:00:54Z</time>
      </trkpt>
      <trkpt lat="42.99649" lon="-0.01335">
        <ele>1684.565186</ele>
        <time>2013-02-09T11:01:10Z</time>
      </trkpt>
      <trkpt lat="42.99664" lon="-0.01337">
        <ele>1685.305298</ele>
        <time>2013-02-09T11:01:28Z</time>
      </trkpt>
      <trkpt lat="42.9968" lon="-0.01338">
        <ele>1685.157593</ele>
        <time>2013-02-09T11:01:46Z</time>
      </trkpt>
      <trkpt lat="42.99693" lon="-0.01339">
        <ele>1685.160767</ele>
        <time>2013-02-09T11:02:01Z</time>
      </trkpt>
      <trkpt lat="42.99705" lon="-0.01341">
        <ele>1685.252197</ele>
        <time>2013-02-09T11:02:13Z</time>
      </trkpt>
      <trkpt lat="42.9972" lon="-0.01341">
        <ele>1684.874878</ele>
        <time>2013-02-09T11:02:30Z</time>
      </trkpt>
      <trkpt lat="42.99733" lon="-0.0134">
        <ele>1684.265503</ele>
        <time>2013-02-09T11:02:45Z</time>
      </trkpt>
      <trkpt lat="42.99735" lon="-0.0134">
        <ele>1684.214478</ele>
        <time>2013-02-09T11:02:46Z</time>
      </trkpt>
      <trkpt lat="42.99748" lon="-0.01339">
        <ele>1683.530396</ele>
        <time>2013-02-09T11:03:00Z</time>
      </trkpt>
      <trkpt lat="42.99762" lon="-0.01341">
        <ele>1682.54541</ele>
        <time>2013-02-09T11:03:17Z</time>
      </trkpt>
      <trkpt lat="42.99772" lon="-0.01345">
        <ele>1682.761719</ele>
        <time>2013-02-09T11:03:34Z</time>
      </trkpt>
      <trkpt lat="42.99792" lon="-0.0136">
        <ele>1684.730957</ele>
        <time>2013-02-09T11:03:50Z</time>
      </trkpt>
      <trkpt lat="42.99807" lon="-0.01367">
        <ele>1683.343506</ele>
        <time>2013-02-09T11:03:54Z</time>
      </trkpt>
      <trkpt lat="42.99823" lon="-0.01373">
        <ele>1682.315918</ele>
        <time>2013-02-09T11:03:58Z</time>
      </trkpt>
      <trkpt lat="42.99827" lon="-0.01374">
        <ele>1682.158203</ele>
        <time>2013-02-09T11:03:59Z</time>
      </trkpt>
      <trkpt lat="42.99837" lon="-0.01373">
        <ele>1681.792358</ele>
        <time>2013-02-09T11:04:09Z</time>
      </trkpt>
      <trkpt lat="42.99852" lon="-0.01377">
        <ele>1682.216431</ele>
        <time>2013-02-09T11:04:24Z</time>
      </trkpt>
      <trkpt lat="42.99866" lon="-0.01381">
        <ele>1682.663696</ele>
        <time>2013-02-09T11:04:41Z</time>
      </trkpt>
      <trkpt lat="42.99874" lon="-0.01382">
        <ele>1682.939087</ele>
        <time>2013-02-09T11:04:51Z</time>
      </trkpt>
      <trkpt lat="42.99877" lon="-0.0138">
        <ele>1683.131958</ele>
        <time>2013-02-09T11:04:56Z</time>
      </trkpt>
      <trkpt lat="42.99892" lon="-0.01376">
        <ele>1684.367798</ele>
        <time>2013-02-09T11:05:13Z</time>
      </trkpt>
      <trkpt lat="42.99908" lon="-0.01378">
        <ele>1685.979492</ele>
        <time>2013-02-09T11:05:34Z</time>
      </trkpt>
      <trkpt lat="42.9992" lon="-0.0138">
        <ele>1687.222656</ele>
        <time>2013-02-09T11:05:52Z</time>
      </trkpt>
      <trkpt lat="42.99933" lon="-0.01379">
        <ele>1689.700439</ele>
        <time>2013-02-09T11:06:09Z</time>
      </trkpt>
      <trkpt lat="42.99934" lon="-0.01379">
        <ele>1690.166016</ele>
        <time>2013-02-09T11:06:11Z</time>
      </trkpt>
      <trkpt lat="42.9994" lon="-0.01378">
        <ele>1692.496826</ele>
        <time>2013-02-09T11:06:27Z</time>
      </trkpt>
      <trkpt lat="42.99951" lon="-0.01384">
        <ele>1695.96167</ele>
        <time>2013-02-09T11:06:45Z</time>
      </trkpt>
      <trkpt lat="42.99953" lon="-0.01386">
        <ele>1696.435669</ele>
        <time>2013-02-09T11:06:49Z</time>
      </trkpt>
      <trkpt lat="42.99964" lon="-0.01392">
        <ele>1699.446045</ele>
        <time>2013-02-09T11:07:05Z</time>
      </trkpt>
      <trkpt lat="42.99969" lon="-0.01393">
        <ele>1700.925171</ele>
        <time>2013-02-09T11:07:14Z</time>
      </trkpt>
      <trkpt lat="42.99969" lon="-0.01393">
        <ele>1701.170288</ele>
        <time>2013-02-09T11:07:15Z</time>
      </trkpt>
      <trkpt lat="42.99981" lon="-0.01393">
        <ele>1704.009399</ele>
        <time>2013-02-09T11:07:31Z</time>
      </trkpt>
      <trkpt lat="42.99991" lon="-0.01391">
        <ele>1706.592529</ele>
        <time>2013-02-09T11:07:45Z</time>
      </trkpt>
      <trkpt lat="42.99998" lon="-0.0139">
        <ele>1708.523682</ele>
        <time>2013-02-09T11:08:00Z</time>
      </trkpt>
      <trkpt lat="43.00008" lon="-0.01386">
        <ele>1711.445801</ele>
        <time>2013-02-09T11:08:18Z</time>
      </trkpt>
      <trkpt lat="43.00018" lon="-0.01381">
        <ele>1715.201538</ele>
        <time>2013-02-09T11:08:35Z</time>
      </trkpt>
      <trkpt lat="43.00034" lon="-0.01376">
        <ele>1717.07019</ele>
        <time>2013-02-09T11:08:54Z</time>
      </trkpt>
      <trkpt lat="43.00047" lon="-0.01369">
        <ele>1719.132568</ele>
        <time>2013-02-09T11:09:13Z</time>
      </trkpt>
      <trkpt lat="43.00063" lon="-0.01363">
        <ele>1717.52063</ele>
        <time>2013-02-09T11:09:32Z</time>
      </trkpt>
      <trkpt lat="43.00076" lon="-0.01361">
        <ele>1714.825562</ele>
        <time>2013-02-09T11:09:47Z</time>
      </trkpt>
      <trkpt lat="43.00089" lon="-0.01367">
        <ele>1716.430176</ele>
        <time>2013-02-09T11:10:01Z</time>
      </trkpt>
      <trkpt lat="43.00092" lon="-0.01372">
        <ele>1716.450073</ele>
        <time>2013-02-09T11:10:06Z</time>
      </trkpt>
      <trkpt lat="43.00092" lon="-0.01373">
        <ele>1716.30249</ele>
        <time>2013-02-09T11:10:07Z</time>
      </trkpt>
      <trkpt lat="43.00095" lon="-0.01377">
        <ele>1715.733276</ele>
        <time>2013-02-09T11:10:11Z</time>
      </trkpt>
      <trkpt lat="43.00096" lon="-0.01378">
        <ele>1715.584106</ele>
        <time>2013-02-09T11:10:12Z</time>
      </trkpt>
      <trkpt lat="43.00103" lon="-0.01397">
        <ele>1714.131104</ele>
        <time>2013-02-09T11:10:27Z</time>
      </trkpt>
      <trkpt lat="43.00112" lon="-0.01407">
        <ele>1713.985718</ele>
        <time>2013-02-09T11:10:42Z</time>
      </trkpt>
      <trkpt lat="43.00113" lon="-0.01407">
        <ele>1714.033569</ele>
        <time>2013-02-09T11:10:43Z</time>
      </trkpt>
      <trkpt lat="43.00126" lon="-0.01412">
        <ele>1714.885254</ele>
        <time>2013-02-09T11:10:57Z</time>
      </trkpt>
      <trkpt lat="43.00141" lon="-0.01412">
        <ele>1715.795654</ele>
        <time>2013-02-09T11:11:12Z</time>
      </trkpt>
      <trkpt lat="43.00154" lon="-0.01414">
        <ele>1717.177734</ele>
        <time>2013-02-09T11:11:26Z</time>
      </trkpt>
      <trkpt lat="43.00165" lon="-0.0142">
        <ele>1720.383423</ele>
        <time>2013-02-09T11:11:42Z</time>
      </trkpt>
      <trkpt lat="43.00171" lon="-0.01418">
        <ele>1721.056885</ele>
        <time>2013-02-09T11:11:55Z</time>
      </trkpt>
      <trkpt lat="43.0018" lon="-0.01411">
        <ele>1721.657104</ele>
        <time>2013-02-09T11:12:09Z</time>
      </trkpt>
      <trkpt lat="43.00191" lon="-0.01419">
        <ele>1724.952637</ele>
        <time>2013-02-09T11:12:26Z</time>
      </trkpt>
      <trkpt lat="43.00193" lon="-0.01411">
        <ele>1724.164917</ele>
        <time>2013-02-09T11:12:42Z</time>
      </trkpt>
      <trkpt lat="43.00196" lon="-0.01409">
        <ele>1724.524414</ele>
        <time>2013-02-09T11:12:48Z</time>
      </trkpt>
      <trkpt lat="43.00205" lon="-0.01412">
        <ele>1725.854004</ele>
        <time>2013-02-09T11:13:03Z</time>
      </trkpt>
      <trkpt lat="43.00212" lon="-0.01408">
        <ele>1725.827026</ele>
        <time>2013-02-09T11:13:18Z</time>
      </trkpt>
      <trkpt lat="43.00221" lon="-0.01401">
        <ele>1725.731567</ele>
        <time>2013-02-09T11:13:32Z</time>
      </trkpt>
      <trkpt lat="43.00231" lon="-0.01414">
        <ele>1728.007202</ele>
        <time>2013-02-09T11:13:49Z</time>
      </trkpt>
      <trkpt lat="43.00235" lon="-0.01421">
        <ele>1729.030029</ele>
        <time>2013-02-09T11:13:56Z</time>
      </trkpt>
      <trkpt lat="43.00235" lon="-0.01422">
        <ele>1729.202148</ele>
        <time>2013-02-09T11:13:57Z</time>
      </trkpt>
      <trkpt lat="43.00242" lon="-0.01435">
        <ele>1730.682617</ele>
        <time>2013-02-09T11:14:09Z</time>
      </trkpt>
      <trkpt lat="43.00249" lon="-0.01449">
        <ele>1727.913086</ele>
        <time>2013-02-09T11:14:22Z</time>
      </trkpt>
      <trkpt lat="43.00253" lon="-0.01461">
        <ele>1726.769165</ele>
        <time>2013-02-09T11:14:35Z</time>
      </trkpt>
      <trkpt lat="43.00256" lon="-0.01462">
        <ele>1725.973267</ele>
        <time>2013-02-09T11:14:50Z</time>
      </trkpt>
      <trkpt lat="43.00256" lon="-0.01463">
        <ele>1726.024902</ele>
        <time>2013-02-09T11:15:18Z</time>
      </trkpt>
      <trkpt lat="43.00255" lon="-0.01463">
        <ele>1726.358887</ele>
        <time>2013-02-09T11:15:33Z</time>
      </trkpt>
      <trkpt lat="43.00253" lon="-0.01464">
        <ele>1726.754272</ele>
        <time>2013-02-09T11:16:13Z</time>
      </trkpt>
      <trkpt lat="43.00253" lon="-0.01464">
        <ele>1726.809448</ele>
        <time>2013-02-09T11:16:54Z</time>
      </trkpt>
      <trkpt lat="43.00253" lon="-0.01462">
        <ele>1726.678345</ele>
        <time>2013-02-09T11:17:33Z</time>
      </trkpt>
      <trkpt lat="43.00253" lon="-0.01465">
        <ele>1726.772949</ele>
        <time>2013-02-09T11:18:06Z</time>
      </trkpt>
      <trkpt lat="43.00253" lon="-0.01463">
        <ele>1726.693359</ele>
        <time>2013-02-09T11:18:47Z</time>
      </trkpt>
      <trkpt lat="43.00254" lon="-0.01463">
        <ele>1726.661865</ele>
        <time>2013-02-09T11:19:04Z</time>
      </trkpt>
      <trkpt lat="43.00254" lon="-0.01463">
        <ele>1726.592651</ele>
        <time>2013-02-09T11:19:22Z</time>
      </trkpt>
      <trkpt lat="43.00256" lon="-0.01461">
        <ele>1726.164307</ele>
        <time>2013-02-09T11:19:34Z</time>
      </trkpt>
      <trkpt lat="43.00256" lon="-0.01461">
        <ele>1726.054688</ele>
        <time>2013-02-09T11:19:36Z</time>
      </trkpt>
      <trkpt lat="43.00256" lon="-0.01461">
        <ele>1726.032715</ele>
        <time>2013-02-09T11:19:37Z</time>
      </trkpt>
      <trkpt lat="43.00256" lon="-0.01461">
        <ele>1725.998901</ele>
        <time>2013-02-09T11:19:39Z</time>
      </trkpt>
      <trkpt lat="43.00253" lon="-0.01461">
        <ele>1726.685547</ele>
        <time>2013-02-09T11:19:53Z</time>
      </trkpt>
      <trkpt lat="43.00253" lon="-0.0146">
        <ele>1726.723755</ele>
        <time>2013-02-09T11:19:54Z</time>
      </trkpt>
      <trkpt lat="43.00254" lon="-0.01459">
        <ele>1726.494141</ele>
        <time>2013-02-09T11:19:55Z</time>
      </trkpt>
      <trkpt lat="43.00258" lon="-0.01462">
        <ele>1725.656494</ele>
        <time>2013-02-09T11:20:08Z</time>
      </trkpt>
      <trkpt lat="43.00258" lon="-0.01463">
        <ele>1725.628784</ele>
        <time>2013-02-09T11:20:12Z</time>
      </trkpt>
      <trkpt lat="43.00257" lon="-0.01463">
        <ele>1725.816162</ele>
        <time>2013-02-09T11:20:25Z</time>
      </trkpt>
      <trkpt lat="43.00257" lon="-0.01462">
        <ele>1725.880737</ele>
        <time>2013-02-09T11:20:28Z</time>
      </trkpt>
      <trkpt lat="43.00257" lon="-0.01462">
        <ele>1725.919434</ele>
        <time>2013-02-09T11:20:38Z</time>
      </trkpt>
      <trkpt lat="43.00257" lon="-0.01462">
        <ele>1725.866943</ele>
        <time>2013-02-09T11:20:40Z</time>
      </trkpt>
      <trkpt lat="43.00257" lon="-0.01462">
        <ele>1725.761353</ele>
        <time>2013-02-09T11:20:42Z</time>
      </trkpt>
      <trkpt lat="43.00258" lon="-0.01462">
        <ele>1725.687866</ele>
        <time>2013-02-09T11:20:43Z</time>
      </trkpt>
      <trkpt lat="43.00258" lon="-0.01462">
        <ele>1725.600586</ele>
        <time>2013-02-09T11:20:44Z</time>
      </trkpt>
      <trkpt lat="43.00258" lon="-0.01462">
        <ele>1725.58313</ele>
        <time>2013-02-09T11:20:45Z</time>
      </trkpt>
      <trkpt lat="43.00257" lon="-0.01462">
        <ele>1725.87207</ele>
        <time>2013-02-09T11:20:47Z</time>
      </trkpt>
      <trkpt lat="43.00256" lon="-0.01462">
        <ele>1726.095093</ele>
        <time>2013-02-09T11:20:50Z</time>
      </trkpt>
      <trkpt lat="43.00254" lon="-0.01462">
        <ele>1726.572144</ele>
        <time>2013-02-09T11:21:04Z</time>
      </trkpt>
      <trkpt lat="43.00254" lon="-0.01462">
        <ele>1726.534302</ele>
        <time>2013-02-09T11:21:10Z</time>
      </trkpt>
      <trkpt lat="43.00254" lon="-0.01463">
        <ele>1726.542358</ele>
        <time>2013-02-09T11:21:27Z</time>
      </trkpt>
      <trkpt lat="43.00255" lon="-0.01463">
        <ele>1726.3396</ele>
        <time>2013-02-09T11:21:40Z</time>
      </trkpt>
      <trkpt lat="43.00255" lon="-0.01463">
        <ele>1726.375854</ele>
        <time>2013-02-09T11:21:41Z</time>
      </trkpt>
      <trkpt lat="43.00255" lon="-0.01462">
        <ele>1726.405396</ele>
        <time>2013-02-09T11:22:11Z</time>
      </trkpt>
      <trkpt lat="43.00254" lon="-0.01462">
        <ele>1726.497925</ele>
        <time>2013-02-09T11:22:37Z</time>
      </trkpt>
      <trkpt lat="43.00255" lon="-0.01463">
        <ele>1726.402588</ele>
        <time>2013-02-09T11:22:39Z</time>
      </trkpt>
      <trkpt lat="43.00255" lon="-0.01462">
        <ele>1726.288574</ele>
        <time>2013-02-09T11:22:44Z</time>
      </trkpt>
      <trkpt lat="43.00256" lon="-0.01463">
        <ele>1725.995972</ele>
        <time>2013-02-09T11:22:51Z</time>
      </trkpt>
      <trkpt lat="43.00255" lon="-0.01462">
        <ele>1726.398193</ele>
        <time>2013-02-09T11:23:04Z</time>
      </trkpt>
      <trkpt lat="43.00255" lon="-0.01463">
        <ele>1726.369141</ele>
        <time>2013-02-09T11:23:09Z</time>
      </trkpt>
      <trkpt lat="43.00255" lon="-0.01463">
        <ele>1726.364136</ele>
        <time>2013-02-09T11:23:11Z</time>
      </trkpt>
      <trkpt lat="43.00255" lon="-0.01463">
        <ele>1726.398682</ele>
        <time>2013-02-09T11:23:13Z</time>
      </trkpt>
      <trkpt lat="43.00254" lon="-0.01462">
        <ele>1726.454834</ele>
        <time>2013-02-09T11:23:31Z</time>
      </trkpt>
      <trkpt lat="43.00254" lon="-0.01461">
        <ele>1726.438965</ele>
        <time>2013-02-09T11:23:37Z</time>
      </trkpt>
      <trkpt lat="43.00255" lon="-0.01461">
        <ele>1726.386353</ele>
        <time>2013-02-09T11:23:38Z</time>
      </trkpt>
      <trkpt lat="43.00255" lon="-0.01461">
        <ele>1726.371948</ele>
        <time>2013-02-09T11:23:40Z</time>
      </trkpt>
      <trkpt lat="43.00254" lon="-0.01462">
        <ele>1726.471436</ele>
        <time>2013-02-09T11:23:51Z</time>
      </trkpt>
      <trkpt lat="43.00254" lon="-0.01462">
        <ele>1726.519653</ele>
        <time>2013-02-09T11:24:13Z</time>
      </trkpt>
      <trkpt lat="43.00254" lon="-0.01462">
        <ele>1726.460693</ele>
        <time>2013-02-09T11:24:16Z</time>
      </trkpt>
      <trkpt lat="43.00254" lon="-0.01461">
        <ele>1726.449463</ele>
        <time>2013-02-09T11:24:17Z</time>
      </trkpt>
      <trkpt lat="43.00255" lon="-0.01461">
        <ele>1726.387451</ele>
        <time>2013-02-09T11:24:18Z</time>
      </trkpt>
      <trkpt lat="43.00256" lon="-0.01462">
        <ele>1726.150513</ele>
        <time>2013-02-09T11:24:28Z</time>
      </trkpt>
      <trkpt lat="43.00256" lon="-0.01462">
        <ele>1726.128784</ele>
        <time>2013-02-09T11:24:29Z</time>
      </trkpt>
      <trkpt lat="43.00256" lon="-0.01463">
        <ele>1726.171631</ele>
        <time>2013-02-09T11:24:30Z</time>
      </trkpt>
      <trkpt lat="43.00255" lon="-0.01463">
        <ele>1726.238525</ele>
        <time>2013-02-09T11:24:31Z</time>
      </trkpt>
      <trkpt lat="43.00255" lon="-0.01463">
        <ele>1726.384888</ele>
        <time>2013-02-09T11:24:33Z</time>
      </trkpt>
      <trkpt lat="43.00255" lon="-0.01464">
        <ele>1726.455811</ele>
        <time>2013-02-09T11:24:34Z</time>
      </trkpt>
      <trkpt lat="43.00255" lon="-0.01464">
        <ele>1726.408447</ele>
        <time>2013-02-09T11:24:35Z</time>
      </trkpt>
      <trkpt lat="43.00254" lon="-0.01462">
        <ele>1726.509521</ele>
        <time>2013-02-09T11:24:37Z</time>
      </trkpt>
      <trkpt lat="43.00254" lon="-0.01462">
        <ele>1726.5802</ele>
        <time>2013-02-09T11:24:41Z</time>
      </trkpt>
      <trkpt lat="43.00254" lon="-0.01462">
        <ele>1726.568726</ele>
        <time>2013-02-09T11:24:42Z</time>
      </trkpt>
      <trkpt lat="43.00254" lon="-0.01462">
        <ele>1726.535522</ele>
        <time>2013-02-09T11:24:43Z</time>
      </trkpt>
      <trkpt lat="43.00253" lon="-0.01462">
        <ele>1726.728394</ele>
        <time>2013-02-09T11:24:56Z</time>
      </trkpt>
      <trkpt lat="43.00254" lon="-0.01463">
        <ele>1726.619019</ele>
        <time>2013-02-09T11:25:02Z</time>
      </trkpt>
      <trkpt lat="43.00254" lon="-0.01463">
        <ele>1726.575439</ele>
        <time>2013-02-09T11:25:03Z</time>
      </trkpt>
      <trkpt lat="43.00254" lon="-0.01462">
        <ele>1726.460083</ele>
        <time>2013-02-09T11:25:08Z</time>
      </trkpt>
      <trkpt lat="43.00255" lon="-0.01463">
        <ele>1726.41748</ele>
        <time>2013-02-09T11:25:09Z</time>
      </trkpt>
      <trkpt lat="43.00254" lon="-0.01462">
        <ele>1726.493286</ele>
        <time>2013-02-09T11:25:18Z</time>
      </trkpt>
      <trkpt lat="43.00254" lon="-0.01462">
        <ele>1726.526123</ele>
        <time>2013-02-09T11:25:23Z</time>
      </trkpt>
      <trkpt lat="43.00254" lon="-0.01461">
        <ele>1726.552612</ele>
        <time>2013-02-09T11:25:29Z</time>
      </trkpt>
      <trkpt lat="43.00254" lon="-0.01461">
        <ele>1726.522461</ele>
        <time>2013-02-09T11:25:31Z</time>
      </trkpt>
      <trkpt lat="43.00254" lon="-0.01461">
        <ele>1726.495117</ele>
        <time>2013-02-09T11:25:34Z</time>
      </trkpt>
      <trkpt lat="43.00254" lon="-0.01461">
        <ele>1726.470703</ele>
        <time>2013-02-09T11:25:36Z</time>
      </trkpt>
      <trkpt lat="43.00254" lon="-0.01462">
        <ele>1726.613037</ele>
        <time>2013-02-09T11:25:55Z</time>
      </trkpt>
      <trkpt lat="43.00253" lon="-0.01463">
        <ele>1726.693481</ele>
        <time>2013-02-09T11:25:58Z</time>
      </trkpt>
      <trkpt lat="43.00254" lon="-0.01464">
        <ele>1726.683228</ele>
        <time>2013-02-09T11:25:59Z</time>
      </trkpt>
      <trkpt lat="43.00253" lon="-0.01464">
        <ele>1726.875488</ele>
        <time>2013-02-09T11:26:19Z</time>
      </trkpt>
      <trkpt lat="43.00253" lon="-0.01464">
        <ele>1726.873291</ele>
        <time>2013-02-09T11:26:20Z</time>
      </trkpt>
      <trkpt lat="43.00252" lon="-0.01463">
        <ele>1726.927124</ele>
        <time>2013-02-09T11:26:40Z</time>
      </trkpt>
      <trkpt lat="43.00253" lon="-0.01463">
        <ele>1726.836182</ele>
        <time>2013-02-09T11:27:11Z</time>
      </trkpt>
      <trkpt lat="43.00254" lon="-0.01464">
        <ele>1726.603638</ele>
        <time>2013-02-09T11:27:27Z</time>
      </trkpt>
      <trkpt lat="43.00254" lon="-0.01462">
        <ele>1726.441895</ele>
        <time>2013-02-09T11:27:34Z</time>
      </trkpt>
      <trkpt lat="43.00253" lon="-0.01461">
        <ele>1726.759155</ele>
        <time>2013-02-09T11:27:55Z</time>
      </trkpt>
      <trkpt lat="43.00253" lon="-0.01461">
        <ele>1726.660156</ele>
        <time>2013-02-09T11:27:56Z</time>
      </trkpt>
      <trkpt lat="43.00254" lon="-0.01461">
        <ele>1726.615601</ele>
        <time>2013-02-09T11:27:58Z</time>
      </trkpt>
      <trkpt lat="43.00252" lon="-0.01462">
        <ele>1727.045288</ele>
        <time>2013-02-09T11:28:23Z</time>
      </trkpt>
      <trkpt lat="43.00251" lon="-0.0146">
        <ele>1727.211426</ele>
        <time>2013-02-09T11:28:49Z</time>
      </trkpt>
      <trkpt lat="43.00251" lon="-0.0146">
        <ele>1727.169922</ele>
        <time>2013-02-09T11:28:52Z</time>
      </trkpt>
      <trkpt lat="43.0025" lon="-0.01461">
        <ele>1727.421997</ele>
        <time>2013-02-09T11:29:17Z</time>
      </trkpt>
      <trkpt lat="43.0025" lon="-0.01461">
        <ele>1727.432861</ele>
        <time>2013-02-09T11:29:22Z</time>
      </trkpt>
      <trkpt lat="43.0025" lon="-0.01461">
        <ele>1727.547119</ele>
        <time>2013-02-09T11:29:47Z</time>
      </trkpt>
      <trkpt lat="43.00251" lon="-0.01461">
        <ele>1727.216064</ele>
        <time>2013-02-09T11:30:12Z</time>
      </trkpt>
      <trkpt lat="43.00251" lon="-0.01461">
        <ele>1727.232422</ele>
        <time>2013-02-09T11:30:13Z</time>
      </trkpt>
      <trkpt lat="43.00251" lon="-0.01462">
        <ele>1727.251587</ele>
        <time>2013-02-09T11:30:15Z</time>
      </trkpt>
      <trkpt lat="43.00251" lon="-0.01462">
        <ele>1727.247803</ele>
        <time>2013-02-09T11:30:22Z</time>
      </trkpt>
      <trkpt lat="43.00251" lon="-0.01462">
        <ele>1727.327881</ele>
        <time>2013-02-09T11:30:23Z</time>
      </trkpt>
      <trkpt lat="43.0025" lon="-0.01462">
        <ele>1727.523193</ele>
        <time>2013-02-09T11:30:24Z</time>
      </trkpt>
      <trkpt lat="43.00248" lon="-0.01462">
        <ele>1728.08606</ele>
        <time>2013-02-09T11:30:26Z</time>
      </trkpt>
      <trkpt lat="43.00234" lon="-0.01452">
        <ele>1729.490479</ele>
        <time>2013-02-09T11:30:37Z</time>
      </trkpt>
      <trkpt lat="43.00217" lon="-0.01439">
        <ele>1728.944946</ele>
        <time>2013-02-09T11:30:50Z</time>
      </trkpt>
      <trkpt lat="43.00216" lon="-0.01438">
        <ele>1728.936401</ele>
        <time>2013-02-09T11:30:51Z</time>
      </trkpt>
      <trkpt lat="43.00207" lon="-0.01436">
        <ele>1728.530518</ele>
        <time>2013-02-09T11:30:57Z</time>
      </trkpt>
      <trkpt lat="43.00205" lon="-0.01436">
        <ele>1728.394897</ele>
        <time>2013-02-09T11:30:58Z</time>
      </trkpt>
      <trkpt lat="43.00196" lon="-0.01434">
        <ele>1727.900879</ele>
        <time>2013-02-09T11:31:02Z</time>
      </trkpt>
      <trkpt lat="43.00194" lon="-0.01434">
        <ele>1727.623291</ele>
        <time>2013-02-09T11:31:03Z</time>
      </trkpt>
      <trkpt lat="43.00181" lon="-0.01432">
        <ele>1725.047119</ele>
        <time>2013-02-09T11:31:10Z</time>
      </trkpt>
      <trkpt lat="43.00175" lon="-0.0143">
        <ele>1723.859863</ele>
        <time>2013-02-09T11:31:12Z</time>
      </trkpt>
      <trkpt lat="43.00168" lon="-0.01428">
        <ele>1722.141602</ele>
        <time>2013-02-09T11:31:14Z</time>
      </trkpt>
      <trkpt lat="43.00163" lon="-0.01427">
        <ele>1721.200195</ele>
        <time>2013-02-09T11:31:15Z</time>
      </trkpt>
      <trkpt lat="43.00151" lon="-0.01423">
        <ele>1718.324219</ele>
        <time>2013-02-09T11:31:18Z</time>
      </trkpt>
      <trkpt lat="43.00141" lon="-0.01416">
        <ele>1716.335449</ele>
        <time>2013-02-09T11:31:28Z</time>
      </trkpt>
      <trkpt lat="43.00142" lon="-0.01416">
        <ele>1716.463379</ele>
        <time>2013-02-09T11:31:44Z</time>
      </trkpt>
      <trkpt lat="43.00142" lon="-0.01416">
        <ele>1716.386353</ele>
        <time>2013-02-09T11:32:09Z</time>
      </trkpt>
      <trkpt lat="43.00142" lon="-0.01418">
        <ele>1716.749268</ele>
        <time>2013-02-09T11:32:27Z</time>
      </trkpt>
      <trkpt lat="43.00134" lon="-0.01416">
        <ele>1715.76416</ele>
        <time>2013-02-09T11:32:45Z</time>
      </trkpt>
      <trkpt lat="43.00118" lon="-0.0141">
        <ele>1714.306274</ele>
        <time>2013-02-09T11:33:00Z</time>
      </trkpt>
      <trkpt lat="43.00105" lon="-0.01398">
        <ele>1714.070435</ele>
        <time>2013-02-09T11:33:14Z</time>
      </trkpt>
      <trkpt lat="43.00101" lon="-0.01389">
        <ele>1714.566162</ele>
        <time>2013-02-09T11:33:21Z</time>
      </trkpt>
      <trkpt lat="43.00088" lon="-0.01366">
        <ele>1716.026245</ele>
        <time>2013-02-09T11:33:37Z</time>
      </trkpt>
      <trkpt lat="43.00085" lon="-0.01363">
        <ele>1715.047485</ele>
        <time>2013-02-09T11:33:39Z</time>
      </trkpt>
      <trkpt lat="43.00077" lon="-0.01361">
        <ele>1714.842773</ele>
        <time>2013-02-09T11:33:44Z</time>
      </trkpt>
      <trkpt lat="43.00059" lon="-0.01366">
        <ele>1719.237305</ele>
        <time>2013-02-09T11:33:58Z</time>
      </trkpt>
      <trkpt lat="43.00042" lon="-0.01372">
        <ele>1718.342773</ele>
        <time>2013-02-09T11:34:08Z</time>
      </trkpt>
      <trkpt lat="43.00032" lon="-0.01376">
        <ele>1717.06604</ele>
        <time>2013-02-09T11:34:12Z</time>
      </trkpt>
      <trkpt lat="43.00014" lon="-0.01384">
        <ele>1713.464966</ele>
        <time>2013-02-09T11:34:22Z</time>
      </trkpt>
      <trkpt lat="42.99994" lon="-0.0139">
        <ele>1707.671509</ele>
        <time>2013-02-09T11:34:31Z</time>
      </trkpt>
      <trkpt lat="42.99992" lon="-0.0139">
        <ele>1706.999512</ele>
        <time>2013-02-09T11:34:32Z</time>
      </trkpt>
      <trkpt lat="42.99981" lon="-0.0139">
        <ele>1704.578735</ele>
        <time>2013-02-09T11:34:36Z</time>
      </trkpt>
      <trkpt lat="42.99969" lon="-0.0139">
        <ele>1701.483521</ele>
        <time>2013-02-09T11:34:40Z</time>
      </trkpt>
      <trkpt lat="42.99955" lon="-0.01386">
        <ele>1697.3573</ele>
        <time>2013-02-09T11:34:44Z</time>
      </trkpt>
      <trkpt lat="42.99937" lon="-0.0138">
        <ele>1691.379028</ele>
        <time>2013-02-09T11:34:49Z</time>
      </trkpt>
      <trkpt lat="42.99929" lon="-0.01379">
        <ele>1688.503906</ele>
        <time>2013-02-09T11:34:51Z</time>
      </trkpt>
      <trkpt lat="42.99922" lon="-0.01379">
        <ele>1687.355591</ele>
        <time>2013-02-09T11:34:53Z</time>
      </trkpt>
      <trkpt lat="42.99902" lon="-0.01376">
        <ele>1685.432617</ele>
        <time>2013-02-09T11:34:58Z</time>
      </trkpt>
      <trkpt lat="42.99882" lon="-0.01379">
        <ele>1683.327637</ele>
        <time>2013-02-09T11:35:04Z</time>
      </trkpt>
      <trkpt lat="42.99872" lon="-0.0138">
        <ele>1682.909546</ele>
        <time>2013-02-09T11:35:16Z</time>
      </trkpt>
      <trkpt lat="42.99859" lon="-0.01378">
        <ele>1682.458862</ele>
        <time>2013-02-09T11:35:27Z</time>
      </trkpt>
      <trkpt lat="42.99834" lon="-0.01373">
        <ele>1681.908813</ele>
        <time>2013-02-09T11:35:42Z</time>
      </trkpt>
      <trkpt lat="42.99835" lon="-0.01374">
        <ele>1681.848877</ele>
        <time>2013-02-09T11:35:48Z</time>
      </trkpt>
      <trkpt lat="42.99837" lon="-0.01374">
        <ele>1681.797241</ele>
        <time>2013-02-09T11:35:58Z</time>
      </trkpt>
      <trkpt lat="42.99836" lon="-0.01374">
        <ele>1681.803955</ele>
        <time>2013-02-09T11:36:12Z</time>
      </trkpt>
      <trkpt lat="42.99837" lon="-0.01373">
        <ele>1681.80481</ele>
        <time>2013-02-09T11:36:36Z</time>
      </trkpt>
      <trkpt lat="42.99836" lon="-0.01374">
        <ele>1681.791138</ele>
        <time>2013-02-09T11:37:00Z</time>
      </trkpt>
      <trkpt lat="42.99835" lon="-0.01374">
        <ele>1681.851074</ele>
        <time>2013-02-09T11:37:35Z</time>
      </trkpt>
      <trkpt lat="42.99836" lon="-0.01374">
        <ele>1681.811279</ele>
        <time>2013-02-09T11:37:56Z</time>
      </trkpt>
      <trkpt lat="42.99836" lon="-0.01374">
        <ele>1681.800171</ele>
        <time>2013-02-09T11:38:28Z</time>
      </trkpt>
      <trkpt lat="42.99836" lon="-0.01374">
        <ele>1681.803589</ele>
        <time>2013-02-09T11:38:29Z</time>
      </trkpt>
      <trkpt lat="42.99836" lon="-0.01374">
        <ele>1681.811157</ele>
        <time>2013-02-09T11:38:30Z</time>
      </trkpt>
      <trkpt lat="42.99835" lon="-0.01374">
        <ele>1681.853516</ele>
        <time>2013-02-09T11:39:03Z</time>
      </trkpt>
      <trkpt lat="42.99835" lon="-0.01374">
        <ele>1681.849976</ele>
        <time>2013-02-09T11:39:37Z</time>
      </trkpt>
      <trkpt lat="42.9983" lon="-0.01376">
        <ele>1681.96106</ele>
        <time>2013-02-09T11:39:57Z</time>
      </trkpt>
      <trkpt lat="42.99824" lon="-0.01378">
        <ele>1682.098145</ele>
        <time>2013-02-09T11:40:02Z</time>
      </trkpt>
      <trkpt lat="42.99797" lon="-0.01388">
        <ele>1681.831543</ele>
        <time>2013-02-09T11:40:21Z</time>
      </trkpt>
      <trkpt lat="42.99767" lon="-0.01396">
        <ele>1680.812378</ele>
        <time>2013-02-09T11:40:37Z</time>
      </trkpt>
      <trkpt lat="42.99748" lon="-0.01402">
        <ele>1679.423706</ele>
        <time>2013-02-09T11:40:49Z</time>
      </trkpt>
      <trkpt lat="42.99721" lon="-0.01411">
        <ele>1676.559814</ele>
        <time>2013-02-09T11:41:04Z</time>
      </trkpt>
      <trkpt lat="42.99689" lon="-0.0142">
        <ele>1672.79834</ele>
        <time>2013-02-09T11:41:20Z</time>
      </trkpt>
      <trkpt lat="42.99673" lon="-0.01424">
        <ele>1670.966187</ele>
        <time>2013-02-09T11:41:29Z</time>
      </trkpt>
      <trkpt lat="42.99668" lon="-0.01425">
        <ele>1670.399048</ele>
        <time>2013-02-09T11:41:32Z</time>
      </trkpt>
      <trkpt lat="42.99658" lon="-0.01428">
        <ele>1668.937012</ele>
        <time>2013-02-09T11:41:38Z</time>
      </trkpt>
      <trkpt lat="42.99636" lon="-0.01435">
        <ele>1664.734253</ele>
        <time>2013-02-09T11:41:50Z</time>
      </trkpt>
      <trkpt lat="42.99624" lon="-0.01436">
        <ele>1663.099976</ele>
        <time>2013-02-09T11:41:57Z</time>
      </trkpt>
      <trkpt lat="42.99601" lon="-0.01437">
        <ele>1659.826904</ele>
        <time>2013-02-09T11:42:10Z</time>
      </trkpt>
      <trkpt lat="42.99589" lon="-0.01436">
        <ele>1658.00769</ele>
        <time>2013-02-09T11:42:16Z</time>
      </trkpt>
      <trkpt lat="42.9957" lon="-0.01426">
        <ele>1657.523804</ele>
        <time>2013-02-09T11:42:30Z</time>
      </trkpt>
      <trkpt lat="42.99559" lon="-0.01416">
        <ele>1658.180664</ele>
        <time>2013-02-09T11:42:40Z</time>
      </trkpt>
      <trkpt lat="42.99546" lon="-0.01404">
        <ele>1658.693237</ele>
        <time>2013-02-09T11:42:46Z</time>
      </trkpt>
      <trkpt lat="42.99525" lon="-0.0139">
        <ele>1657.187256</ele>
        <time>2013-02-09T11:42:54Z</time>
      </trkpt>
      <trkpt lat="42.99513" lon="-0.01395">
        <ele>1655.419312</ele>
        <time>2013-02-09T11:43:01Z</time>
      </trkpt>
      <trkpt lat="42.99505" lon="-0.01402">
        <ele>1653.760498</ele>
        <time>2013-02-09T11:43:05Z</time>
      </trkpt>
      <trkpt lat="42.99495" lon="-0.01418">
        <ele>1650.347778</ele>
        <time>2013-02-09T11:43:18Z</time>
      </trkpt>
      <trkpt lat="42.99489" lon="-0.01429">
        <ele>1648.03125</ele>
        <time>2013-02-09T11:43:31Z</time>
      </trkpt>
      <trkpt lat="42.9949" lon="-0.01432">
        <ele>1647.492676</ele>
        <time>2013-02-09T11:43:43Z</time>
      </trkpt>
      <trkpt lat="42.9949" lon="-0.01433">
        <ele>1647.411011</ele>
        <time>2013-02-09T11:43:44Z</time>
      </trkpt>
      <trkpt lat="42.99491" lon="-0.01435">
        <ele>1646.970093</ele>
        <time>2013-02-09T11:43:49Z</time>
      </trkpt>
      <trkpt lat="42.99491" lon="-0.01435">
        <ele>1646.875122</ele>
        <time>2013-02-09T11:43:50Z</time>
      </trkpt>
      <trkpt lat="42.9949" lon="-0.01433">
        <ele>1647.306763</ele>
        <time>2013-02-09T11:43:53Z</time>
      </trkpt>
      <trkpt lat="42.99488" lon="-0.01431">
        <ele>1647.726929</ele>
        <time>2013-02-09T11:44:11Z</time>
      </trkpt>
      <trkpt lat="42.99489" lon="-0.0143">
        <ele>1647.880493</ele>
        <time>2013-02-09T11:44:33Z</time>
      </trkpt>
      <trkpt lat="42.99489" lon="-0.0143">
        <ele>1647.851196</ele>
        <time>2013-02-09T11:44:34Z</time>
      </trkpt>
      <trkpt lat="42.99489" lon="-0.01431">
        <ele>1647.791626</ele>
        <time>2013-02-09T11:44:44Z</time>
      </trkpt>
      <trkpt lat="42.99489" lon="-0.0143">
        <ele>1647.833984</ele>
        <time>2013-02-09T11:44:45Z</time>
      </trkpt>
      <trkpt lat="42.99489" lon="-0.0143">
        <ele>1647.864014</ele>
        <time>2013-02-09T11:44:46Z</time>
      </trkpt>
      <trkpt lat="42.99487" lon="-0.01431">
        <ele>1647.791748</ele>
        <time>2013-02-09T11:45:10Z</time>
      </trkpt>
      <trkpt lat="42.99487" lon="-0.01431">
        <ele>1647.786865</ele>
        <time>2013-02-09T11:45:15Z</time>
      </trkpt>
      <trkpt lat="42.99487" lon="-0.01432">
        <ele>1647.593628</ele>
        <time>2013-02-09T11:45:46Z</time>
      </trkpt>
      <trkpt lat="42.99489" lon="-0.0143">
        <ele>1647.906006</ele>
        <time>2013-02-09T11:45:58Z</time>
      </trkpt>
      <trkpt lat="42.99489" lon="-0.0143">
        <ele>1647.84082</ele>
        <time>2013-02-09T11:46:20Z</time>
      </trkpt>
      <trkpt lat="42.99488" lon="-0.0143">
        <ele>1647.837036</ele>
        <time>2013-02-09T11:46:27Z</time>
      </trkpt>
      <trkpt lat="42.99488" lon="-0.0143">
        <ele>1647.845093</ele>
        <time>2013-02-09T11:46:28Z</time>
      </trkpt>
      <trkpt lat="42.99488" lon="-0.0143">
        <ele>1647.810059</ele>
        <time>2013-02-09T11:46:48Z</time>
      </trkpt>
      <trkpt lat="42.99487" lon="-0.01429">
        <ele>1648.007935</ele>
        <time>2013-02-09T11:47:07Z</time>
      </trkpt>
      <trkpt lat="42.99489" lon="-0.01429">
        <ele>1648.031128</ele>
        <time>2013-02-09T11:47:19Z</time>
      </trkpt>
      <trkpt lat="42.99488" lon="-0.0143">
        <ele>1647.849121</ele>
        <time>2013-02-09T11:47:26Z</time>
      </trkpt>
      <trkpt lat="42.99487" lon="-0.01429">
        <ele>1648.041748</ele>
        <time>2013-02-09T11:47:48Z</time>
      </trkpt>
      <trkpt lat="42.99487" lon="-0.0143">
        <ele>1647.938354</ele>
        <time>2013-02-09T11:48:13Z</time>
      </trkpt>
      <trkpt lat="42.99487" lon="-0.0143">
        <ele>1647.849243</ele>
        <time>2013-02-09T11:48:17Z</time>
      </trkpt>
      <trkpt lat="42.99487" lon="-0.0143">
        <ele>1647.805298</ele>
        <time>2013-02-09T11:48:19Z</time>
      </trkpt>
      <trkpt lat="42.99487" lon="-0.01431">
        <ele>1647.736938</ele>
        <time>2013-02-09T11:48:20Z</time>
      </trkpt>
      <trkpt lat="42.99487" lon="-0.01432">
        <ele>1647.529175</ele>
        <time>2013-02-09T11:48:28Z</time>
      </trkpt>
      <trkpt lat="42.99487" lon="-0.01428">
        <ele>1648.185425</ele>
        <time>2013-02-09T11:48:49Z</time>
      </trkpt>
      <trkpt lat="42.99487" lon="-0.01428">
        <ele>1648.264404</ele>
        <time>2013-02-09T11:48:51Z</time>
      </trkpt>
      <trkpt lat="42.99488" lon="-0.01428">
        <ele>1648.332031</ele>
        <time>2013-02-09T11:49:02Z</time>
      </trkpt>
      <trkpt lat="42.99488" lon="-0.01427">
        <ele>1648.40564</ele>
        <time>2013-02-09T11:49:11Z</time>
      </trkpt>
      <trkpt lat="42.99488" lon="-0.01427">
        <ele>1648.465332</ele>
        <time>2013-02-09T11:49:13Z</time>
      </trkpt>
      <trkpt lat="42.99487" lon="-0.01427">
        <ele>1648.50647</ele>
        <time>2013-02-09T11:49:15Z</time>
      </trkpt>
      <trkpt lat="42.99487" lon="-0.01422">
        <ele>1649.338745</ele>
        <time>2013-02-09T11:49:17Z</time>
      </trkpt>
      <trkpt lat="42.99487" lon="-0.01422">
        <ele>1649.324097</ele>
        <time>2013-02-09T11:49:18Z</time>
      </trkpt>
      <trkpt lat="42.99487" lon="-0.01422">
        <ele>1649.310913</ele>
        <time>2013-02-09T11:49:19Z</time>
      </trkpt>
      <trkpt lat="42.99487" lon="-0.01422">
        <ele>1649.296265</ele>
        <time>2013-02-09T11:49:20Z</time>
      </trkpt>
      <trkpt lat="42.99486" lon="-0.01425">
        <ele>1648.80835</ele>
        <time>2013-02-09T11:49:22Z</time>
      </trkpt>
      <trkpt lat="42.99485" lon="-0.01425">
        <ele>1648.819946</ele>
        <time>2013-02-09T11:49:23Z</time>
      </trkpt>
      <trkpt lat="42.99488" lon="-0.01426">
        <ele>1648.591675</ele>
        <time>2013-02-09T11:49:46Z</time>
      </trkpt>
      <trkpt lat="42.99488" lon="-0.01429">
        <ele>1648.148804</ele>
        <time>2013-02-09T11:50:07Z</time>
      </trkpt>
      <trkpt lat="42.99486" lon="-0.01427">
        <ele>1648.322144</ele>
        <time>2013-02-09T11:50:22Z</time>
      </trkpt>
      <trkpt lat="42.99485" lon="-0.01427">
        <ele>1648.350586</ele>
        <time>2013-02-09T11:50:24Z</time>
      </trkpt>
      <trkpt lat="42.99488" lon="-0.01428">
        <ele>1648.188477</ele>
        <time>2013-02-09T11:50:54Z</time>
      </trkpt>
      <trkpt lat="42.99485" lon="-0.01428">
        <ele>1648.227295</ele>
        <time>2013-02-09T11:51:27Z</time>
      </trkpt>
      <trkpt lat="42.99487" lon="-0.01428">
        <ele>1648.206909</ele>
        <time>2013-02-09T11:51:59Z</time>
      </trkpt>
      <trkpt lat="42.99486" lon="-0.01429">
        <ele>1648.111938</ele>
        <time>2013-02-09T11:52:22Z</time>
      </trkpt>
      <trkpt lat="42.99487" lon="-0.01427">
        <ele>1648.422119</ele>
        <time>2013-02-09T11:52:32Z</time>
      </trkpt>
      <trkpt lat="42.99487" lon="-0.01427">
        <ele>1648.370972</ele>
        <time>2013-02-09T11:52:56Z</time>
      </trkpt>
      <trkpt lat="42.99486" lon="-0.01428">
        <ele>1648.310059</ele>
        <time>2013-02-09T11:53:25Z</time>
      </trkpt>
      <trkpt lat="42.99487" lon="-0.01428">
        <ele>1648.286133</ele>
        <time>2013-02-09T11:53:28Z</time>
      </trkpt>
      <trkpt lat="42.99486" lon="-0.01428">
        <ele>1648.305298</ele>
        <time>2013-02-09T11:53:49Z</time>
      </trkpt>
      <trkpt lat="42.99486" lon="-0.01428">
        <ele>1648.19165</ele>
        <time>2013-02-09T11:54:16Z</time>
      </trkpt>
      <trkpt lat="42.99487" lon="-0.01426">
        <ele>1648.537476</ele>
        <time>2013-02-09T11:54:46Z</time>
      </trkpt>
      <trkpt lat="42.99487" lon="-0.01426">
        <ele>1648.524658</ele>
        <time>2013-02-09T11:54:47Z</time>
      </trkpt>
      <trkpt lat="42.99485" lon="-0.01429">
        <ele>1648.129028</ele>
        <time>2013-02-09T11:54:56Z</time>
      </trkpt>
      <trkpt lat="42.99486" lon="-0.01429">
        <ele>1648.106079</ele>
        <time>2013-02-09T11:54:57Z</time>
      </trkpt>
      <trkpt lat="42.99486" lon="-0.01429">
        <ele>1648.082031</ele>
        <time>2013-02-09T11:54:59Z</time>
      </trkpt>
      <trkpt lat="42.99486" lon="-0.01429">
        <ele>1648.037842</ele>
        <time>2013-02-09T11:55:00Z</time>
      </trkpt>
      <trkpt lat="42.99486" lon="-0.01429">
        <ele>1648.012695</ele>
        <time>2013-02-09T11:55:01Z</time>
      </trkpt>
      <trkpt lat="42.99485" lon="-0.01428">
        <ele>1648.236328</ele>
        <time>2013-02-09T11:55:05Z</time>
      </trkpt>
      <trkpt lat="42.99485" lon="-0.01427">
        <ele>1648.337036</ele>
        <time>2013-02-09T11:55:06Z</time>
      </trkpt>
      <trkpt lat="42.99485" lon="-0.01427">
        <ele>1648.447754</ele>
        <time>2013-02-09T11:55:07Z</time>
      </trkpt>
      <trkpt lat="42.99486" lon="-0.01426">
        <ele>1648.642944</ele>
        <time>2013-02-09T11:55:09Z</time>
      </trkpt>
      <trkpt lat="42.99487" lon="-0.01425">
        <ele>1648.781372</ele>
        <time>2013-02-09T11:55:12Z</time>
      </trkpt>
      <trkpt lat="42.99487" lon="-0.01425">
        <ele>1648.865234</ele>
        <time>2013-02-09T11:55:13Z</time>
      </trkpt>
      <trkpt lat="42.99487" lon="-0.01424">
        <ele>1648.985229</ele>
        <time>2013-02-09T11:55:14Z</time>
      </trkpt>
      <trkpt lat="42.99488" lon="-0.01423">
        <ele>1649.072754</ele>
        <time>2013-02-09T11:55:15Z</time>
      </trkpt>
      <trkpt lat="42.99487" lon="-0.01425">
        <ele>1648.847412</ele>
        <time>2013-02-09T11:55:16Z</time>
      </trkpt>
      <trkpt lat="42.99488" lon="-0.01424">
        <ele>1648.895752</ele>
        <time>2013-02-09T11:55:17Z</time>
      </trkpt>
      <trkpt lat="42.99487" lon="-0.01428">
        <ele>1648.295044</ele>
        <time>2013-02-09T11:55:39Z</time>
      </trkpt>
      <trkpt lat="42.99487" lon="-0.01428">
        <ele>1648.269897</ele>
        <time>2013-02-09T11:55:40Z</time>
      </trkpt>
      <trkpt lat="42.99487" lon="-0.01428">
        <ele>1648.243652</ele>
        <time>2013-02-09T11:55:42Z</time>
      </trkpt>
      <trkpt lat="42.99486" lon="-0.01428">
        <ele>1648.205322</ele>
        <time>2013-02-09T11:55:49Z</time>
      </trkpt>
      <trkpt lat="42.99486" lon="-0.01428">
        <ele>1648.243408</ele>
        <time>2013-02-09T11:55:55Z</time>
      </trkpt>
      <trkpt lat="42.99486" lon="-0.01428">
        <ele>1648.262329</ele>
        <time>2013-02-09T11:55:56Z</time>
      </trkpt>
      <trkpt lat="42.99486" lon="-0.01428">
        <ele>1648.15918</ele>
        <time>2013-02-09T11:55:58Z</time>
      </trkpt>
      <trkpt lat="42.99486" lon="-0.01428">
        <ele>1648.250122</ele>
        <time>2013-02-09T11:56:25Z</time>
      </trkpt>
      <trkpt lat="42.99486" lon="-0.01427">
        <ele>1648.327637</ele>
        <time>2013-02-09T11:56:29Z</time>
      </trkpt>
      <trkpt lat="42.99487" lon="-0.0143">
        <ele>1647.868774</ele>
        <time>2013-02-09T11:56:36Z</time>
      </trkpt>
      <trkpt lat="42.99487" lon="-0.0143">
        <ele>1647.834839</ele>
        <time>2013-02-09T11:56:37Z</time>
      </trkpt>
      <trkpt lat="42.99486" lon="-0.01428">
        <ele>1648.249512</ele>
        <time>2013-02-09T11:56:55Z</time>
      </trkpt>
      <trkpt lat="42.99486" lon="-0.0143">
        <ele>1647.938599</ele>
        <time>2013-02-09T11:57:05Z</time>
      </trkpt>
      <trkpt lat="42.99486" lon="-0.0143">
        <ele>1647.944214</ele>
        <time>2013-02-09T11:57:06Z</time>
      </trkpt>
      <trkpt lat="42.99486" lon="-0.0143">
        <ele>1647.916016</ele>
        <time>2013-02-09T11:57:08Z</time>
      </trkpt>
      <trkpt lat="42.99486" lon="-0.01429">
        <ele>1647.970703</ele>
        <time>2013-02-09T11:57:09Z</time>
      </trkpt>
      <trkpt lat="42.99486" lon="-0.01429">
        <ele>1648.068115</ele>
        <time>2013-02-09T11:57:10Z</time>
      </trkpt>
      <trkpt lat="42.99486" lon="-0.01429">
        <ele>1647.967896</ele>
        <time>2013-02-09T11:57:16Z</time>
      </trkpt>
      <trkpt lat="42.99486" lon="-0.0143">
        <ele>1647.962158</ele>
        <time>2013-02-09T11:57:17Z</time>
      </trkpt>
      <trkpt lat="42.99487" lon="-0.0143">
        <ele>1647.88147</ele>
        <time>2013-02-09T11:57:21Z</time>
      </trkpt>
      <trkpt lat="42.99486" lon="-0.01428">
        <ele>1648.152832</ele>
        <time>2013-02-09T11:57:32Z</time>
      </trkpt>
      <trkpt lat="42.99486" lon="-0.01428">
        <ele>1648.201294</ele>
        <time>2013-02-09T11:57:33Z</time>
      </trkpt>
      <trkpt lat="42.99488" lon="-0.01429">
        <ele>1648.149292</ele>
        <time>2013-02-09T11:57:51Z</time>
      </trkpt>
      <trkpt lat="42.99488" lon="-0.01428">
        <ele>1648.219238</ele>
        <time>2013-02-09T11:58:04Z</time>
      </trkpt>
      <trkpt lat="42.99487" lon="-0.01428">
        <ele>1648.290039</ele>
        <time>2013-02-09T11:58:21Z</time>
      </trkpt>
      <trkpt lat="42.99487" lon="-0.0143">
        <ele>1647.870972</ele>
        <time>2013-02-09T11:58:48Z</time>
      </trkpt>
      <trkpt lat="42.99485" lon="-0.01426">
        <ele>1648.519531</ele>
        <time>2013-02-09T11:59:06Z</time>
      </trkpt>
      <trkpt lat="42.99484" lon="-0.01425">
        <ele>1648.703003</ele>
        <time>2013-02-09T11:59:31Z</time>
      </trkpt>
      <trkpt lat="42.99484" lon="-0.01425">
        <ele>1648.748535</ele>
        <time>2013-02-09T11:59:32Z</time>
      </trkpt>
      <trkpt lat="42.99484" lon="-0.01425">
        <ele>1648.811401</ele>
        <time>2013-02-09T11:59:33Z</time>
      </trkpt>
      <trkpt lat="42.99484" lon="-0.01424">
        <ele>1648.879639</ele>
        <time>2013-02-09T11:59:34Z</time>
      </trkpt>
      <trkpt lat="42.99484" lon="-0.01424">
        <ele>1648.949463</ele>
        <time>2013-02-09T11:59:35Z</time>
      </trkpt>
      <trkpt lat="42.99485" lon="-0.01425">
        <ele>1648.692017</ele>
        <time>2013-02-09T11:59:38Z</time>
      </trkpt>
      <trkpt lat="42.99485" lon="-0.01426">
        <ele>1648.603027</ele>
        <time>2013-02-09T11:59:51Z</time>
      </trkpt>
      <trkpt lat="42.99485" lon="-0.01426">
        <ele>1648.586914</ele>
        <time>2013-02-09T11:59:52Z</time>
      </trkpt>
      <trkpt lat="42.99485" lon="-0.01426">
        <ele>1648.581421</ele>
        <time>2013-02-09T11:59:53Z</time>
      </trkpt>
      <trkpt lat="42.99485" lon="-0.01426">
        <ele>1648.606689</ele>
        <time>2013-02-09T11:59:54Z</time>
      </trkpt>
      <trkpt lat="42.99485" lon="-0.01426">
        <ele>1648.644409</ele>
        <time>2013-02-09T11:59:55Z</time>
      </trkpt>
      <trkpt lat="42.99485" lon="-0.01426">
        <ele>1648.671631</ele>
        <time>2013-02-09T11:59:56Z</time>
      </trkpt>
      <trkpt lat="42.99486" lon="-0.01425">
        <ele>1648.68689</ele>
        <time>2013-02-09T11:59:57Z</time>
      </trkpt>
      <trkpt lat="42.99486" lon="-0.01425">
        <ele>1648.717529</ele>
        <time>2013-02-09T11:59:58Z</time>
      </trkpt>
      <trkpt lat="42.99486" lon="-0.01425">
        <ele>1648.706787</ele>
        <time>2013-02-09T12:00:00Z</time>
      </trkpt>
      <trkpt lat="42.99487" lon="-0.01426">
        <ele>1648.674683</ele>
        <time>2013-02-09T12:00:01Z</time>
      </trkpt>
      <trkpt lat="42.99488" lon="-0.01426">
        <ele>1648.606812</ele>
        <time>2013-02-09T12:00:03Z</time>
      </trkpt>
      <trkpt lat="42.99488" lon="-0.01426">
        <ele>1648.573608</ele>
        <time>2013-02-09T12:00:05Z</time>
      </trkpt>
      <trkpt lat="42.99489" lon="-0.01424">
        <ele>1649.028931</ele>
        <time>2013-02-09T12:00:09Z</time>
      </trkpt>
      <trkpt lat="42.99485" lon="-0.01424">
        <ele>1648.864624</ele>
        <time>2013-02-09T12:00:22Z</time>
      </trkpt>
      <trkpt lat="42.99487" lon="-0.01427">
        <ele>1648.458374</ele>
        <time>2013-02-09T12:00:46Z</time>
      </trkpt>
      <trkpt lat="42.99486" lon="-0.01427">
        <ele>1648.472168</ele>
        <time>2013-02-09T12:01:09Z</time>
      </trkpt>
      <trkpt lat="42.99485" lon="-0.01428">
        <ele>1648.209473</ele>
        <time>2013-02-09T12:01:11Z</time>
      </trkpt>
      <trkpt lat="42.99484" lon="-0.01429">
        <ele>1648.019775</ele>
        <time>2013-02-09T12:01:12Z</time>
      </trkpt>
      <trkpt lat="42.99483" lon="-0.01431">
        <ele>1647.72168</ele>
        <time>2013-02-09T12:01:13Z</time>
      </trkpt>
      <trkpt lat="42.99481" lon="-0.01433">
        <ele>1647.289551</ele>
        <time>2013-02-09T12:01:14Z</time>
      </trkpt>
      <trkpt lat="42.9948" lon="-0.01436">
        <ele>1646.894409</ele>
        <time>2013-02-09T12:01:15Z</time>
      </trkpt>
      <trkpt lat="42.99478" lon="-0.01439">
        <ele>1646.41687</ele>
        <time>2013-02-09T12:01:16Z</time>
      </trkpt>
      <trkpt lat="42.99476" lon="-0.01442">
        <ele>1646.106567</ele>
        <time>2013-02-09T12:01:17Z</time>
      </trkpt>
      <trkpt lat="42.9947" lon="-0.01451">
        <ele>1645.519653</ele>
        <time>2013-02-09T12:01:20Z</time>
      </trkpt>
      <trkpt lat="42.9946" lon="-0.01479">
        <ele>1643.563354</ele>
        <time>2013-02-09T12:01:28Z</time>
      </trkpt>
      <trkpt lat="42.99459" lon="-0.01487">
        <ele>1642.923584</ele>
        <time>2013-02-09T12:01:30Z</time>
      </trkpt>
      <trkpt lat="42.99432" lon="-0.0153">
        <ele>1643.021118</ele>
        <time>2013-02-09T12:01:40Z</time>
      </trkpt>
      <trkpt lat="42.99428" lon="-0.01534">
        <ele>1643.107666</ele>
        <time>2013-02-09T12:01:41Z</time>
      </trkpt>
      <trkpt lat="42.99424" lon="-0.01538">
        <ele>1643.204102</ele>
        <time>2013-02-09T12:01:42Z</time>
      </trkpt>
      <trkpt lat="42.99412" lon="-0.0155">
        <ele>1643.34436</ele>
        <time>2013-02-09T12:01:45Z</time>
      </trkpt>
      <trkpt lat="42.99408" lon="-0.01554">
        <ele>1643.376465</ele>
        <time>2013-02-09T12:01:46Z</time>
      </trkpt>
      <trkpt lat="42.99405" lon="-0.01558">
        <ele>1643.399536</ele>
        <time>2013-02-09T12:01:47Z</time>
      </trkpt>
      <trkpt lat="42.99398" lon="-0.01565">
        <ele>1643.417847</ele>
        <time>2013-02-09T12:01:49Z</time>
      </trkpt>
      <trkpt lat="42.99395" lon="-0.01569">
        <ele>1643.419556</ele>
        <time>2013-02-09T12:01:50Z</time>
      </trkpt>
      <trkpt lat="42.99392" lon="-0.01573">
        <ele>1643.379272</ele>
        <time>2013-02-09T12:01:51Z</time>
      </trkpt>
      <trkpt lat="42.99385" lon="-0.01581">
        <ele>1643.328247</ele>
        <time>2013-02-09T12:01:53Z</time>
      </trkpt>
      <trkpt lat="42.99382" lon="-0.01585">
        <ele>1643.207886</ele>
        <time>2013-02-09T12:01:54Z</time>
      </trkpt>
      <trkpt lat="42.9937" lon="-0.01602">
        <ele>1641.704956</ele>
        <time>2013-02-09T12:01:58Z</time>
      </trkpt>
      <trkpt lat="42.99363" lon="-0.0161">
        <ele>1641.035156</ele>
        <time>2013-02-09T12:02:00Z</time>
      </trkpt>
      <trkpt lat="42.9936" lon="-0.01613">
        <ele>1640.72229</ele>
        <time>2013-02-09T12:02:01Z</time>
      </trkpt>
      <trkpt lat="42.99357" lon="-0.01617">
        <ele>1640.465088</ele>
        <time>2013-02-09T12:02:02Z</time>
      </trkpt>
      <trkpt lat="42.9932" lon="-0.01657">
        <ele>1639.261108</ele>
        <time>2013-02-09T12:02:12Z</time>
      </trkpt>
      <trkpt lat="42.99317" lon="-0.01661">
        <ele>1639.180176</ele>
        <time>2013-02-09T12:02:13Z</time>
      </trkpt>
      <trkpt lat="42.99296" lon="-0.01684">
        <ele>1638.08252</ele>
        <time>2013-02-09T12:02:20Z</time>
      </trkpt>
      <trkpt lat="42.99292" lon="-0.0169">
        <ele>1637.661499</ele>
        <time>2013-02-09T12:02:22Z</time>
      </trkpt>
      <trkpt lat="42.99286" lon="-0.01696">
        <ele>1638.008545</ele>
        <time>2013-02-09T12:02:24Z</time>
      </trkpt>
      <trkpt lat="42.99282" lon="-0.01704">
        <ele>1637.755127</ele>
        <time>2013-02-09T12:02:26Z</time>
      </trkpt>
      <trkpt lat="42.99279" lon="-0.01712">
        <ele>1636.943359</ele>
        <time>2013-02-09T12:02:28Z</time>
      </trkpt>
      <trkpt lat="42.99272" lon="-0.01726">
        <ele>1635.618652</ele>
        <time>2013-02-09T12:02:31Z</time>
      </trkpt>
      <trkpt lat="42.99258" lon="-0.01754">
        <ele>1631.616699</ele>
        <time>2013-02-09T12:02:37Z</time>
      </trkpt>
      <trkpt lat="42.99244" lon="-0.01781">
        <ele>1627.986694</ele>
        <time>2013-02-09T12:02:42Z</time>
      </trkpt>
      <trkpt lat="42.99241" lon="-0.01786">
        <ele>1627.055176</ele>
        <time>2013-02-09T12:02:43Z</time>
      </trkpt>
      <trkpt lat="42.99216" lon="-0.01828">
        <ele>1618.729004</ele>
        <time>2013-02-09T12:02:51Z</time>
      </trkpt>
      <trkpt lat="42.99207" lon="-0.01835">
        <ele>1617.901611</ele>
        <time>2013-02-09T12:02:56Z</time>
      </trkpt>
      <trkpt lat="42.99207" lon="-0.01834">
        <ele>1618.125122</ele>
        <time>2013-02-09T12:03:09Z</time>
      </trkpt>
      <trkpt lat="42.99206" lon="-0.01833">
        <ele>1618.293701</ele>
        <time>2013-02-09T12:03:18Z</time>
      </trkpt>
      <trkpt lat="42.99206" lon="-0.01833">
        <ele>1618.358276</ele>
        <time>2013-02-09T12:03:23Z</time>
      </trkpt>
      <trkpt lat="42.99206" lon="-0.01833">
        <ele>1618.349121</ele>
        <time>2013-02-09T12:03:24Z</time>
      </trkpt>
      <trkpt lat="42.99207" lon="-0.01834">
        <ele>1618.09436</ele>
        <time>2013-02-09T12:03:41Z</time>
      </trkpt>
      <trkpt lat="42.99207" lon="-0.01834">
        <ele>1618.091553</ele>
        <time>2013-02-09T12:03:42Z</time>
      </trkpt>
      <trkpt lat="42.99207" lon="-0.01834">
        <ele>1618.112183</ele>
        <time>2013-02-09T12:03:44Z</time>
      </trkpt>
      <trkpt lat="42.99206" lon="-0.01834">
        <ele>1618.189697</ele>
        <time>2013-02-09T12:03:49Z</time>
      </trkpt>
      <trkpt lat="42.99207" lon="-0.01834">
        <ele>1618.000366</ele>
        <time>2013-02-09T12:04:03Z</time>
      </trkpt>
      <trkpt lat="42.99207" lon="-0.01835">
        <ele>1617.971069</ele>
        <time>2013-02-09T12:04:04Z</time>
      </trkpt>
      <trkpt lat="42.99207" lon="-0.01835">
        <ele>1617.920044</ele>
        <time>2013-02-09T12:04:10Z</time>
      </trkpt>
      <trkpt lat="42.99208" lon="-0.01835">
        <ele>1617.86377</ele>
        <time>2013-02-09T12:04:11Z</time>
      </trkpt>
      <trkpt lat="42.99211" lon="-0.01838">
        <ele>1617.115601</ele>
        <time>2013-02-09T12:04:19Z</time>
      </trkpt>
      <trkpt lat="42.99209" lon="-0.01837">
        <ele>1617.349731</ele>
        <time>2013-02-09T12:04:21Z</time>
      </trkpt>
      <trkpt lat="42.99208" lon="-0.01837">
        <ele>1617.508911</ele>
        <time>2013-02-09T12:04:22Z</time>
      </trkpt>
      <trkpt lat="42.99207" lon="-0.01836">
        <ele>1617.651001</ele>
        <time>2013-02-09T12:04:33Z</time>
      </trkpt>
      <trkpt lat="42.99206" lon="-0.01838">
        <ele>1617.43042</ele>
        <time>2013-02-09T12:04:58Z</time>
      </trkpt>
      <trkpt lat="42.99198" lon="-0.01849">
        <ele>1615.618042</ele>
        <time>2013-02-09T12:05:06Z</time>
      </trkpt>
      <trkpt lat="42.99196" lon="-0.01849">
        <ele>1615.452271</ele>
        <time>2013-02-09T12:05:07Z</time>
      </trkpt>
      <trkpt lat="42.99194" lon="-0.01848">
        <ele>1615.656128</ele>
        <time>2013-02-09T12:05:08Z</time>
      </trkpt>
      <trkpt lat="42.99192" lon="-0.01847">
        <ele>1615.737549</ele>
        <time>2013-02-09T12:05:28Z</time>
      </trkpt>
      <trkpt lat="42.99192" lon="-0.01847">
        <ele>1615.831665</ele>
        <time>2013-02-09T12:05:52Z</time>
      </trkpt>
      <trkpt lat="42.99192" lon="-0.01847">
        <ele>1615.691772</ele>
        <time>2013-02-09T12:05:55Z</time>
      </trkpt>
      <trkpt lat="42.99192" lon="-0.0185">
        <ele>1615.171875</ele>
        <time>2013-02-09T12:05:58Z</time>
      </trkpt>
      <trkpt lat="42.99193" lon="-0.01861">
        <ele>1613.037109</ele>
        <time>2013-02-09T12:06:01Z</time>
      </trkpt>
      <trkpt lat="42.99193" lon="-0.01865">
        <ele>1612.187012</ele>
        <time>2013-02-09T12:06:02Z</time>
      </trkpt>
      <trkpt lat="42.9919" lon="-0.01869">
        <ele>1611.383057</ele>
        <time>2013-02-09T12:06:03Z</time>
      </trkpt>
      <trkpt lat="42.99181" lon="-0.01874">
        <ele>1609.948364</ele>
        <time>2013-02-09T12:06:05Z</time>
      </trkpt>
      <trkpt lat="42.99175" lon="-0.01881">
        <ele>1608.219604</ele>
        <time>2013-02-09T12:06:07Z</time>
      </trkpt>
      <trkpt lat="42.99168" lon="-0.01888">
        <ele>1606.279907</ele>
        <time>2013-02-09T12:06:09Z</time>
      </trkpt>
      <trkpt lat="42.99164" lon="-0.01892">
        <ele>1605.255737</ele>
        <time>2013-02-09T12:06:10Z</time>
      </trkpt>
      <trkpt lat="42.99161" lon="-0.01895">
        <ele>1604.26355</ele>
        <time>2013-02-09T12:06:11Z</time>
      </trkpt>
      <trkpt lat="42.99158" lon="-0.01899">
        <ele>1603.199341</ele>
        <time>2013-02-09T12:06:12Z</time>
      </trkpt>
      <trkpt lat="42.99158" lon="-0.01909">
        <ele>1600.998291</ele>
        <time>2013-02-09T12:06:14Z</time>
      </trkpt>
      <trkpt lat="42.99156" lon="-0.01927">
        <ele>1596.711304</ele>
        <time>2013-02-09T12:06:18Z</time>
      </trkpt>
      <trkpt lat="42.99157" lon="-0.01932">
        <ele>1595.581543</ele>
        <time>2013-02-09T12:06:19Z</time>
      </trkpt>
      <trkpt lat="42.99158" lon="-0.01938">
        <ele>1594.449951</ele>
        <time>2013-02-09T12:06:20Z</time>
      </trkpt>
      <trkpt lat="42.99164" lon="-0.01957">
        <ele>1589.904053</ele>
        <time>2013-02-09T12:06:23Z</time>
      </trkpt>
      <trkpt lat="42.99163" lon="-0.01967">
        <ele>1587.266235</ele>
        <time>2013-02-09T12:06:25Z</time>
      </trkpt>
      <trkpt lat="42.9916" lon="-0.01976">
        <ele>1584.640991</ele>
        <time>2013-02-09T12:06:27Z</time>
      </trkpt>
      <trkpt lat="42.99154" lon="-0.01998">
        <ele>1578.415894</ele>
        <time>2013-02-09T12:06:31Z</time>
      </trkpt>
      <trkpt lat="42.99151" lon="-0.02015">
        <ele>1573.671509</ele>
        <time>2013-02-09T12:06:34Z</time>
      </trkpt>
      <trkpt lat="42.99146" lon="-0.02037">
        <ele>1566.832642</ele>
        <time>2013-02-09T12:06:38Z</time>
      </trkpt>
      <trkpt lat="42.99145" lon="-0.02042">
        <ele>1565.299683</ele>
        <time>2013-02-09T12:06:39Z</time>
      </trkpt>
      <trkpt lat="42.9914" lon="-0.02049">
        <ele>1563.034668</ele>
        <time>2013-02-09T12:06:41Z</time>
      </trkpt>
      <trkpt lat="42.99134" lon="-0.0205">
        <ele>1562.557129</ele>
        <time>2013-02-09T12:06:47Z</time>
      </trkpt>
      <trkpt lat="42.99137" lon="-0.02049">
        <ele>1562.922485</ele>
        <time>2013-02-09T12:07:07Z</time>
      </trkpt>
      <trkpt lat="42.99136" lon="-0.02049">
        <ele>1562.744385</ele>
        <time>2013-02-09T12:07:21Z</time>
      </trkpt>
      <trkpt lat="42.99128" lon="-0.02055">
        <ele>1560.768433</ele>
        <time>2013-02-09T12:07:25Z</time>
      </trkpt>
      <trkpt lat="42.99123" lon="-0.02069">
        <ele>1556.745483</ele>
        <time>2013-02-09T12:07:28Z</time>
      </trkpt>
      <trkpt lat="42.99121" lon="-0.0208">
        <ele>1553.849976</ele>
        <time>2013-02-09T12:07:30Z</time>
      </trkpt>
      <trkpt lat="42.99115" lon="-0.02094">
        <ele>1549.603271</ele>
        <time>2013-02-09T12:07:33Z</time>
      </trkpt>
      <trkpt lat="42.99112" lon="-0.02098">
        <ele>1548.4104</ele>
        <time>2013-02-09T12:07:34Z</time>
      </trkpt>
      <trkpt lat="42.99103" lon="-0.02109">
        <ele>1545.012085</ele>
        <time>2013-02-09T12:07:37Z</time>
      </trkpt>
      <trkpt lat="42.9911" lon="-0.0212">
        <ele>1542.295898</ele>
        <time>2013-02-09T12:07:40Z</time>
      </trkpt>
      <trkpt lat="42.99114" lon="-0.02133">
        <ele>1538.874634</ele>
        <time>2013-02-09T12:07:43Z</time>
      </trkpt>
      <trkpt lat="42.99113" lon="-0.02146">
        <ele>1535.396729</ele>
        <time>2013-02-09T12:07:45Z</time>
      </trkpt>
      <trkpt lat="42.9911" lon="-0.0216">
        <ele>1531.702026</ele>
        <time>2013-02-09T12:07:47Z</time>
      </trkpt>
      <trkpt lat="42.99107" lon="-0.02162">
        <ele>1530.891602</ele>
        <time>2013-02-09T12:07:48Z</time>
      </trkpt>
      <trkpt lat="42.99103" lon="-0.02164">
        <ele>1530.571777</ele>
        <time>2013-02-09T12:07:49Z</time>
      </trkpt>
      <trkpt lat="42.99097" lon="-0.02165">
        <ele>1530.065063</ele>
        <time>2013-02-09T12:08:03Z</time>
      </trkpt>
      <trkpt lat="42.99088" lon="-0.02176">
        <ele>1526.834839</ele>
        <time>2013-02-09T12:08:08Z</time>
      </trkpt>
      <trkpt lat="42.99084" lon="-0.02184">
        <ele>1524.587646</ele>
        <time>2013-02-09T12:08:10Z</time>
      </trkpt>
      <trkpt lat="42.9908" lon="-0.022">
        <ele>1520.347046</ele>
        <time>2013-02-09T12:08:13Z</time>
      </trkpt>
      <trkpt lat="42.99079" lon="-0.02214">
        <ele>1516.59375</ele>
        <time>2013-02-09T12:08:16Z</time>
      </trkpt>
      <trkpt lat="42.99087" lon="-0.02223">
        <ele>1514.307129</ele>
        <time>2013-02-09T12:08:19Z</time>
      </trkpt>
      <trkpt lat="42.9909" lon="-0.02227">
        <ele>1513.291626</ele>
        <time>2013-02-09T12:08:20Z</time>
      </trkpt>
      <trkpt lat="42.99092" lon="-0.02231">
        <ele>1512.211914</ele>
        <time>2013-02-09T12:08:21Z</time>
      </trkpt>
      <trkpt lat="42.99098" lon="-0.02245">
        <ele>1508.288086</ele>
        <time>2013-02-09T12:08:24Z</time>
      </trkpt>
      <trkpt lat="42.99089" lon="-0.02259">
        <ele>1504.3396</ele>
        <time>2013-02-09T12:08:35Z</time>
      </trkpt>
      <trkpt lat="42.99089" lon="-0.0226">
        <ele>1503.939819</ele>
        <time>2013-02-09T12:08:42Z</time>
      </trkpt>
      <trkpt lat="42.99089" lon="-0.02267">
        <ele>1501.971802</ele>
        <time>2013-02-09T12:08:50Z</time>
      </trkpt>
      <trkpt lat="42.9909" lon="-0.02267">
        <ele>1501.920288</ele>
        <time>2013-02-09T12:09:17Z</time>
      </trkpt>
      <trkpt lat="42.99089" lon="-0.02268">
        <ele>1501.734253</ele>
        <time>2013-02-09T12:09:47Z</time>
      </trkpt>
      <trkpt lat="42.99089" lon="-0.02268">
        <ele>1501.716187</ele>
        <time>2013-02-09T12:10:07Z</time>
      </trkpt>
      <trkpt lat="42.9909" lon="-0.0227">
        <ele>1501.213867</ele>
        <time>2013-02-09T12:10:19Z</time>
      </trkpt>
      <trkpt lat="42.99096" lon="-0.02282">
        <ele>1497.434937</ele>
        <time>2013-02-09T12:10:24Z</time>
      </trkpt>
      <trkpt lat="42.99099" lon="-0.02286">
        <ele>1496.290649</ele>
        <time>2013-02-09T12:10:25Z</time>
      </trkpt>
      <trkpt lat="42.99101" lon="-0.0229">
        <ele>1494.827637</ele>
        <time>2013-02-09T12:10:26Z</time>
      </trkpt>
      <trkpt lat="42.99103" lon="-0.023">
        <ele>1491.638184</ele>
        <time>2013-02-09T12:10:28Z</time>
      </trkpt>
      <trkpt lat="42.99105" lon="-0.02305">
        <ele>1490.053711</ele>
        <time>2013-02-09T12:10:29Z</time>
      </trkpt>
      <trkpt lat="42.99107" lon="-0.02309">
        <ele>1488.56189</ele>
        <time>2013-02-09T12:10:30Z</time>
      </trkpt>
      <trkpt lat="42.99113" lon="-0.02318">
        <ele>1485.387085</ele>
        <time>2013-02-09T12:10:32Z</time>
      </trkpt>
      <trkpt lat="42.99116" lon="-0.02323">
        <ele>1483.72644</ele>
        <time>2013-02-09T12:10:33Z</time>
      </trkpt>
      <trkpt lat="42.99116" lon="-0.02327">
        <ele>1482.431274</ele>
        <time>2013-02-09T12:10:34Z</time>
      </trkpt>
      <trkpt lat="42.9911" lon="-0.02332">
        <ele>1481.729248</ele>
        <time>2013-02-09T12:10:35Z</time>
      </trkpt>
      <trkpt lat="42.99105" lon="-0.02336">
        <ele>1481.088501</ele>
        <time>2013-02-09T12:10:36Z</time>
      </trkpt>
      <trkpt lat="42.99103" lon="-0.02339">
        <ele>1480.503052</ele>
        <time>2013-02-09T12:10:37Z</time>
      </trkpt>
      <trkpt lat="42.99101" lon="-0.02343">
        <ele>1479.609863</ele>
        <time>2013-02-09T12:10:38Z</time>
      </trkpt>
      <trkpt lat="42.99101" lon="-0.02347">
        <ele>1478.352783</ele>
        <time>2013-02-09T12:10:39Z</time>
      </trkpt>
      <trkpt lat="42.99102" lon="-0.02352">
        <ele>1476.953613</ele>
        <time>2013-02-09T12:10:40Z</time>
      </trkpt>
      <trkpt lat="42.99106" lon="-0.02362">
        <ele>1473.68335</ele>
        <time>2013-02-09T12:10:42Z</time>
      </trkpt>
      <trkpt lat="42.99108" lon="-0.02367">
        <ele>1471.859253</ele>
        <time>2013-02-09T12:10:43Z</time>
      </trkpt>
      <trkpt lat="42.99113" lon="-0.02384">
        <ele>1466.526733</ele>
        <time>2013-02-09T12:10:46Z</time>
      </trkpt>
      <trkpt lat="42.99107" lon="-0.02391">
        <ele>1465.762939</ele>
        <time>2013-02-09T12:10:52Z</time>
      </trkpt>
      <trkpt lat="42.99106" lon="-0.0239">
        <ele>1466.306152</ele>
        <time>2013-02-09T12:11:11Z</time>
      </trkpt>
      <trkpt lat="42.99105" lon="-0.02391">
        <ele>1466.151123</ele>
        <time>2013-02-09T12:11:28Z</time>
      </trkpt>
      <trkpt lat="42.99105" lon="-0.0239">
        <ele>1466.171265</ele>
        <time>2013-02-09T12:11:29Z</time>
      </trkpt>
      <trkpt lat="42.99107" lon="-0.02394">
        <ele>1465.189331</ele>
        <time>2013-02-09T12:11:48Z</time>
      </trkpt>
      <trkpt lat="42.99108" lon="-0.02393">
        <ele>1465.030151</ele>
        <time>2013-02-09T12:12:09Z</time>
      </trkpt>
      <trkpt lat="42.99107" lon="-0.02396">
        <ele>1464.466675</ele>
        <time>2013-02-09T12:12:28Z</time>
      </trkpt>
      <trkpt lat="42.99106" lon="-0.02405">
        <ele>1462.42395</ele>
        <time>2013-02-09T12:12:31Z</time>
      </trkpt>
      <trkpt lat="42.99106" lon="-0.02409">
        <ele>1461.315552</ele>
        <time>2013-02-09T12:12:32Z</time>
      </trkpt>
      <trkpt lat="42.99111" lon="-0.02422">
        <ele>1457.091309</ele>
        <time>2013-02-09T12:12:35Z</time>
      </trkpt>
      <trkpt lat="42.99114" lon="-0.02426">
        <ele>1455.480713</ele>
        <time>2013-02-09T12:12:36Z</time>
      </trkpt>
      <trkpt lat="42.99117" lon="-0.02431">
        <ele>1453.735107</ele>
        <time>2013-02-09T12:12:37Z</time>
      </trkpt>
      <trkpt lat="42.99118" lon="-0.02458">
        <ele>1447.987549</ele>
        <time>2013-02-09T12:12:42Z</time>
      </trkpt>
      <trkpt lat="42.99119" lon="-0.02473">
        <ele>1444.822632</ele>
        <time>2013-02-09T12:12:45Z</time>
      </trkpt>
      <trkpt lat="42.99121" lon="-0.02478">
        <ele>1443.413208</ele>
        <time>2013-02-09T12:12:46Z</time>
      </trkpt>
      <trkpt lat="42.99123" lon="-0.02484">
        <ele>1441.981812</ele>
        <time>2013-02-09T12:12:47Z</time>
      </trkpt>
      <trkpt lat="42.99126" lon="-0.02494">
        <ele>1439.157593</ele>
        <time>2013-02-09T12:12:49Z</time>
      </trkpt>
      <trkpt lat="42.99126" lon="-0.02515">
        <ele>1434.632324</ele>
        <time>2013-02-09T12:12:53Z</time>
      </trkpt>
      <trkpt lat="42.99126" lon="-0.0254">
        <ele>1429.329346</ele>
        <time>2013-02-09T12:12:59Z</time>
      </trkpt>
      <trkpt lat="42.99132" lon="-0.02548">
        <ele>1425.764648</ele>
        <time>2013-02-09T12:13:01Z</time>
      </trkpt>
      <trkpt lat="42.99134" lon="-0.02553">
        <ele>1424.216797</ele>
        <time>2013-02-09T12:13:02Z</time>
      </trkpt>
      <trkpt lat="42.99136" lon="-0.02564">
        <ele>1422.076172</ele>
        <time>2013-02-09T12:13:04Z</time>
      </trkpt>
      <trkpt lat="42.99134" lon="-0.02567">
        <ele>1422.229126</ele>
        <time>2013-02-09T12:13:10Z</time>
      </trkpt>
      <trkpt lat="42.99137" lon="-0.02566">
        <ele>1421.489014</ele>
        <time>2013-02-09T12:13:34Z</time>
      </trkpt>
      <trkpt lat="42.99138" lon="-0.02568">
        <ele>1420.994507</ele>
        <time>2013-02-09T12:13:42Z</time>
      </trkpt>
      <trkpt lat="42.99138" lon="-0.02578">
        <ele>1419.577148</ele>
        <time>2013-02-09T12:13:45Z</time>
      </trkpt>
      <trkpt lat="42.99135" lon="-0.02586">
        <ele>1419.184692</ele>
        <time>2013-02-09T12:13:47Z</time>
      </trkpt>
      <trkpt lat="42.99129" lon="-0.02607">
        <ele>1417.491089</ele>
        <time>2013-02-09T12:13:56Z</time>
      </trkpt>
      <trkpt lat="42.99129" lon="-0.02612">
        <ele>1416.820313</ele>
        <time>2013-02-09T12:13:57Z</time>
      </trkpt>
      <trkpt lat="42.99128" lon="-0.02618">
        <ele>1415.798706</ele>
        <time>2013-02-09T12:13:58Z</time>
      </trkpt>
      <trkpt lat="42.99124" lon="-0.02636">
        <ele>1413.161011</ele>
        <time>2013-02-09T12:14:01Z</time>
      </trkpt>
      <trkpt lat="42.99125" lon="-0.02641">
        <ele>1412.06665</ele>
        <time>2013-02-09T12:14:02Z</time>
      </trkpt>
      <trkpt lat="42.99127" lon="-0.02654">
        <ele>1409.177734</ele>
        <time>2013-02-09T12:14:04Z</time>
      </trkpt>
      <trkpt lat="42.9913" lon="-0.02669">
        <ele>1405.966797</ele>
        <time>2013-02-09T12:14:06Z</time>
      </trkpt>
      <trkpt lat="42.99129" lon="-0.02677">
        <ele>1404.563599</ele>
        <time>2013-02-09T12:14:07Z</time>
      </trkpt>
      <trkpt lat="42.99124" lon="-0.0269">
        <ele>1401.52478</ele>
        <time>2013-02-09T12:14:09Z</time>
      </trkpt>
      <trkpt lat="42.99116" lon="-0.02705">
        <ele>1398.515259</ele>
        <time>2013-02-09T12:14:12Z</time>
      </trkpt>
      <trkpt lat="42.99112" lon="-0.02709">
        <ele>1397.872681</ele>
        <time>2013-02-09T12:14:13Z</time>
      </trkpt>
      <trkpt lat="42.99107" lon="-0.02715">
        <ele>1396.917969</ele>
        <time>2013-02-09T12:14:15Z</time>
      </trkpt>
      <trkpt lat="42.99098" lon="-0.02728">
        <ele>1394.775635</ele>
        <time>2013-02-09T12:14:19Z</time>
      </trkpt>
      <trkpt lat="42.99073" lon="-0.02757">
        <ele>1388.841064</ele>
        <time>2013-02-09T12:14:29Z</time>
      </trkpt>
      <trkpt lat="42.9907" lon="-0.02761">
        <ele>1387.87439</ele>
        <time>2013-02-09T12:14:30Z</time>
      </trkpt>
      <trkpt lat="42.9906" lon="-0.02773">
        <ele>1385.389648</ele>
        <time>2013-02-09T12:14:33Z</time>
      </trkpt>
      <trkpt lat="42.99049" lon="-0.0278">
        <ele>1384.234009</ele>
        <time>2013-02-09T12:14:36Z</time>
      </trkpt>
      <trkpt lat="42.99043" lon="-0.02784">
        <ele>1383.786255</ele>
        <time>2013-02-09T12:14:38Z</time>
      </trkpt>
      <trkpt lat="42.99043" lon="-0.02796">
        <ele>1380.692261</ele>
        <time>2013-02-09T12:14:42Z</time>
      </trkpt>
      <trkpt lat="42.99044" lon="-0.02797">
        <ele>1380.316772</ele>
        <time>2013-02-09T12:14:43Z</time>
      </trkpt>
      <trkpt lat="42.99046" lon="-0.02797">
        <ele>1379.904297</ele>
        <time>2013-02-09T12:14:51Z</time>
      </trkpt>
      <trkpt lat="42.9905" lon="-0.02805">
        <ele>1377.362061</ele>
        <time>2013-02-09T12:15:01Z</time>
      </trkpt>
      <trkpt lat="42.99056" lon="-0.02814">
        <ele>1374.371338</ele>
        <time>2013-02-09T12:15:11Z</time>
      </trkpt>
      <trkpt lat="42.99061" lon="-0.02825">
        <ele>1370.277954</ele>
        <time>2013-02-09T12:15:14Z</time>
      </trkpt>
      <trkpt lat="42.99061" lon="-0.0283">
        <ele>1368.94397</ele>
        <time>2013-02-09T12:15:15Z</time>
      </trkpt>
      <trkpt lat="42.99062" lon="-0.02843">
        <ele>1364.76355</ele>
        <time>2013-02-09T12:15:18Z</time>
      </trkpt>
      <trkpt lat="42.9907" lon="-0.02848">
        <ele>1362.069702</ele>
        <time>2013-02-09T12:15:21Z</time>
      </trkpt>
      <trkpt lat="42.99073" lon="-0.02843">
        <ele>1362.93811</ele>
        <time>2013-02-09T12:15:31Z</time>
      </trkpt>
      <trkpt lat="42.99085" lon="-0.02856">
        <ele>1356.932007</ele>
        <time>2013-02-09T12:15:36Z</time>
      </trkpt>
      <trkpt lat="42.99097" lon="-0.02864">
        <ele>1351.262817</ele>
        <time>2013-02-09T12:15:39Z</time>
      </trkpt>
      <trkpt lat="42.991" lon="-0.02865">
        <ele>1349.88208</ele>
        <time>2013-02-09T12:15:40Z</time>
      </trkpt>
      <trkpt lat="42.99109" lon="-0.02868">
        <ele>1346.406128</ele>
        <time>2013-02-09T12:15:43Z</time>
      </trkpt>
      <trkpt lat="42.99116" lon="-0.02869">
        <ele>1344.388672</ele>
        <time>2013-02-09T12:15:45Z</time>
      </trkpt>
      <trkpt lat="42.9912" lon="-0.02868">
        <ele>1343.449707</ele>
        <time>2013-02-09T12:15:53Z</time>
      </trkpt>
      <trkpt lat="42.9912" lon="-0.02869">
        <ele>1343.410156</ele>
        <time>2013-02-09T12:16:11Z</time>
      </trkpt>
      <trkpt lat="42.99116" lon="-0.02871">
        <ele>1343.803467</ele>
        <time>2013-02-09T12:16:38Z</time>
      </trkpt>
      <trkpt lat="42.99117" lon="-0.02872">
        <ele>1343.190918</ele>
        <time>2013-02-09T12:16:42Z</time>
      </trkpt>
      <trkpt lat="42.99124" lon="-0.02875">
        <ele>1339.873779</ele>
        <time>2013-02-09T12:16:46Z</time>
      </trkpt>
      <trkpt lat="42.99132" lon="-0.02879">
        <ele>1336.397583</ele>
        <time>2013-02-09T12:16:48Z</time>
      </trkpt>
      <trkpt lat="42.99135" lon="-0.02882">
        <ele>1334.324585</ele>
        <time>2013-02-09T12:16:49Z</time>
      </trkpt>
      <trkpt lat="42.99145" lon="-0.02891">
        <ele>1327.991699</ele>
        <time>2013-02-09T12:16:52Z</time>
      </trkpt>
      <trkpt lat="42.99147" lon="-0.02894">
        <ele>1326.380249</ele>
        <time>2013-02-09T12:16:53Z</time>
      </trkpt>
      <trkpt lat="42.99151" lon="-0.02897">
        <ele>1324.015381</ele>
        <time>2013-02-09T12:16:54Z</time>
      </trkpt>
      <trkpt lat="42.99157" lon="-0.02907">
        <ele>1318.628052</ele>
        <time>2013-02-09T12:16:56Z</time>
      </trkpt>
      <trkpt lat="42.99163" lon="-0.02918">
        <ele>1313.109131</ele>
        <time>2013-02-09T12:16:58Z</time>
      </trkpt>
      <trkpt lat="42.99169" lon="-0.02935">
        <ele>1305.81897</ele>
        <time>2013-02-09T12:17:01Z</time>
      </trkpt>
      <trkpt lat="42.99175" lon="-0.02949">
        <ele>1300.549927</ele>
        <time>2013-02-09T12:17:03Z</time>
      </trkpt>
      <trkpt lat="42.9918" lon="-0.02961">
        <ele>1295.598145</ele>
        <time>2013-02-09T12:17:05Z</time>
      </trkpt>
      <trkpt lat="42.99182" lon="-0.02967">
        <ele>1293.05896</ele>
        <time>2013-02-09T12:17:06Z</time>
      </trkpt>
      <trkpt lat="42.99188" lon="-0.02987">
        <ele>1285.821655</ele>
        <time>2013-02-09T12:17:09Z</time>
      </trkpt>
      <trkpt lat="42.99186" lon="-0.02993">
        <ele>1284.832275</ele>
        <time>2013-02-09T12:17:10Z</time>
      </trkpt>
      <trkpt lat="42.99184" lon="-0.02995">
        <ele>1284.845825</ele>
        <time>2013-02-09T12:17:16Z</time>
      </trkpt>
      <trkpt lat="42.99182" lon="-0.02992">
        <ele>1286.19165</ele>
        <time>2013-02-09T12:17:42Z</time>
      </trkpt>
      <trkpt lat="42.99184" lon="-0.02992">
        <ele>1285.814087</ele>
        <time>2013-02-09T12:18:08Z</time>
      </trkpt>
      <trkpt lat="42.99185" lon="-0.02991">
        <ele>1285.677368</ele>
        <time>2013-02-09T12:18:34Z</time>
      </trkpt>
      <trkpt lat="42.99185" lon="-0.02992">
        <ele>1285.366699</ele>
        <time>2013-02-09T12:18:59Z</time>
      </trkpt>
      <trkpt lat="42.9919" lon="-0.02999">
        <ele>1281.964233</ele>
        <time>2013-02-09T12:19:02Z</time>
      </trkpt>
      <trkpt lat="42.99193" lon="-0.03005">
        <ele>1279.777222</ele>
        <time>2013-02-09T12:19:03Z</time>
      </trkpt>
      <trkpt lat="42.99204" lon="-0.03029">
        <ele>1270.598145</ele>
        <time>2013-02-09T12:19:07Z</time>
      </trkpt>
      <trkpt lat="42.99213" lon="-0.03045">
        <ele>1264.441528</ele>
        <time>2013-02-09T12:19:10Z</time>
      </trkpt>
      <trkpt lat="42.99221" lon="-0.03056">
        <ele>1259.4375</ele>
        <time>2013-02-09T12:19:12Z</time>
      </trkpt>
      <trkpt lat="42.99215" lon="-0.03086">
        <ele>1253.697021</ele>
        <time>2013-02-09T12:19:19Z</time>
      </trkpt>
      <trkpt lat="42.9921" lon="-0.03086">
        <ele>1254.574219</ele>
        <time>2013-02-09T12:19:32Z</time>
      </trkpt>
      <trkpt lat="42.9921" lon="-0.03085">
        <ele>1255.000366</ele>
        <time>2013-02-09T12:20:00Z</time>
      </trkpt>
      <trkpt lat="42.99211" lon="-0.03083">
        <ele>1255.246338</ele>
        <time>2013-02-09T12:20:24Z</time>
      </trkpt>
      <trkpt lat="42.99211" lon="-0.03083">
        <ele>1255.1521</ele>
        <time>2013-02-09T12:20:29Z</time>
      </trkpt>
      <trkpt lat="42.99212" lon="-0.03092">
        <ele>1252.735718</ele>
        <time>2013-02-09T12:20:32Z</time>
      </trkpt>
      <trkpt lat="42.99214" lon="-0.03097">
        <ele>1251.226807</ele>
        <time>2013-02-09T12:20:33Z</time>
      </trkpt>
      <trkpt lat="42.99225" lon="-0.03119">
        <ele>1243.698975</ele>
        <time>2013-02-09T12:20:37Z</time>
      </trkpt>
      <trkpt lat="42.99236" lon="-0.03137">
        <ele>1238.427979</ele>
        <time>2013-02-09T12:20:40Z</time>
      </trkpt>
      <trkpt lat="42.99243" lon="-0.03149">
        <ele>1235.224976</ele>
        <time>2013-02-09T12:20:42Z</time>
      </trkpt>
      <trkpt lat="42.99246" lon="-0.03156">
        <ele>1233.741577</ele>
        <time>2013-02-09T12:20:43Z</time>
      </trkpt>
      <trkpt lat="42.9925" lon="-0.03162">
        <ele>1232.372559</ele>
        <time>2013-02-09T12:20:44Z</time>
      </trkpt>
      <trkpt lat="42.99264" lon="-0.03178">
        <ele>1228.385132</ele>
        <time>2013-02-09T12:20:47Z</time>
      </trkpt>
      <trkpt lat="42.99276" lon="-0.03188">
        <ele>1225.765015</ele>
        <time>2013-02-09T12:20:49Z</time>
      </trkpt>
      <trkpt lat="42.9929" lon="-0.03198">
        <ele>1223.04126</ele>
        <time>2013-02-09T12:20:51Z</time>
      </trkpt>
      <trkpt lat="42.99307" lon="-0.03227">
        <ele>1218.323608</ele>
        <time>2013-02-09T12:20:55Z</time>
      </trkpt>
      <trkpt lat="42.99309" lon="-0.03235">
        <ele>1217.228882</ele>
        <time>2013-02-09T12:20:56Z</time>
      </trkpt>
      <trkpt lat="42.99311" lon="-0.03244">
        <ele>1215.736938</ele>
        <time>2013-02-09T12:20:57Z</time>
      </trkpt>
      <trkpt lat="42.99315" lon="-0.03258">
        <ele>1213.052246</ele>
        <time>2013-02-09T12:20:59Z</time>
      </trkpt>
      <trkpt lat="42.99319" lon="-0.0327">
        <ele>1210.775269</ele>
        <time>2013-02-09T12:21:01Z</time>
      </trkpt>
      <trkpt lat="42.9932" lon="-0.03276">
        <ele>1209.658936</ele>
        <time>2013-02-09T12:21:02Z</time>
      </trkpt>
      <trkpt lat="42.99328" lon="-0.03298">
        <ele>1205.227783</ele>
        <time>2013-02-09T12:21:06Z</time>
      </trkpt>
      <trkpt lat="42.99336" lon="-0.03317">
        <ele>1201.254639</ele>
        <time>2013-02-09T12:21:09Z</time>
      </trkpt>
      <trkpt lat="42.99339" lon="-0.03324">
        <ele>1199.724976</ele>
        <time>2013-02-09T12:21:10Z</time>
      </trkpt>
      <trkpt lat="42.99344" lon="-0.03339">
        <ele>1196.491943</ele>
        <time>2013-02-09T12:21:12Z</time>
      </trkpt>
      <trkpt lat="42.99346" lon="-0.03345">
        <ele>1195.280884</ele>
        <time>2013-02-09T12:21:13Z</time>
      </trkpt>
      <trkpt lat="42.99348" lon="-0.03349">
        <ele>1194.446655</ele>
        <time>2013-02-09T12:21:14Z</time>
      </trkpt>
      <trkpt lat="42.99352" lon="-0.03352">
        <ele>1193.803223</ele>
        <time>2013-02-09T12:21:16Z</time>
      </trkpt>
      <trkpt lat="42.9935" lon="-0.03355">
        <ele>1193.306152</ele>
        <time>2013-02-09T12:21:28Z</time>
      </trkpt>
      <trkpt lat="42.99347" lon="-0.03354">
        <ele>1193.513794</ele>
        <time>2013-02-09T12:21:58Z</time>
      </trkpt>
      <trkpt lat="42.99349" lon="-0.03353">
        <ele>1193.666992</ele>
        <time>2013-02-09T12:22:29Z</time>
      </trkpt>
      <trkpt lat="42.99347" lon="-0.0335">
        <ele>1194.246826</ele>
        <time>2013-02-09T12:22:58Z</time>
      </trkpt>
      <trkpt lat="42.99347" lon="-0.0335">
        <ele>1194.321411</ele>
        <time>2013-02-09T12:23:25Z</time>
      </trkpt>
      <trkpt lat="42.99347" lon="-0.03353">
        <ele>1193.786255</ele>
        <time>2013-02-09T12:23:54Z</time>
      </trkpt>
      <trkpt lat="42.99347" lon="-0.03353">
        <ele>1193.855713</ele>
        <time>2013-02-09T12:24:20Z</time>
      </trkpt>
      <trkpt lat="42.99346" lon="-0.03353">
        <ele>1193.775391</ele>
        <time>2013-02-09T12:24:24Z</time>
      </trkpt>
      <trkpt lat="42.99338" lon="-0.03366">
        <ele>1192.212769</ele>
        <time>2013-02-09T12:24:30Z</time>
      </trkpt>
      <trkpt lat="42.99336" lon="-0.03382">
        <ele>1189.395386</ele>
        <time>2013-02-09T12:24:33Z</time>
      </trkpt>
      <trkpt lat="42.99338" lon="-0.03387">
        <ele>1188.323975</ele>
        <time>2013-02-09T12:24:34Z</time>
      </trkpt>
      <trkpt lat="42.99345" lon="-0.03404">
        <ele>1184.653931</ele>
        <time>2013-02-09T12:24:37Z</time>
      </trkpt>
      <trkpt lat="42.99347" lon="-0.03408">
        <ele>1183.693237</ele>
        <time>2013-02-09T12:24:38Z</time>
      </trkpt>
      <trkpt lat="42.99354" lon="-0.03405">
        <ele>1183.509521</ele>
        <time>2013-02-09T12:24:51Z</time>
      </trkpt>
      <trkpt lat="42.99358" lon="-0.03404">
        <ele>1183.243774</ele>
        <time>2013-02-09T12:24:58Z</time>
      </trkpt>
      <trkpt lat="42.99356" lon="-0.03402">
        <ele>1183.76416</ele>
        <time>2013-02-09T12:25:23Z</time>
      </trkpt>
      <trkpt lat="42.99365" lon="-0.03407">
        <ele>1181.745239</ele>
        <time>2013-02-09T12:25:44Z</time>
      </trkpt>
      <trkpt lat="42.99367" lon="-0.03409">
        <ele>1181.203491</ele>
        <time>2013-02-09T12:25:46Z</time>
      </trkpt>
      <trkpt lat="42.99381" lon="-0.03427">
        <ele>1175.756714</ele>
        <time>2013-02-09T12:26:02Z</time>
      </trkpt>
      <trkpt lat="42.99385" lon="-0.03442">
        <ele>1172.25769</ele>
        <time>2013-02-09T12:26:13Z</time>
      </trkpt>
      <trkpt lat="42.99386" lon="-0.03457">
        <ele>1169.084229</ele>
        <time>2013-02-09T12:26:28Z</time>
      </trkpt>
      <trkpt lat="42.99385" lon="-0.03465">
        <ele>1167.893921</ele>
        <time>2013-02-09T12:26:34Z</time>
      </trkpt>
      <trkpt lat="42.9938" lon="-0.03476">
        <ele>1166.417969</ele>
        <time>2013-02-09T12:26:39Z</time>
      </trkpt>
      <trkpt lat="42.99378" lon="-0.03478">
        <ele>1166.225464</ele>
        <time>2013-02-09T12:26:40Z</time>
      </trkpt>
      <trkpt lat="42.99375" lon="-0.03484">
        <ele>1165.708862</ele>
        <time>2013-02-09T12:26:42Z</time>
      </trkpt>
      <trkpt lat="42.99363" lon="-0.035">
        <ele>1164.651733</ele>
        <time>2013-02-09T12:26:50Z</time>
      </trkpt>
      <trkpt lat="42.99361" lon="-0.03502">
        <ele>1164.588867</ele>
        <time>2013-02-09T12:26:51Z</time>
      </trkpt>
      <trkpt lat="42.9935" lon="-0.03515">
        <ele>1164.405884</ele>
        <time>2013-02-09T12:26:55Z</time>
      </trkpt>
      <trkpt lat="42.99334" lon="-0.03539">
        <ele>1163.581543</ele>
        <time>2013-02-09T12:27:01Z</time>
      </trkpt>
      <trkpt lat="42.99328" lon="-0.03548">
        <ele>1162.407104</ele>
        <time>2013-02-09T12:27:04Z</time>
      </trkpt>
      <trkpt lat="42.99321" lon="-0.03561">
        <ele>1160.797974</ele>
        <time>2013-02-09T12:27:10Z</time>
      </trkpt>
      <trkpt lat="42.9932" lon="-0.03563">
        <ele>1160.606689</ele>
        <time>2013-02-09T12:27:11Z</time>
      </trkpt>
      <trkpt lat="42.99318" lon="-0.03564">
        <ele>1160.511475</ele>
        <time>2013-02-09T12:27:12Z</time>
      </trkpt>
      <trkpt lat="42.99315" lon="-0.03567">
        <ele>1160.567017</ele>
        <time>2013-02-09T12:27:13Z</time>
      </trkpt>
      <trkpt lat="42.9931" lon="-0.03573">
        <ele>1160.161743</ele>
        <time>2013-02-09T12:27:15Z</time>
      </trkpt>
      <trkpt lat="42.99295" lon="-0.036">
        <ele>1158.068237</ele>
        <time>2013-02-09T12:27:24Z</time>
      </trkpt>
      <trkpt lat="42.99287" lon="-0.03611">
        <ele>1155.272095</ele>
        <time>2013-02-09T12:27:29Z</time>
      </trkpt>
      <trkpt lat="42.99268" lon="-0.03631">
        <ele>1151.50293</ele>
        <time>2013-02-09T12:27:43Z</time>
      </trkpt>
      <trkpt lat="42.9926" lon="-0.03639">
        <ele>1150.413696</ele>
        <time>2013-02-09T12:27:51Z</time>
      </trkpt>
      <trkpt lat="42.99258" lon="-0.03641">
        <ele>1150.062012</ele>
        <time>2013-02-09T12:27:52Z</time>
      </trkpt>
      <trkpt lat="42.99247" lon="-0.03653">
        <ele>1148.446411</ele>
        <time>2013-02-09T12:27:57Z</time>
      </trkpt>
      <trkpt lat="42.99245" lon="-0.03655">
        <ele>1148.248901</ele>
        <time>2013-02-09T12:27:58Z</time>
      </trkpt>
      <trkpt lat="42.99235" lon="-0.03669">
        <ele>1144.151367</ele>
        <time>2013-02-09T12:28:04Z</time>
      </trkpt>
      <trkpt lat="42.99226" lon="-0.03682">
        <ele>1140.277588</ele>
        <time>2013-02-09T12:28:10Z</time>
      </trkpt>
      <trkpt lat="42.9922" lon="-0.03689">
        <ele>1138.295288</ele>
        <time>2013-02-09T12:28:13Z</time>
      </trkpt>
      <trkpt lat="42.9921" lon="-0.03702">
        <ele>1135.324219</ele>
        <time>2013-02-09T12:28:18Z</time>
      </trkpt>
      <trkpt lat="42.99201" lon="-0.0371">
        <ele>1133.748657</ele>
        <time>2013-02-09T12:28:22Z</time>
      </trkpt>
      <trkpt lat="42.99185" lon="-0.03725">
        <ele>1130.50647</ele>
        <time>2013-02-09T12:28:29Z</time>
      </trkpt>
      <trkpt lat="42.9917" lon="-0.03737">
        <ele>1127.533813</ele>
        <time>2013-02-09T12:28:36Z</time>
      </trkpt>
      <trkpt lat="42.99149" lon="-0.03753">
        <ele>1123.007935</ele>
        <time>2013-02-09T12:28:44Z</time>
      </trkpt>
      <trkpt lat="42.99139" lon="-0.03759">
        <ele>1120.675781</ele>
        <time>2013-02-09T12:28:55Z</time>
      </trkpt>
      <trkpt lat="42.99136" lon="-0.03761">
        <ele>1120.121582</ele>
        <time>2013-02-09T12:29:03Z</time>
      </trkpt>
      <trkpt lat="42.99135" lon="-0.03761">
        <ele>1120.116699</ele>
        <time>2013-02-09T12:29:04Z</time>
      </trkpt>
      <trkpt lat="42.99135" lon="-0.03761">
        <ele>1119.910278</ele>
        <time>2013-02-09T12:29:05Z</time>
      </trkpt>
      <trkpt lat="42.99134" lon="-0.03762">
        <ele>1119.589722</ele>
        <time>2013-02-09T12:29:06Z</time>
      </trkpt>
      <trkpt lat="42.99128" lon="-0.03764">
        <ele>1118.855835</ele>
        <time>2013-02-09T12:29:10Z</time>
      </trkpt>
      <trkpt lat="42.99124" lon="-0.03767">
        <ele>1117.806396</ele>
        <time>2013-02-09T12:29:12Z</time>
      </trkpt>
      <trkpt lat="42.99119" lon="-0.03769">
        <ele>1116.860718</ele>
        <time>2013-02-09T12:29:15Z</time>
      </trkpt>
      <trkpt lat="42.99114" lon="-0.0377">
        <ele>1116.800659</ele>
        <time>2013-02-09T12:29:20Z</time>
      </trkpt>
      <trkpt lat="42.99113" lon="-0.0377">
        <ele>1116.731079</ele>
        <time>2013-02-09T12:29:21Z</time>
      </trkpt>
      <trkpt lat="42.99111" lon="-0.03771">
        <ele>1116.320068</ele>
        <time>2013-02-09T12:29:22Z</time>
      </trkpt>
      <trkpt lat="42.99094" lon="-0.03784">
        <ele>1110.893066</ele>
        <time>2013-02-09T12:29:28Z</time>
      </trkpt>
      <trkpt lat="42.99084" lon="-0.03788">
        <ele>1108.964966</ele>
        <time>2013-02-09T12:29:31Z</time>
      </trkpt>
      <trkpt lat="42.99078" lon="-0.03791">
        <ele>1108.0354</ele>
        <time>2013-02-09T12:29:41Z</time>
      </trkpt>
      <trkpt lat="42.99076" lon="-0.03791">
        <ele>1108.029785</ele>
        <time>2013-02-09T12:29:42Z</time>
      </trkpt>
      <trkpt lat="42.99074" lon="-0.0379">
        <ele>1108.112061</ele>
        <time>2013-02-09T12:29:43Z</time>
      </trkpt>
      <trkpt lat="42.99073" lon="-0.03789">
        <ele>1108.244385</ele>
        <time>2013-02-09T12:29:44Z</time>
      </trkpt>
      <trkpt lat="42.99067" lon="-0.0379">
        <ele>1107.971924</ele>
        <time>2013-02-09T12:30:01Z</time>
      </trkpt>
      <trkpt lat="42.99064" lon="-0.03792">
        <ele>1107.004639</ele>
        <time>2013-02-09T12:30:20Z</time>
      </trkpt>
      <trkpt lat="42.99066" lon="-0.03794">
        <ele>1106.769897</ele>
        <time>2013-02-09T12:30:40Z</time>
      </trkpt>
      <trkpt lat="42.99065" lon="-0.03799">
        <ele>1105.295166</ele>
        <time>2013-02-09T12:30:42Z</time>
      </trkpt>
      <trkpt lat="42.99063" lon="-0.038">
        <ele>1104.709595</ele>
        <time>2013-02-09T12:30:43Z</time>
      </trkpt>
      <trkpt lat="42.99061" lon="-0.038">
        <ele>1104.502563</ele>
        <time>2013-02-09T12:30:44Z</time>
      </trkpt>
      <trkpt lat="42.99053" lon="-0.03806">
        <ele>1102.051514</ele>
        <time>2013-02-09T12:30:50Z</time>
      </trkpt>
      <trkpt lat="42.99049" lon="-0.03817">
        <ele>1098.788452</ele>
        <time>2013-02-09T12:30:59Z</time>
      </trkpt>
      <trkpt lat="42.99053" lon="-0.03814">
        <ele>1099.845337</ele>
        <time>2013-02-09T12:31:17Z</time>
      </trkpt>
      <trkpt lat="42.99053" lon="-0.03812">
        <ele>1100.484131</ele>
        <time>2013-02-09T12:31:35Z</time>
      </trkpt>
      <trkpt lat="42.99053" lon="-0.03812">
        <ele>1100.405518</ele>
        <time>2013-02-09T12:31:36Z</time>
      </trkpt>
      <trkpt lat="42.99054" lon="-0.03813">
        <ele>1100.345337</ele>
        <time>2013-02-09T12:31:39Z</time>
      </trkpt>
      <trkpt lat="42.99053" lon="-0.03813">
        <ele>1100.328247</ele>
        <time>2013-02-09T12:31:40Z</time>
      </trkpt>
      <trkpt lat="42.99053" lon="-0.03813">
        <ele>1100.365845</ele>
        <time>2013-02-09T12:31:44Z</time>
      </trkpt>
      <trkpt lat="42.99052" lon="-0.03815">
        <ele>1099.588623</ele>
        <time>2013-02-09T12:32:03Z</time>
      </trkpt>
      <trkpt lat="42.9905" lon="-0.03816">
        <ele>1098.995239</ele>
        <time>2013-02-09T12:32:22Z</time>
      </trkpt>
      <trkpt lat="42.99048" lon="-0.03816">
        <ele>1098.860107</ele>
        <time>2013-02-09T12:32:44Z</time>
      </trkpt>
      <trkpt lat="42.99044" lon="-0.03813">
        <ele>1099.386475</ele>
        <time>2013-02-09T12:33:00Z</time>
      </trkpt>
      <trkpt lat="42.99043" lon="-0.03811">
        <ele>1099.753906</ele>
        <time>2013-02-09T12:33:25Z</time>
      </trkpt>
      <trkpt lat="42.99042" lon="-0.03805">
        <ele>1101.352173</ele>
        <time>2013-02-09T12:33:29Z</time>
      </trkpt>
      <trkpt lat="42.99036" lon="-0.03805">
        <ele>1100.69812</ele>
        <time>2013-02-09T12:33:45Z</time>
      </trkpt>
      <trkpt lat="42.99035" lon="-0.03806">
        <ele>1100.245728</ele>
        <time>2013-02-09T12:33:50Z</time>
      </trkpt>
      <trkpt lat="42.99036" lon="-0.03816">
        <ele>1097.623535</ele>
        <time>2013-02-09T12:33:54Z</time>
      </trkpt>
      <trkpt lat="42.99037" lon="-0.03821">
        <ele>1096.505981</ele>
        <time>2013-02-09T12:33:55Z</time>
      </trkpt>
      <trkpt lat="42.99038" lon="-0.03826">
        <ele>1095.157593</ele>
        <time>2013-02-09T12:33:56Z</time>
      </trkpt>
      <trkpt lat="42.99041" lon="-0.03831">
        <ele>1093.885498</ele>
        <time>2013-02-09T12:33:57Z</time>
      </trkpt>
      <trkpt lat="42.99043" lon="-0.03835">
        <ele>1093.121582</ele>
        <time>2013-02-09T12:33:58Z</time>
      </trkpt>
      <trkpt lat="42.99045" lon="-0.03837">
        <ele>1093.011841</ele>
        <time>2013-02-09T12:33:59Z</time>
      </trkpt>
      <trkpt lat="42.99047" lon="-0.03838">
        <ele>1092.976074</ele>
        <time>2013-02-09T12:34:00Z</time>
      </trkpt>
      <trkpt lat="42.99072" lon="-0.03848">
        <ele>1091.799072</ele>
        <time>2013-02-09T12:34:13Z</time>
      </trkpt>
      <trkpt lat="42.99088" lon="-0.03849">
        <ele>1090.924561</ele>
        <time>2013-02-09T12:34:22Z</time>
      </trkpt>
      <trkpt lat="42.99089" lon="-0.03849">
        <ele>1090.922363</ele>
        <time>2013-02-09T12:34:25Z</time>
      </trkpt>
      <trkpt lat="42.99081" lon="-0.03856">
        <ele>1089.338135</ele>
        <time>2013-02-09T12:34:39Z</time>
      </trkpt>
      <trkpt lat="42.9908" lon="-0.03857">
        <ele>1089.205811</ele>
        <time>2013-02-09T12:34:40Z</time>
      </trkpt>
      <trkpt lat="42.99078" lon="-0.03858">
        <ele>1088.980103</ele>
        <time>2013-02-09T12:34:41Z</time>
      </trkpt>
      <trkpt lat="42.99076" lon="-0.0386">
        <ele>1088.636353</ele>
        <time>2013-02-09T12:34:42Z</time>
      </trkpt>
      <trkpt lat="42.99074" lon="-0.03862">
        <ele>1088.231934</ele>
        <time>2013-02-09T12:34:43Z</time>
      </trkpt>
      <trkpt lat="42.99062" lon="-0.03871">
        <ele>1086.425049</ele>
        <time>2013-02-09T12:34:47Z</time>
      </trkpt>
      <trkpt lat="42.99058" lon="-0.03874">
        <ele>1085.798096</ele>
        <time>2013-02-09T12:34:48Z</time>
      </trkpt>
      <trkpt lat="42.99044" lon="-0.03885">
        <ele>1083.561279</ele>
        <time>2013-02-09T12:34:57Z</time>
      </trkpt>
      <trkpt lat="42.99045" lon="-0.03885">
        <ele>1083.459717</ele>
        <time>2013-02-09T12:35:00Z</time>
      </trkpt>
      <trkpt lat="42.99053" lon="-0.03893">
        <ele>1081.58252</ele>
        <time>2013-02-09T12:35:04Z</time>
      </trkpt>
      <trkpt lat="42.99061" lon="-0.03896">
        <ele>1080.444214</ele>
        <time>2013-02-09T12:35:16Z</time>
      </trkpt>
      <trkpt lat="42.99062" lon="-0.03896">
        <ele>1080.384155</ele>
        <time>2013-02-09T12:35:17Z</time>
      </trkpt>
      <trkpt lat="42.99065" lon="-0.03897">
        <ele>1079.966187</ele>
        <time>2013-02-09T12:35:33Z</time>
      </trkpt>
      <trkpt lat="42.99064" lon="-0.03903">
        <ele>1078.887451</ele>
        <time>2013-02-09T12:36:04Z</time>
      </trkpt>
      <trkpt lat="42.99067" lon="-0.0392">
        <ele>1075.314819</ele>
        <time>2013-02-09T12:36:09Z</time>
      </trkpt>
      <trkpt lat="42.99069" lon="-0.03926">
        <ele>1073.998047</ele>
        <time>2013-02-09T12:36:10Z</time>
      </trkpt>
      <trkpt lat="42.99068" lon="-0.03935">
        <ele>1072.202881</ele>
        <time>2013-02-09T12:36:16Z</time>
      </trkpt>
      <trkpt lat="42.99066" lon="-0.03933">
        <ele>1072.856323</ele>
        <time>2013-02-09T12:36:32Z</time>
      </trkpt>
      <trkpt lat="42.99066" lon="-0.03933">
        <ele>1072.887451</ele>
        <time>2013-02-09T12:36:33Z</time>
      </trkpt>
      <trkpt lat="42.99065" lon="-0.03933">
        <ele>1072.88147</ele>
        <time>2013-02-09T12:36:34Z</time>
      </trkpt>
      <trkpt lat="42.99064" lon="-0.03933">
        <ele>1072.829834</ele>
        <time>2013-02-09T12:36:37Z</time>
      </trkpt>
      <trkpt lat="42.99064" lon="-0.03933">
        <ele>1072.850586</ele>
        <time>2013-02-09T12:36:38Z</time>
      </trkpt>
      <trkpt lat="42.99064" lon="-0.03933">
        <ele>1072.88208</ele>
        <time>2013-02-09T12:36:48Z</time>
      </trkpt>
      <trkpt lat="42.99068" lon="-0.03932">
        <ele>1072.847168</ele>
        <time>2013-02-09T12:37:13Z</time>
      </trkpt>
      <trkpt lat="42.99068" lon="-0.03932">
        <ele>1072.956299</ele>
        <time>2013-02-09T12:37:16Z</time>
      </trkpt>
      <trkpt lat="42.99072" lon="-0.0394">
        <ele>1071.030762</ele>
        <time>2013-02-09T12:37:21Z</time>
      </trkpt>
      <trkpt lat="42.99081" lon="-0.03948">
        <ele>1069.059814</ele>
        <time>2013-02-09T12:37:25Z</time>
      </trkpt>
      <trkpt lat="42.99085" lon="-0.03963">
        <ele>1065.853394</ele>
        <time>2013-02-09T12:37:28Z</time>
      </trkpt>
      <trkpt lat="42.99084" lon="-0.03978">
        <ele>1063.226074</ele>
        <time>2013-02-09T12:37:30Z</time>
      </trkpt>
      <trkpt lat="42.99083" lon="-0.04001">
        <ele>1059.090942</ele>
        <time>2013-02-09T12:37:33Z</time>
      </trkpt>
      <trkpt lat="42.99081" lon="-0.04023">
        <ele>1055.018311</ele>
        <time>2013-02-09T12:37:36Z</time>
      </trkpt>
      <trkpt lat="42.99076" lon="-0.04043">
        <ele>1051.026855</ele>
        <time>2013-02-09T12:37:39Z</time>
      </trkpt>
      <trkpt lat="42.99061" lon="-0.04062">
        <ele>1046.800171</ele>
        <time>2013-02-09T12:37:44Z</time>
      </trkpt>
      <trkpt lat="42.99059" lon="-0.04062">
        <ele>1046.540161</ele>
        <time>2013-02-09T12:37:45Z</time>
      </trkpt>
      <trkpt lat="42.99054" lon="-0.04064">
        <ele>1045.834717</ele>
        <time>2013-02-09T12:37:56Z</time>
      </trkpt>
      <trkpt lat="42.99049" lon="-0.04067">
        <ele>1044.546875</ele>
        <time>2013-02-09T12:38:20Z</time>
      </trkpt>
      <trkpt lat="42.99052" lon="-0.0408">
        <ele>1042.286743</ele>
        <time>2013-02-09T12:38:24Z</time>
      </trkpt>
      <trkpt lat="42.99042" lon="-0.04087">
        <ele>1039.412842</ele>
        <time>2013-02-09T12:38:34Z</time>
      </trkpt>
      <trkpt lat="42.99037" lon="-0.04088">
        <ele>1038.576538</ele>
        <time>2013-02-09T12:38:55Z</time>
      </trkpt>
      <trkpt lat="42.99043" lon="-0.04092">
        <ele>1038.59729</ele>
        <time>2013-02-09T12:39:20Z</time>
      </trkpt>
      <trkpt lat="42.99047" lon="-0.04095">
        <ele>1038.191162</ele>
        <time>2013-02-09T12:39:39Z</time>
      </trkpt>
      <trkpt lat="42.99047" lon="-0.04096">
        <ele>1038.012939</ele>
        <time>2013-02-09T12:39:41Z</time>
      </trkpt>
      <trkpt lat="42.99051" lon="-0.04104">
        <ele>1036.777832</ele>
        <time>2013-02-09T12:39:45Z</time>
      </trkpt>
      <trkpt lat="42.99053" lon="-0.04114">
        <ele>1034.731445</ele>
        <time>2013-02-09T12:39:49Z</time>
      </trkpt>
      <trkpt lat="42.99054" lon="-0.04116">
        <ele>1034.384521</ele>
        <time>2013-02-09T12:39:50Z</time>
      </trkpt>
      <trkpt lat="42.99058" lon="-0.04118">
        <ele>1034.334595</ele>
        <time>2013-02-09T12:40:05Z</time>
      </trkpt>
      <trkpt lat="42.99057" lon="-0.04119">
        <ele>1034.108032</ele>
        <time>2013-02-09T12:40:09Z</time>
      </trkpt>
      <trkpt lat="42.99057" lon="-0.04122">
        <ele>1033.407349</ele>
        <time>2013-02-09T12:40:25Z</time>
      </trkpt>
      <trkpt lat="42.99057" lon="-0.04122">
        <ele>1033.424927</ele>
        <time>2013-02-09T12:40:26Z</time>
      </trkpt>
      <trkpt lat="42.99056" lon="-0.04122">
        <ele>1033.240112</ele>
        <time>2013-02-09T12:40:48Z</time>
      </trkpt>
      <trkpt lat="42.99056" lon="-0.04127">
        <ele>1032.164795</ele>
        <time>2013-02-09T12:40:54Z</time>
      </trkpt>
      <trkpt lat="42.99049" lon="-0.04129">
        <ele>1030.888916</ele>
        <time>2013-02-09T12:41:08Z</time>
      </trkpt>
      <trkpt lat="42.99046" lon="-0.0413">
        <ele>1030.308228</ele>
        <time>2013-02-09T12:41:13Z</time>
      </trkpt>
      <trkpt lat="42.99044" lon="-0.04136">
        <ele>1028.590942</ele>
        <time>2013-02-09T12:41:33Z</time>
      </trkpt>
      <trkpt lat="42.99039" lon="-0.04147">
        <ele>1025.367554</ele>
        <time>2013-02-09T12:41:53Z</time>
      </trkpt>
      <trkpt lat="42.99031" lon="-0.04145">
        <ele>1024.930054</ele>
        <time>2013-02-09T12:42:13Z</time>
      </trkpt>
      <trkpt lat="42.99033" lon="-0.04151">
        <ele>1023.511902</ele>
        <time>2013-02-09T12:42:26Z</time>
      </trkpt>
      <trkpt lat="42.99033" lon="-0.04152">
        <ele>1023.446716</ele>
        <time>2013-02-09T12:42:27Z</time>
      </trkpt>
      <trkpt lat="42.99033" lon="-0.04152">
        <ele>1023.436218</ele>
        <time>2013-02-09T12:42:28Z</time>
      </trkpt>
      <trkpt lat="42.99032" lon="-0.04152">
        <ele>1023.215027</ele>
        <time>2013-02-09T12:42:33Z</time>
      </trkpt>
      <trkpt lat="42.99032" lon="-0.04153">
        <ele>1023.045593</ele>
        <time>2013-02-09T12:42:34Z</time>
      </trkpt>
      <trkpt lat="42.99032" lon="-0.04153">
        <ele>1022.899536</ele>
        <time>2013-02-09T12:42:35Z</time>
      </trkpt>
      <trkpt lat="42.99032" lon="-0.04155">
        <ele>1022.592346</ele>
        <time>2013-02-09T12:42:37Z</time>
      </trkpt>
      <trkpt lat="42.99033" lon="-0.04162">
        <ele>1020.749512</ele>
        <time>2013-02-09T12:42:57Z</time>
      </trkpt>
      <trkpt lat="42.99027" lon="-0.04164">
        <ele>1019.737122</ele>
        <time>2013-02-09T12:43:15Z</time>
      </trkpt>
      <trkpt lat="42.99026" lon="-0.04161">
        <ele>1020.376587</ele>
        <time>2013-02-09T12:43:18Z</time>
      </trkpt>
      <trkpt lat="42.9902" lon="-0.04154">
        <ele>1021.487976</ele>
        <time>2013-02-09T12:43:34Z</time>
      </trkpt>
      <trkpt lat="42.99015" lon="-0.04154">
        <ele>1020.777161</ele>
        <time>2013-02-09T12:43:49Z</time>
      </trkpt>
      <trkpt lat="42.99012" lon="-0.04154">
        <ele>1020.474121</ele>
        <time>2013-02-09T12:44:00Z</time>
      </trkpt>
      <trkpt lat="42.99012" lon="-0.04154">
        <ele>1020.46228</ele>
        <time>2013-02-09T12:44:01Z</time>
      </trkpt>
      <trkpt lat="42.99012" lon="-0.04155">
        <ele>1020.352417</ele>
        <time>2013-02-09T12:44:03Z</time>
      </trkpt>
      <trkpt lat="42.99012" lon="-0.04155">
        <ele>1020.300476</ele>
        <time>2013-02-09T12:44:04Z</time>
      </trkpt>
      <trkpt lat="42.99011" lon="-0.04162">
        <ele>1018.416931</ele>
        <time>2013-02-09T12:44:28Z</time>
      </trkpt>
      <trkpt lat="42.99012" lon="-0.04178">
        <ele>1014.615906</ele>
        <time>2013-02-09T12:44:43Z</time>
      </trkpt>
      <trkpt lat="42.99009" lon="-0.04191">
        <ele>1011.152771</ele>
        <time>2013-02-09T12:45:01Z</time>
      </trkpt>
      <trkpt lat="42.99008" lon="-0.04192">
        <ele>1010.755127</ele>
        <time>2013-02-09T12:45:07Z</time>
      </trkpt>
      <trkpt lat="42.99007" lon="-0.04192">
        <ele>1010.63678</ele>
        <time>2013-02-09T12:45:27Z</time>
      </trkpt>
      <trkpt lat="42.99006" lon="-0.04192">
        <ele>1010.573547</ele>
        <time>2013-02-09T12:45:42Z</time>
      </trkpt>
      <trkpt lat="42.99006" lon="-0.04192">
        <ele>1010.532349</ele>
        <time>2013-02-09T12:45:43Z</time>
      </trkpt>
      <trkpt lat="42.99005" lon="-0.04192">
        <ele>1010.432251</ele>
        <time>2013-02-09T12:45:45Z</time>
      </trkpt>
      <trkpt lat="42.99005" lon="-0.04192">
        <ele>1010.350281</ele>
        <time>2013-02-09T12:45:46Z</time>
      </trkpt>
      <trkpt lat="42.99004" lon="-0.0419">
        <ele>1010.686462</ele>
        <time>2013-02-09T12:45:56Z</time>
      </trkpt>
      <trkpt lat="42.99004" lon="-0.0419">
        <ele>1010.806335</ele>
        <time>2013-02-09T12:45:57Z</time>
      </trkpt>
      <trkpt lat="42.99009" lon="-0.04188">
        <ele>1011.837891</ele>
        <time>2013-02-09T12:45:58Z</time>
      </trkpt>
      <trkpt lat="42.99009" lon="-0.04186">
        <ele>1012.21228</ele>
        <time>2013-02-09T12:45:59Z</time>
      </trkpt>
      <trkpt lat="42.99005" lon="-0.04187">
        <ele>1011.519043</ele>
        <time>2013-02-09T12:46:26Z</time>
      </trkpt>
      <trkpt lat="42.99005" lon="-0.04187">
        <ele>1011.452026</ele>
        <time>2013-02-09T12:46:44Z</time>
      </trkpt>
      <trkpt lat="42.99" lon="-0.04192">
        <ele>1009.657715</ele>
        <time>2013-02-09T12:47:15Z</time>
      </trkpt>
      <trkpt lat="42.99002" lon="-0.04192">
        <ele>1009.807556</ele>
        <time>2013-02-09T12:47:47Z</time>
      </trkpt>
      <trkpt lat="42.99001" lon="-0.04195">
        <ele>1008.995178</ele>
        <time>2013-02-09T12:48:10Z</time>
      </trkpt>
      <trkpt lat="42.98996" lon="-0.04199">
        <ele>1007.328125</ele>
        <time>2013-02-09T12:48:32Z</time>
      </trkpt>
      <trkpt lat="42.98999" lon="-0.04194">
        <ele>1008.976685</ele>
        <time>2013-02-09T12:48:54Z</time>
      </trkpt>
      <trkpt lat="42.99003" lon="-0.04198">
        <ele>1008.558899</ele>
        <time>2013-02-09T12:49:24Z</time>
      </trkpt>
      <trkpt lat="42.99008" lon="-0.04195">
        <ele>1010.029846</ele>
        <time>2013-02-09T12:49:58Z</time>
      </trkpt>
      <trkpt lat="42.99004" lon="-0.04191">
        <ele>1010.424072</ele>
        <time>2013-02-09T12:50:34Z</time>
      </trkpt>
      <trkpt lat="42.99004" lon="-0.04195">
        <ele>1009.480408</ele>
        <time>2013-02-09T12:51:03Z</time>
      </trkpt>
      <trkpt lat="42.99005" lon="-0.04198">
        <ele>1008.765198</ele>
        <time>2013-02-09T12:51:28Z</time>
      </trkpt>
      <trkpt lat="42.99005" lon="-0.04191">
        <ele>1010.737549</ele>
        <time>2013-02-09T12:51:51Z</time>
      </trkpt>
      <trkpt lat="42.99009" lon="-0.04186">
        <ele>1012.447693</ele>
        <time>2013-02-09T12:52:22Z</time>
      </trkpt>
      <trkpt lat="42.99005" lon="-0.04192">
        <ele>1010.503662</ele>
        <time>2013-02-09T12:52:53Z</time>
      </trkpt>
      <trkpt lat="42.99006" lon="-0.04191">
        <ele>1010.692139</ele>
        <time>2013-02-09T12:53:21Z</time>
      </trkpt>
      <trkpt lat="42.99004" lon="-0.04195">
        <ele>1009.34082</ele>
        <time>2013-02-09T12:53:55Z</time>
      </trkpt>
      <trkpt lat="42.99003" lon="-0.04194">
        <ele>1009.397278</ele>
        <time>2013-02-09T12:54:33Z</time>
      </trkpt>
      <trkpt lat="42.99004" lon="-0.04199">
        <ele>1008.473755</ele>
        <time>2013-02-09T12:54:47Z</time>
      </trkpt>
      <trkpt lat="42.98992" lon="-0.04199">
        <ele>1006.880554</ele>
        <time>2013-02-09T12:54:53Z</time>
      </trkpt>
      <trkpt lat="42.9899" lon="-0.04198">
        <ele>1006.756714</ele>
        <time>2013-02-09T12:54:54Z</time>
      </trkpt>
      <trkpt lat="42.9898" lon="-0.0419">
        <ele>1007.464111</ele>
        <time>2013-02-09T12:55:04Z</time>
      </trkpt>
      <trkpt lat="42.98984" lon="-0.04193">
        <ele>1007.125732</ele>
        <time>2013-02-09T12:55:08Z</time>
      </trkpt>
      <trkpt lat="42.98987" lon="-0.04202">
        <ele>1005.278442</ele>
        <time>2013-02-09T12:55:12Z</time>
      </trkpt>
      <trkpt lat="42.98987" lon="-0.04207">
        <ele>1004.304688</ele>
        <time>2013-02-09T12:55:14Z</time>
      </trkpt>
      <trkpt lat="42.98991" lon="-0.04224">
        <ele>1001.415039</ele>
        <time>2013-02-09T12:55:26Z</time>
      </trkpt>
      <trkpt lat="42.98991" lon="-0.04225">
        <ele>1001.246399</ele>
        <time>2013-02-09T12:55:27Z</time>
      </trkpt>
      <trkpt lat="42.98989" lon="-0.04226">
        <ele>1000.690857</ele>
        <time>2013-02-09T12:55:29Z</time>
      </trkpt>
      <trkpt lat="42.98985" lon="-0.04226">
        <ele>1000.224487</ele>
        <time>2013-02-09T12:55:32Z</time>
      </trkpt>
      <trkpt lat="42.98983" lon="-0.04236">
        <ele>997.930664</ele>
        <time>2013-02-09T12:55:40Z</time>
      </trkpt>
      <trkpt lat="42.98983" lon="-0.04241">
        <ele>996.940613</ele>
        <time>2013-02-09T12:55:42Z</time>
      </trkpt>
      <trkpt lat="42.98983" lon="-0.04245">
        <ele>996.24762</ele>
        <time>2013-02-09T12:55:43Z</time>
      </trkpt>
      <trkpt lat="42.98982" lon="-0.04249">
        <ele>995.354675</ele>
        <time>2013-02-09T12:55:44Z</time>
      </trkpt>
      <trkpt lat="42.98983" lon="-0.04254">
        <ele>994.493408</ele>
        <time>2013-02-09T12:55:45Z</time>
      </trkpt>
      <trkpt lat="42.98989" lon="-0.04259">
        <ele>994.131409</ele>
        <time>2013-02-09T12:55:47Z</time>
      </trkpt>
      <trkpt lat="42.98989" lon="-0.04278">
        <ele>990.74707</ele>
        <time>2013-02-09T12:55:57Z</time>
      </trkpt>
      <trkpt lat="42.9899" lon="-0.04282">
        <ele>990.28833</ele>
        <time>2013-02-09T12:55:58Z</time>
      </trkpt>
      <trkpt lat="42.98997" lon="-0.04292">
        <ele>989.407593</ele>
        <time>2013-02-09T12:56:10Z</time>
      </trkpt>
      <trkpt lat="42.98996" lon="-0.04298">
        <ele>988.133545</ele>
        <time>2013-02-09T12:56:29Z</time>
      </trkpt>
      <trkpt lat="42.98996" lon="-0.04304">
        <ele>987.180969</ele>
        <time>2013-02-09T12:56:49Z</time>
      </trkpt>
      <trkpt lat="42.98999" lon="-0.04309">
        <ele>986.526123</ele>
        <time>2013-02-09T12:57:06Z</time>
      </trkpt>
      <trkpt lat="42.98999" lon="-0.04316">
        <ele>985.353821</ele>
        <time>2013-02-09T12:57:16Z</time>
      </trkpt>
      <trkpt lat="42.98999" lon="-0.04319">
        <ele>984.824646</ele>
        <time>2013-02-09T12:57:18Z</time>
      </trkpt>
      <trkpt lat="42.99" lon="-0.04322">
        <ele>984.376953</ele>
        <time>2013-02-09T12:57:19Z</time>
      </trkpt>
      <trkpt lat="42.99" lon="-0.04325">
        <ele>983.866638</ele>
        <time>2013-02-09T12:57:20Z</time>
      </trkpt>
      <trkpt lat="42.99" lon="-0.04329">
        <ele>983.191101</ele>
        <time>2013-02-09T12:57:21Z</time>
      </trkpt>
      <trkpt lat="42.98999" lon="-0.04334">
        <ele>982.284607</ele>
        <time>2013-02-09T12:57:22Z</time>
      </trkpt>
      <trkpt lat="42.98998" lon="-0.04338">
        <ele>981.348389</ele>
        <time>2013-02-09T12:57:23Z</time>
      </trkpt>
      <trkpt lat="42.98996" lon="-0.04343">
        <ele>980.380066</ele>
        <time>2013-02-09T12:57:24Z</time>
      </trkpt>
      <trkpt lat="42.98979" lon="-0.04366">
        <ele>974.006348</ele>
        <time>2013-02-09T12:57:37Z</time>
      </trkpt>
      <trkpt lat="42.98976" lon="-0.04368">
        <ele>973.113159</ele>
        <time>2013-02-09T12:57:40Z</time>
      </trkpt>
      <trkpt lat="42.98974" lon="-0.04369">
        <ele>972.702087</ele>
        <time>2013-02-09T12:57:44Z</time>
      </trkpt>
      <trkpt lat="42.98974" lon="-0.04369">
        <ele>972.683594</ele>
        <time>2013-02-09T12:57:45Z</time>
      </trkpt>
      <trkpt lat="42.98975" lon="-0.04369">
        <ele>972.660828</ele>
        <time>2013-02-09T12:57:46Z</time>
      </trkpt>
      <trkpt lat="42.98975" lon="-0.04369">
        <ele>972.666016</ele>
        <time>2013-02-09T12:57:47Z</time>
      </trkpt>
      <trkpt lat="42.98976" lon="-0.0437">
        <ele>972.68219</ele>
        <time>2013-02-09T12:57:48Z</time>
      </trkpt>
      <trkpt lat="42.98984" lon="-0.04358">
        <ele>976.117676</ele>
        <time>2013-02-09T12:57:49Z</time>
      </trkpt>
      <trkpt lat="42.98977" lon="-0.0437">
        <ele>972.667542</ele>
        <time>2013-02-09T12:57:50Z</time>
      </trkpt>
      <trkpt lat="42.98974" lon="-0.04369">
        <ele>972.685181</ele>
        <time>2013-02-09T12:57:52Z</time>
      </trkpt>
      <trkpt lat="42.98974" lon="-0.04368">
        <ele>972.823364</ele>
        <time>2013-02-09T12:57:53Z</time>
      </trkpt>
      <trkpt lat="42.98972" lon="-0.04368">
        <ele>972.432007</ele>
        <time>2013-02-09T12:58:04Z</time>
      </trkpt>
      <trkpt lat="42.98972" lon="-0.04368">
        <ele>972.470703</ele>
        <time>2013-02-09T12:58:05Z</time>
      </trkpt>
      <trkpt lat="42.98972" lon="-0.04368">
        <ele>972.454651</ele>
        <time>2013-02-09T12:58:06Z</time>
      </trkpt>
      <trkpt lat="42.98972" lon="-0.04369">
        <ele>972.392883</ele>
        <time>2013-02-09T12:58:07Z</time>
      </trkpt>
      <trkpt lat="42.98973" lon="-0.04369">
        <ele>972.370667</ele>
        <time>2013-02-09T12:58:08Z</time>
      </trkpt>
      <trkpt lat="42.98973" lon="-0.04369">
        <ele>972.437073</ele>
        <time>2013-02-09T12:58:10Z</time>
      </trkpt>
      <trkpt lat="42.98965" lon="-0.04357">
        <ele>973.637756</ele>
        <time>2013-02-09T12:58:24Z</time>
      </trkpt>
      <trkpt lat="42.98968" lon="-0.04336">
        <ele>978.368469</ele>
        <time>2013-02-09T12:58:41Z</time>
      </trkpt>
      <trkpt lat="42.98973" lon="-0.04337">
        <ele>978.837158</ele>
        <time>2013-02-09T12:59:02Z</time>
      </trkpt>
      <trkpt lat="42.98969" lon="-0.04337">
        <ele>978.420471</ele>
        <time>2013-02-09T12:59:19Z</time>
      </trkpt>
      <trkpt lat="42.98968" lon="-0.04337">
        <ele>978.2052</ele>
        <time>2013-02-09T12:59:40Z</time>
      </trkpt>
      <trkpt lat="42.98966" lon="-0.04337">
        <ele>978.004272</ele>
        <time>2013-02-09T12:59:47Z</time>
      </trkpt>
      <trkpt lat="42.98966" lon="-0.04337">
        <ele>978.00415</ele>
        <time>2013-02-09T12:59:48Z</time>
      </trkpt>
      <trkpt lat="42.98964" lon="-0.04338">
        <ele>977.721863</ele>
        <time>2013-02-09T12:59:55Z</time>
      </trkpt>
      <trkpt lat="42.98964" lon="-0.0434">
        <ele>977.166687</ele>
        <time>2013-02-09T12:59:59Z</time>
      </trkpt>
      <trkpt lat="42.98964" lon="-0.0434">
        <ele>977.088074</ele>
        <time>2013-02-09T13:00:00Z</time>
      </trkpt>
      <trkpt lat="42.98963" lon="-0.04341">
        <ele>976.772217</ele>
        <time>2013-02-09T13:00:08Z</time>
      </trkpt>
      <trkpt lat="42.98964" lon="-0.04341">
        <ele>976.816833</ele>
        <time>2013-02-09T13:00:09Z</time>
      </trkpt>
      <trkpt lat="42.98964" lon="-0.04342">
        <ele>976.7724</ele>
        <time>2013-02-09T13:00:11Z</time>
      </trkpt>
      <trkpt lat="42.98964" lon="-0.04343">
        <ele>976.590271</ele>
        <time>2013-02-09T13:00:13Z</time>
      </trkpt>
      <trkpt lat="42.98963" lon="-0.04343">
        <ele>976.43988</ele>
        <time>2013-02-09T13:00:16Z</time>
      </trkpt>
      <trkpt lat="42.98963" lon="-0.04343">
        <ele>976.425049</ele>
        <time>2013-02-09T13:00:17Z</time>
      </trkpt>
      <trkpt lat="42.98963" lon="-0.04343">
        <ele>976.403809</ele>
        <time>2013-02-09T13:00:18Z</time>
      </trkpt>
      <trkpt lat="42.98963" lon="-0.04345">
        <ele>976.00531</ele>
        <time>2013-02-09T13:00:19Z</time>
      </trkpt>
      <trkpt lat="42.98963" lon="-0.04346">
        <ele>975.861877</ele>
        <time>2013-02-09T13:00:20Z</time>
      </trkpt>
      <trkpt lat="42.98964" lon="-0.04344">
        <ele>976.315857</ele>
        <time>2013-02-09T13:00:23Z</time>
      </trkpt>
      <trkpt lat="42.98966" lon="-0.04341">
        <ele>977.20813</ele>
        <time>2013-02-09T13:00:47Z</time>
      </trkpt>
      <trkpt lat="42.98967" lon="-0.04337">
        <ele>978.098816</ele>
        <time>2013-02-09T13:01:05Z</time>
      </trkpt>
    </trkseg>
  </trk>
</gpx>